<?xml version="1.0" encoding="UTF-8" standalone="no" ?>
<gpx xmlns="http://www.topografix.com/GPX/1/1" xmlns:xsi="http://www.w3.org/2001/XMLSchema-instance" xsi:schemaLocation="http://www.topografix.com/GPX/1/1 http://www.topografix.com/GPX/1/1/gpx.xsd" version="1.1" creator="VisuGPX - https://www.visugpx.com">
  <metadata>
    <name>Col du Galibier  2020-08-20</name>
    <desc><![CDATA[1 jour, un col 
Geniale montée sans moto et voiture.
Beaucoup de velos moteurs , de vrais cyclotouristes, peu de VTC comme ma femme Christine et moi.
Nous sommes fiers de l'avoir fait.


]]></desc>
  </metadata>
  <trk>
    <name><![CDATA[TRK-2020-08-20]]></name>
    <extensions>
      <line xmlns="http://www.topografix.com/GPX/gpx_style/0/2">
        <color>0000FF</color>
        <width>4</width>
      </line>
    </extensions>
    <trkseg>
      <trkpt lat="45.09774" lon="6.4299">
        <ele>1907.4</ele>
        <time>2020-08-20 09:04:16</time>
      </trkpt>
      <trkpt lat="45.09774" lon="6.42989">
        <ele>1907.2</ele>
        <time>2020-08-20 09:04:19</time>
      </trkpt>
      <trkpt lat="45.09774" lon="6.4299">
        <ele>1907.4</ele>
        <time>2020-08-20 09:04:20</time>
      </trkpt>
      <trkpt lat="45.09775" lon="6.4299">
        <ele>1907.4</ele>
        <time>2020-08-20 09:04:22</time>
      </trkpt>
      <trkpt lat="45.09775" lon="6.42988">
        <ele>1906.9</ele>
        <time>2020-08-20 09:04:23</time>
      </trkpt>
      <trkpt lat="45.09773" lon="6.42981">
        <ele>1905.1</ele>
        <time>2020-08-20 09:04:27</time>
      </trkpt>
      <trkpt lat="45.0977" lon="6.42982">
        <ele>1905.3</ele>
        <time>2020-08-20 09:04:29</time>
      </trkpt>
      <trkpt lat="45.09765" lon="6.42987">
        <ele>1906.5</ele>
        <time>2020-08-20 09:04:33</time>
      </trkpt>
      <trkpt lat="45.09764" lon="6.42988">
        <ele>1906.8</ele>
        <time>2020-08-20 09:04:34</time>
      </trkpt>
      <trkpt lat="45.09762" lon="6.42989">
        <ele>1907</ele>
        <time>2020-08-20 09:04:36</time>
      </trkpt>
      <trkpt lat="45.09749" lon="6.42996">
        <ele>1908.9</ele>
        <time>2020-08-20 09:04:46</time>
      </trkpt>
      <trkpt lat="45.09745" lon="6.42998">
        <ele>1909.8</ele>
        <time>2020-08-20 09:04:48</time>
      </trkpt>
      <trkpt lat="45.09743" lon="6.42998">
        <ele>1909.9</ele>
        <time>2020-08-20 09:04:49</time>
      </trkpt>
      <trkpt lat="45.0974" lon="6.43">
        <ele>1910.7</ele>
        <time>2020-08-20 09:04:51</time>
      </trkpt>
      <trkpt lat="45.09731" lon="6.43005">
        <ele>1912.4</ele>
        <time>2020-08-20 09:04:56</time>
      </trkpt>
      <trkpt lat="45.09724" lon="6.43012">
        <ele>1914.4</ele>
        <time>2020-08-20 09:05:01</time>
      </trkpt>
      <trkpt lat="45.09717" lon="6.4302">
        <ele>1915.7</ele>
        <time>2020-08-20 09:05:06</time>
      </trkpt>
      <trkpt lat="45.09716" lon="6.43022">
        <ele>1916</ele>
        <time>2020-08-20 09:05:07</time>
      </trkpt>
      <trkpt lat="45.09714" lon="6.43023">
        <ele>1916</ele>
        <time>2020-08-20 09:05:08</time>
      </trkpt>
      <trkpt lat="45.09703" lon="6.43033">
        <ele>1917.1</ele>
        <time>2020-08-20 09:05:14</time>
      </trkpt>
      <trkpt lat="45.09688" lon="6.43046">
        <ele>1918.6</ele>
        <time>2020-08-20 09:05:23</time>
      </trkpt>
      <trkpt lat="45.09686" lon="6.43048">
        <ele>1918.8</ele>
        <time>2020-08-20 09:05:25</time>
      </trkpt>
      <trkpt lat="45.09684" lon="6.43049">
        <ele>1918.9</ele>
        <time>2020-08-20 09:05:26</time>
      </trkpt>
      <trkpt lat="45.09678" lon="6.43051">
        <ele>1918.9</ele>
        <time>2020-08-20 09:05:29</time>
      </trkpt>
      <trkpt lat="45.09671" lon="6.43052">
        <ele>1918.7</ele>
        <time>2020-08-20 09:05:33</time>
      </trkpt>
      <trkpt lat="45.09645" lon="6.43052">
        <ele>1921.3</ele>
        <time>2020-08-20 09:05:47</time>
      </trkpt>
      <trkpt lat="45.09642" lon="6.43052">
        <ele>1921.7</ele>
        <time>2020-08-20 09:05:49</time>
      </trkpt>
      <trkpt lat="45.09637" lon="6.43052">
        <ele>1922.2</ele>
        <time>2020-08-20 09:05:52</time>
      </trkpt>
      <trkpt lat="45.09612" lon="6.43051">
        <ele>1923.9</ele>
        <time>2020-08-20 09:06:05</time>
      </trkpt>
      <trkpt lat="45.0961" lon="6.43051">
        <ele>1924.1</ele>
        <time>2020-08-20 09:06:06</time>
      </trkpt>
      <trkpt lat="45.09582" lon="6.43049">
        <ele>1926.7</ele>
        <time>2020-08-20 09:06:23</time>
      </trkpt>
      <trkpt lat="45.0958" lon="6.43048">
        <ele>1926.5</ele>
        <time>2020-08-20 09:06:24</time>
      </trkpt>
      <trkpt lat="45.09577" lon="6.43049">
        <ele>1926.9</ele>
        <time>2020-08-20 09:06:27</time>
      </trkpt>
      <trkpt lat="45.09573" lon="6.43053">
        <ele>1928.1</ele>
        <time>2020-08-20 09:06:30</time>
      </trkpt>
      <trkpt lat="45.09569" lon="6.43054">
        <ele>1928.6</ele>
        <time>2020-08-20 09:06:33</time>
      </trkpt>
      <trkpt lat="45.09557" lon="6.43052">
        <ele>1928.9</ele>
        <time>2020-08-20 09:06:41</time>
      </trkpt>
      <trkpt lat="45.09551" lon="6.43053">
        <ele>1929.6</ele>
        <time>2020-08-20 09:06:44</time>
      </trkpt>
      <trkpt lat="45.09525" lon="6.4305">
        <ele>1930.6</ele>
        <time>2020-08-20 09:06:59</time>
      </trkpt>
      <trkpt lat="45.09522" lon="6.4305">
        <ele>1931.1</ele>
        <time>2020-08-20 09:07:01</time>
      </trkpt>
      <trkpt lat="45.09521" lon="6.4305">
        <ele>1931.3</ele>
        <time>2020-08-20 09:07:02</time>
      </trkpt>
      <trkpt lat="45.09493" lon="6.43049">
        <ele>1935</ele>
        <time>2020-08-20 09:07:17</time>
      </trkpt>
      <trkpt lat="45.09487" lon="6.4305">
        <ele>1935.4</ele>
        <time>2020-08-20 09:07:20</time>
      </trkpt>
      <trkpt lat="45.09485" lon="6.43051">
        <ele>1935.7</ele>
        <time>2020-08-20 09:07:21</time>
      </trkpt>
      <trkpt lat="45.09472" lon="6.4306">
        <ele>1937.6</ele>
        <time>2020-08-20 09:07:28</time>
      </trkpt>
      <trkpt lat="45.09437" lon="6.43102">
        <ele>1939.5</ele>
        <time>2020-08-20 09:07:51</time>
      </trkpt>
      <trkpt lat="45.09421" lon="6.43116">
        <ele>1941.4</ele>
        <time>2020-08-20 09:08:00</time>
      </trkpt>
      <trkpt lat="45.09406" lon="6.43125">
        <ele>1942.7</ele>
        <time>2020-08-20 09:08:08</time>
      </trkpt>
      <trkpt lat="45.09393" lon="6.43138">
        <ele>1943.5</ele>
        <time>2020-08-20 09:08:15</time>
      </trkpt>
      <trkpt lat="45.09391" lon="6.4314">
        <ele>1943.5</ele>
        <time>2020-08-20 09:08:16</time>
      </trkpt>
      <trkpt lat="45.09377" lon="6.43153">
        <ele>1944.3</ele>
        <time>2020-08-20 09:08:23</time>
      </trkpt>
      <trkpt lat="45.09372" lon="6.43156">
        <ele>1944.3</ele>
        <time>2020-08-20 09:08:25</time>
      </trkpt>
      <trkpt lat="45.0937" lon="6.43157">
        <ele>1944.2</ele>
        <time>2020-08-20 09:08:26</time>
      </trkpt>
      <trkpt lat="45.09329" lon="6.4318">
        <ele>1946.1</ele>
        <time>2020-08-20 09:08:45</time>
      </trkpt>
      <trkpt lat="45.09306" lon="6.43204">
        <ele>1946.9</ele>
        <time>2020-08-20 09:08:56</time>
      </trkpt>
      <trkpt lat="45.09301" lon="6.43212">
        <ele>1946.6</ele>
        <time>2020-08-20 09:08:59</time>
      </trkpt>
      <trkpt lat="45.09298" lon="6.43219">
        <ele>1947.3</ele>
        <time>2020-08-20 09:09:01</time>
      </trkpt>
      <trkpt lat="45.09292" lon="6.43233">
        <ele>1950.3</ele>
        <time>2020-08-20 09:09:05</time>
      </trkpt>
      <trkpt lat="45.09287" lon="6.43236">
        <ele>1950</ele>
        <time>2020-08-20 09:09:07</time>
      </trkpt>
      <trkpt lat="45.09276" lon="6.43242">
        <ele>1949.2</ele>
        <time>2020-08-20 09:09:13</time>
      </trkpt>
      <trkpt lat="45.09258" lon="6.43246">
        <ele>1948.1</ele>
        <time>2020-08-20 09:09:22</time>
      </trkpt>
      <trkpt lat="45.09256" lon="6.43247">
        <ele>1948.1</ele>
        <time>2020-08-20 09:09:23</time>
      </trkpt>
      <trkpt lat="45.09252" lon="6.43249">
        <ele>1948</ele>
        <time>2020-08-20 09:09:25</time>
      </trkpt>
      <trkpt lat="45.09235" lon="6.43258">
        <ele>1949.4</ele>
        <time>2020-08-20 09:09:34</time>
      </trkpt>
      <trkpt lat="45.09233" lon="6.43259">
        <ele>1949.5</ele>
        <time>2020-08-20 09:09:35</time>
      </trkpt>
      <trkpt lat="45.09226" lon="6.43264">
        <ele>1949.7</ele>
        <time>2020-08-20 09:09:39</time>
      </trkpt>
      <trkpt lat="45.09217" lon="6.43274">
        <ele>1950</ele>
        <time>2020-08-20 09:09:45</time>
      </trkpt>
      <trkpt lat="45.09214" lon="6.43278">
        <ele>1950.3</ele>
        <time>2020-08-20 09:09:47</time>
      </trkpt>
      <trkpt lat="45.09213" lon="6.4328">
        <ele>1950.7</ele>
        <time>2020-08-20 09:09:48</time>
      </trkpt>
      <trkpt lat="45.09212" lon="6.43282">
        <ele>1951.1</ele>
        <time>2020-08-20 09:09:49</time>
      </trkpt>
      <trkpt lat="45.09206" lon="6.43287">
        <ele>1951</ele>
        <time>2020-08-20 09:09:52</time>
      </trkpt>
      <trkpt lat="45.092" lon="6.43293">
        <ele>1950.9</ele>
        <time>2020-08-20 09:09:56</time>
      </trkpt>
      <trkpt lat="45.09199" lon="6.43292">
        <ele>1950.4</ele>
        <time>2020-08-20 09:09:57</time>
      </trkpt>
      <trkpt lat="45.09197" lon="6.43292">
        <ele>1949.8</ele>
        <time>2020-08-20 09:10:15</time>
      </trkpt>
      <trkpt lat="45.09196" lon="6.43293">
        <ele>1949.7</ele>
        <time>2020-08-20 09:10:16</time>
      </trkpt>
      <trkpt lat="45.09195" lon="6.43295">
        <ele>1949.9</ele>
        <time>2020-08-20 09:10:17</time>
      </trkpt>
      <trkpt lat="45.09189" lon="6.43306">
        <ele>1950.2</ele>
        <time>2020-08-20 09:10:21</time>
      </trkpt>
      <trkpt lat="45.0918" lon="6.43332">
        <ele>1954.3</ele>
        <time>2020-08-20 09:10:28</time>
      </trkpt>
      <trkpt lat="45.09177" lon="6.43343">
        <ele>1955.1</ele>
        <time>2020-08-20 09:10:31</time>
      </trkpt>
      <trkpt lat="45.09166" lon="6.43366">
        <ele>1954.2</ele>
        <time>2020-08-20 09:10:38</time>
      </trkpt>
      <trkpt lat="45.09143" lon="6.43403">
        <ele>1955.5</ele>
        <time>2020-08-20 09:10:52</time>
      </trkpt>
      <trkpt lat="45.09142" lon="6.43406">
        <ele>1955.6</ele>
        <time>2020-08-20 09:10:53</time>
      </trkpt>
      <trkpt lat="45.09129" lon="6.43473">
        <ele>1958.2</ele>
        <time>2020-08-20 09:11:13</time>
      </trkpt>
      <trkpt lat="45.09122" lon="6.43489">
        <ele>1958.3</ele>
        <time>2020-08-20 09:11:18</time>
      </trkpt>
      <trkpt lat="45.09117" lon="6.43497">
        <ele>1958.1</ele>
        <time>2020-08-20 09:11:21</time>
      </trkpt>
      <trkpt lat="45.0911" lon="6.43505">
        <ele>1958.2</ele>
        <time>2020-08-20 09:11:24</time>
      </trkpt>
      <trkpt lat="45.09105" lon="6.43509">
        <ele>1959</ele>
        <time>2020-08-20 09:11:26</time>
      </trkpt>
      <trkpt lat="45.09097" lon="6.43514">
        <ele>1959.8</ele>
        <time>2020-08-20 09:11:29</time>
      </trkpt>
      <trkpt lat="45.09069" lon="6.43527">
        <ele>1960.8</ele>
        <time>2020-08-20 09:11:40</time>
      </trkpt>
      <trkpt lat="45.09051" lon="6.43532">
        <ele>1960.6</ele>
        <time>2020-08-20 09:11:47</time>
      </trkpt>
      <trkpt lat="45.09049" lon="6.43533">
        <ele>1960.8</ele>
        <time>2020-08-20 09:11:48</time>
      </trkpt>
      <trkpt lat="45.09044" lon="6.43534">
        <ele>1961</ele>
        <time>2020-08-20 09:11:51</time>
      </trkpt>
      <trkpt lat="45.09044" lon="6.43535">
        <ele>1961.1</ele>
        <time>2020-08-20 09:11:52</time>
      </trkpt>
      <trkpt lat="45.09044" lon="6.43535">
        <ele>1961.1</ele>
        <time>2020-08-20 09:12:32</time>
      </trkpt>
      <trkpt lat="45.09043" lon="6.43535">
        <ele>1961.1</ele>
        <time>2020-08-20 09:12:36</time>
      </trkpt>
      <trkpt lat="45.09042" lon="6.43535">
        <ele>1961.1</ele>
        <time>2020-08-20 09:12:37</time>
      </trkpt>
      <trkpt lat="45.09039" lon="6.43534">
        <ele>1961.1</ele>
        <time>2020-08-20 09:12:39</time>
      </trkpt>
      <trkpt lat="45.09037" lon="6.43534">
        <ele>1961.2</ele>
        <time>2020-08-20 09:12:40</time>
      </trkpt>
      <trkpt lat="45.0903" lon="6.43535">
        <ele>1961.5</ele>
        <time>2020-08-20 09:12:43</time>
      </trkpt>
      <trkpt lat="45.09028" lon="6.43535">
        <ele>1961.5</ele>
        <time>2020-08-20 09:12:44</time>
      </trkpt>
      <trkpt lat="45.09025" lon="6.43535">
        <ele>1961.6</ele>
        <time>2020-08-20 09:12:45</time>
      </trkpt>
      <trkpt lat="45.09009" lon="6.43535">
        <ele>1962.2</ele>
        <time>2020-08-20 09:12:52</time>
      </trkpt>
      <trkpt lat="45.09006" lon="6.43535">
        <ele>1962.3</ele>
        <time>2020-08-20 09:12:53</time>
      </trkpt>
      <trkpt lat="45.08985" lon="6.43529">
        <ele>1963.2</ele>
        <time>2020-08-20 09:13:02</time>
      </trkpt>
      <trkpt lat="45.08961" lon="6.43525">
        <ele>1964.1</ele>
        <time>2020-08-20 09:13:11</time>
      </trkpt>
      <trkpt lat="45.08927" lon="6.4353">
        <ele>1965.9</ele>
        <time>2020-08-20 09:13:24</time>
      </trkpt>
      <trkpt lat="45.08919" lon="6.43532">
        <ele>1966.4</ele>
        <time>2020-08-20 09:13:27</time>
      </trkpt>
      <trkpt lat="45.08837" lon="6.43548">
        <ele>1968.9</ele>
        <time>2020-08-20 09:13:57</time>
      </trkpt>
      <trkpt lat="45.08815" lon="6.43557">
        <ele>1970.8</ele>
        <time>2020-08-20 09:14:06</time>
      </trkpt>
      <trkpt lat="45.08785" lon="6.43575">
        <ele>1972.4</ele>
        <time>2020-08-20 09:14:18</time>
      </trkpt>
      <trkpt lat="45.08778" lon="6.43578">
        <ele>1972.4</ele>
        <time>2020-08-20 09:14:21</time>
      </trkpt>
      <trkpt lat="45.08771" lon="6.43583">
        <ele>1973.2</ele>
        <time>2020-08-20 09:14:24</time>
      </trkpt>
      <trkpt lat="45.08767" lon="6.43586">
        <ele>1973.7</ele>
        <time>2020-08-20 09:14:26</time>
      </trkpt>
      <trkpt lat="45.08765" lon="6.43587">
        <ele>1973.9</ele>
        <time>2020-08-20 09:14:27</time>
      </trkpt>
      <trkpt lat="45.0874" lon="6.43612">
        <ele>1975.4</ele>
        <time>2020-08-20 09:14:39</time>
      </trkpt>
      <trkpt lat="45.08723" lon="6.43632">
        <ele>1977.8</ele>
        <time>2020-08-20 09:14:47</time>
      </trkpt>
      <trkpt lat="45.08718" lon="6.4364">
        <ele>1978.6</ele>
        <time>2020-08-20 09:14:50</time>
      </trkpt>
      <trkpt lat="45.08713" lon="6.43645">
        <ele>1978.8</ele>
        <time>2020-08-20 09:14:53</time>
      </trkpt>
      <trkpt lat="45.08697" lon="6.43657">
        <ele>1979.2</ele>
        <time>2020-08-20 09:15:00</time>
      </trkpt>
      <trkpt lat="45.08679" lon="6.43677">
        <ele>1981.4</ele>
        <time>2020-08-20 09:15:09</time>
      </trkpt>
      <trkpt lat="45.08671" lon="6.43687">
        <ele>1982.2</ele>
        <time>2020-08-20 09:15:13</time>
      </trkpt>
      <trkpt lat="45.0863" lon="6.43724">
        <ele>1985.1</ele>
        <time>2020-08-20 09:15:32</time>
      </trkpt>
      <trkpt lat="45.08628" lon="6.43727">
        <ele>1985.8</ele>
        <time>2020-08-20 09:15:33</time>
      </trkpt>
      <trkpt lat="45.08617" lon="6.43736">
        <ele>1987</ele>
        <time>2020-08-20 09:15:38</time>
      </trkpt>
      <trkpt lat="45.08612" lon="6.43737">
        <ele>1986.7</ele>
        <time>2020-08-20 09:15:40</time>
      </trkpt>
      <trkpt lat="45.08603" lon="6.43737">
        <ele>1986.3</ele>
        <time>2020-08-20 09:15:43</time>
      </trkpt>
      <trkpt lat="45.08599" lon="6.43734">
        <ele>1985.8</ele>
        <time>2020-08-20 09:15:45</time>
      </trkpt>
      <trkpt lat="45.08592" lon="6.43725">
        <ele>1984.4</ele>
        <time>2020-08-20 09:15:48</time>
      </trkpt>
      <trkpt lat="45.0858" lon="6.43706">
        <ele>1985</ele>
        <time>2020-08-20 09:15:54</time>
      </trkpt>
      <trkpt lat="45.08578" lon="6.43698">
        <ele>1985.6</ele>
        <time>2020-08-20 09:15:56</time>
      </trkpt>
      <trkpt lat="45.08576" lon="6.43689">
        <ele>1986.5</ele>
        <time>2020-08-20 09:15:58</time>
      </trkpt>
      <trkpt lat="45.08576" lon="6.4368">
        <ele>1987.3</ele>
        <time>2020-08-20 09:16:00</time>
      </trkpt>
      <trkpt lat="45.08576" lon="6.43672">
        <ele>1987.9</ele>
        <time>2020-08-20 09:16:02</time>
      </trkpt>
      <trkpt lat="45.08577" lon="6.43665">
        <ele>1988.2</ele>
        <time>2020-08-20 09:16:04</time>
      </trkpt>
      <trkpt lat="45.08585" lon="6.43643">
        <ele>1988.2</ele>
        <time>2020-08-20 09:16:11</time>
      </trkpt>
      <trkpt lat="45.08607" lon="6.43596">
        <ele>1991.8</ele>
        <time>2020-08-20 09:16:29</time>
      </trkpt>
      <trkpt lat="45.08611" lon="6.43581">
        <ele>1992.4</ele>
        <time>2020-08-20 09:16:34</time>
      </trkpt>
      <trkpt lat="45.08613" lon="6.43574">
        <ele>1992.6</ele>
        <time>2020-08-20 09:16:36</time>
      </trkpt>
      <trkpt lat="45.08615" lon="6.43568">
        <ele>1992.8</ele>
        <time>2020-08-20 09:16:38</time>
      </trkpt>
      <trkpt lat="45.08617" lon="6.43562">
        <ele>1993.2</ele>
        <time>2020-08-20 09:16:40</time>
      </trkpt>
      <trkpt lat="45.08619" lon="6.43557">
        <ele>1993.5</ele>
        <time>2020-08-20 09:16:42</time>
      </trkpt>
      <trkpt lat="45.08626" lon="6.43542">
        <ele>1996.3</ele>
        <time>2020-08-20 09:16:48</time>
      </trkpt>
      <trkpt lat="45.08627" lon="6.4354">
        <ele>1996.7</ele>
        <time>2020-08-20 09:16:49</time>
      </trkpt>
      <trkpt lat="45.0863" lon="6.43536">
        <ele>1997.1</ele>
        <time>2020-08-20 09:16:51</time>
      </trkpt>
      <trkpt lat="45.08647" lon="6.43513">
        <ele>1999</ele>
        <time>2020-08-20 09:17:03</time>
      </trkpt>
      <trkpt lat="45.0865" lon="6.43509">
        <ele>1999.5</ele>
        <time>2020-08-20 09:17:05</time>
      </trkpt>
      <trkpt lat="45.08652" lon="6.43507">
        <ele>1999.6</ele>
        <time>2020-08-20 09:17:06</time>
      </trkpt>
      <trkpt lat="45.08672" lon="6.43483">
        <ele>2000.4</ele>
        <time>2020-08-20 09:17:19</time>
      </trkpt>
      <trkpt lat="45.08674" lon="6.43479">
        <ele>2000.7</ele>
        <time>2020-08-20 09:17:21</time>
      </trkpt>
      <trkpt lat="45.08676" lon="6.43477">
        <ele>2000.4</ele>
        <time>2020-08-20 09:17:22</time>
      </trkpt>
      <trkpt lat="45.08681" lon="6.43468">
        <ele>2001.6</ele>
        <time>2020-08-20 09:17:26</time>
      </trkpt>
      <trkpt lat="45.08685" lon="6.4346">
        <ele>2003.5</ele>
        <time>2020-08-20 09:17:30</time>
      </trkpt>
      <trkpt lat="45.08688" lon="6.43455">
        <ele>2004.6</ele>
        <time>2020-08-20 09:17:32</time>
      </trkpt>
      <trkpt lat="45.08693" lon="6.43448">
        <ele>2005.9</ele>
        <time>2020-08-20 09:17:36</time>
      </trkpt>
      <trkpt lat="45.08694" lon="6.43446">
        <ele>2006.5</ele>
        <time>2020-08-20 09:17:37</time>
      </trkpt>
      <trkpt lat="45.08703" lon="6.43428">
        <ele>2011</ele>
        <time>2020-08-20 09:17:45</time>
      </trkpt>
      <trkpt lat="45.08711" lon="6.43419">
        <ele>2012.5</ele>
        <time>2020-08-20 09:17:51</time>
      </trkpt>
      <trkpt lat="45.08719" lon="6.43412">
        <ele>2013.8</ele>
        <time>2020-08-20 09:17:57</time>
      </trkpt>
      <trkpt lat="45.08725" lon="6.43406">
        <ele>2015</ele>
        <time>2020-08-20 09:18:01</time>
      </trkpt>
      <trkpt lat="45.08727" lon="6.43405">
        <ele>2014.8</ele>
        <time>2020-08-20 09:18:02</time>
      </trkpt>
      <trkpt lat="45.08738" lon="6.43395">
        <ele>2016.2</ele>
        <time>2020-08-20 09:18:09</time>
      </trkpt>
      <trkpt lat="45.08739" lon="6.43394">
        <ele>2016.4</ele>
        <time>2020-08-20 09:18:10</time>
      </trkpt>
      <trkpt lat="45.08766" lon="6.43369">
        <ele>2020.7</ele>
        <time>2020-08-20 09:18:28</time>
      </trkpt>
      <trkpt lat="45.08779" lon="6.43361">
        <ele>2020.4</ele>
        <time>2020-08-20 09:18:36</time>
      </trkpt>
      <trkpt lat="45.08785" lon="6.43356">
        <ele>2019.7</ele>
        <time>2020-08-20 09:18:40</time>
      </trkpt>
      <trkpt lat="45.08791" lon="6.43352">
        <ele>2018.7</ele>
        <time>2020-08-20 09:18:44</time>
      </trkpt>
      <trkpt lat="45.08795" lon="6.43348">
        <ele>2018.9</ele>
        <time>2020-08-20 09:18:47</time>
      </trkpt>
      <trkpt lat="45.08799" lon="6.43343">
        <ele>2019.6</ele>
        <time>2020-08-20 09:18:50</time>
      </trkpt>
      <trkpt lat="45.08805" lon="6.43335">
        <ele>2021.3</ele>
        <time>2020-08-20 09:18:55</time>
      </trkpt>
      <trkpt lat="45.08807" lon="6.43331">
        <ele>2022.1</ele>
        <time>2020-08-20 09:18:57</time>
      </trkpt>
      <trkpt lat="45.08811" lon="6.43326">
        <ele>2021.9</ele>
        <time>2020-08-20 09:19:00</time>
      </trkpt>
      <trkpt lat="45.0882" lon="6.43308">
        <ele>2023.7</ele>
        <time>2020-08-20 09:19:08</time>
      </trkpt>
      <trkpt lat="45.08826" lon="6.43284">
        <ele>2025</ele>
        <time>2020-08-20 09:19:18</time>
      </trkpt>
      <trkpt lat="45.08827" lon="6.43279">
        <ele>2025.1</ele>
        <time>2020-08-20 09:19:20</time>
      </trkpt>
      <trkpt lat="45.08827" lon="6.43276">
        <ele>2025.5</ele>
        <time>2020-08-20 09:19:21</time>
      </trkpt>
      <trkpt lat="45.0883" lon="6.43243">
        <ele>2030.8</ele>
        <time>2020-08-20 09:19:34</time>
      </trkpt>
      <trkpt lat="45.08833" lon="6.43237">
        <ele>2031.8</ele>
        <time>2020-08-20 09:19:37</time>
      </trkpt>
      <trkpt lat="45.08835" lon="6.43236">
        <ele>2031.9</ele>
        <time>2020-08-20 09:19:38</time>
      </trkpt>
      <trkpt lat="45.08837" lon="6.43235">
        <ele>2032.1</ele>
        <time>2020-08-20 09:19:39</time>
      </trkpt>
      <trkpt lat="45.0884" lon="6.43234">
        <ele>2032.1</ele>
        <time>2020-08-20 09:19:41</time>
      </trkpt>
      <trkpt lat="45.08848" lon="6.4323">
        <ele>2032.6</ele>
        <time>2020-08-20 09:19:45</time>
      </trkpt>
      <trkpt lat="45.08854" lon="6.43227">
        <ele>2032.7</ele>
        <time>2020-08-20 09:19:48</time>
      </trkpt>
      <trkpt lat="45.08877" lon="6.43213">
        <ele>2033.1</ele>
        <time>2020-08-20 09:20:02</time>
      </trkpt>
      <trkpt lat="45.08883" lon="6.43205">
        <ele>2034.7</ele>
        <time>2020-08-20 09:20:07</time>
      </trkpt>
      <trkpt lat="45.08884" lon="6.43204">
        <ele>2034.8</ele>
        <time>2020-08-20 09:20:08</time>
      </trkpt>
      <trkpt lat="45.08906" lon="6.43181">
        <ele>2038.9</ele>
        <time>2020-08-20 09:20:23</time>
      </trkpt>
      <trkpt lat="45.08909" lon="6.43179">
        <ele>2039.1</ele>
        <time>2020-08-20 09:20:25</time>
      </trkpt>
      <trkpt lat="45.08914" lon="6.43175">
        <ele>2039.5</ele>
        <time>2020-08-20 09:20:28</time>
      </trkpt>
      <trkpt lat="45.08929" lon="6.43167">
        <ele>2041</ele>
        <time>2020-08-20 09:20:37</time>
      </trkpt>
      <trkpt lat="45.08943" lon="6.43157">
        <ele>2044</ele>
        <time>2020-08-20 09:20:45</time>
      </trkpt>
      <trkpt lat="45.08944" lon="6.43156">
        <ele>2044.3</ele>
        <time>2020-08-20 09:20:46</time>
      </trkpt>
      <trkpt lat="45.08951" lon="6.43152">
        <ele>2044.3</ele>
        <time>2020-08-20 09:20:50</time>
      </trkpt>
      <trkpt lat="45.08956" lon="6.43149">
        <ele>2044.5</ele>
        <time>2020-08-20 09:20:53</time>
      </trkpt>
      <trkpt lat="45.08965" lon="6.43143">
        <ele>2045.3</ele>
        <time>2020-08-20 09:20:58</time>
      </trkpt>
      <trkpt lat="45.08982" lon="6.43134">
        <ele>2047</ele>
        <time>2020-08-20 09:21:08</time>
      </trkpt>
      <trkpt lat="45.08984" lon="6.43133">
        <ele>2047.1</ele>
        <time>2020-08-20 09:21:09</time>
      </trkpt>
      <trkpt lat="45.08987" lon="6.43131">
        <ele>2047.4</ele>
        <time>2020-08-20 09:21:11</time>
      </trkpt>
      <trkpt lat="45.08989" lon="6.4313">
        <ele>2047.5</ele>
        <time>2020-08-20 09:21:12</time>
      </trkpt>
      <trkpt lat="45.09006" lon="6.43119">
        <ele>2048.2</ele>
        <time>2020-08-20 09:21:21</time>
      </trkpt>
      <trkpt lat="45.09008" lon="6.43117">
        <ele>2048.7</ele>
        <time>2020-08-20 09:21:22</time>
      </trkpt>
      <trkpt lat="45.09009" lon="6.43115">
        <ele>2049.3</ele>
        <time>2020-08-20 09:21:23</time>
      </trkpt>
      <trkpt lat="45.09009" lon="6.43112">
        <ele>2050.1</ele>
        <time>2020-08-20 09:21:24</time>
      </trkpt>
      <trkpt lat="45.09009" lon="6.43105">
        <ele>2054.5</ele>
        <time>2020-08-20 09:21:26</time>
      </trkpt>
      <trkpt lat="45.09008" lon="6.43098">
        <ele>2059.3</ele>
        <time>2020-08-20 09:21:28</time>
      </trkpt>
      <trkpt lat="45.09005" lon="6.43093">
        <ele>2063</ele>
        <time>2020-08-20 09:21:30</time>
      </trkpt>
      <trkpt lat="45.09003" lon="6.43092">
        <ele>2063.9</ele>
        <time>2020-08-20 09:21:31</time>
      </trkpt>
      <trkpt lat="45.08999" lon="6.4309">
        <ele>2065.8</ele>
        <time>2020-08-20 09:21:33</time>
      </trkpt>
      <trkpt lat="45.08997" lon="6.4309">
        <ele>2065.9</ele>
        <time>2020-08-20 09:21:34</time>
      </trkpt>
      <trkpt lat="45.08995" lon="6.43091">
        <ele>2065.3</ele>
        <time>2020-08-20 09:21:35</time>
      </trkpt>
      <trkpt lat="45.08989" lon="6.43095">
        <ele>2062.7</ele>
        <time>2020-08-20 09:21:37</time>
      </trkpt>
      <trkpt lat="45.08982" lon="6.43101">
        <ele>2058.9</ele>
        <time>2020-08-20 09:21:40</time>
      </trkpt>
      <trkpt lat="45.08975" lon="6.43106">
        <ele>2056.2</ele>
        <time>2020-08-20 09:21:43</time>
      </trkpt>
      <trkpt lat="45.08963" lon="6.43116">
        <ele>2055.3</ele>
        <time>2020-08-20 09:21:50</time>
      </trkpt>
      <trkpt lat="45.08939" lon="6.43127">
        <ele>2058</ele>
        <time>2020-08-20 09:22:02</time>
      </trkpt>
      <trkpt lat="45.08924" lon="6.43129">
        <ele>2059.9</ele>
        <time>2020-08-20 09:22:10</time>
      </trkpt>
      <trkpt lat="45.0892" lon="6.43129">
        <ele>2060.6</ele>
        <time>2020-08-20 09:22:12</time>
      </trkpt>
      <trkpt lat="45.08902" lon="6.43128">
        <ele>2061.7</ele>
        <time>2020-08-20 09:22:22</time>
      </trkpt>
      <trkpt lat="45.0889" lon="6.4313">
        <ele>2061.2</ele>
        <time>2020-08-20 09:22:28</time>
      </trkpt>
      <trkpt lat="45.08887" lon="6.43131">
        <ele>2061.3</ele>
        <time>2020-08-20 09:22:30</time>
      </trkpt>
      <trkpt lat="45.0888" lon="6.43132">
        <ele>2062.2</ele>
        <time>2020-08-20 09:22:34</time>
      </trkpt>
      <trkpt lat="45.08878" lon="6.43132">
        <ele>2062.5</ele>
        <time>2020-08-20 09:22:35</time>
      </trkpt>
      <trkpt lat="45.08876" lon="6.43131">
        <ele>2063.1</ele>
        <time>2020-08-20 09:22:36</time>
      </trkpt>
      <trkpt lat="45.08875" lon="6.43129">
        <ele>2063.8</ele>
        <time>2020-08-20 09:22:37</time>
      </trkpt>
      <trkpt lat="45.08873" lon="6.43123">
        <ele>2065.9</ele>
        <time>2020-08-20 09:22:39</time>
      </trkpt>
      <trkpt lat="45.08874" lon="6.43119">
        <ele>2066.9</ele>
        <time>2020-08-20 09:22:40</time>
      </trkpt>
      <trkpt lat="45.08875" lon="6.43116">
        <ele>2067.6</ele>
        <time>2020-08-20 09:22:41</time>
      </trkpt>
      <trkpt lat="45.08877" lon="6.43114">
        <ele>2067.8</ele>
        <time>2020-08-20 09:22:42</time>
      </trkpt>
      <trkpt lat="45.08883" lon="6.43112">
        <ele>2067</ele>
        <time>2020-08-20 09:22:44</time>
      </trkpt>
      <trkpt lat="45.08886" lon="6.43112">
        <ele>2066.4</ele>
        <time>2020-08-20 09:22:45</time>
      </trkpt>
      <trkpt lat="45.08901" lon="6.43116">
        <ele>2065.7</ele>
        <time>2020-08-20 09:22:51</time>
      </trkpt>
      <trkpt lat="45.08907" lon="6.43116">
        <ele>2066.2</ele>
        <time>2020-08-20 09:22:54</time>
      </trkpt>
      <trkpt lat="45.08913" lon="6.43117">
        <ele>2066.2</ele>
        <time>2020-08-20 09:22:57</time>
      </trkpt>
      <trkpt lat="45.08915" lon="6.43116">
        <ele>2066.8</ele>
        <time>2020-08-20 09:22:58</time>
      </trkpt>
      <trkpt lat="45.08917" lon="6.43116">
        <ele>2066.8</ele>
        <time>2020-08-20 09:22:59</time>
      </trkpt>
      <trkpt lat="45.08921" lon="6.43116">
        <ele>2066.2</ele>
        <time>2020-08-20 09:23:01</time>
      </trkpt>
      <trkpt lat="45.08923" lon="6.43116">
        <ele>2065.9</ele>
        <time>2020-08-20 09:23:02</time>
      </trkpt>
      <trkpt lat="45.08927" lon="6.43116">
        <ele>2065.3</ele>
        <time>2020-08-20 09:23:04</time>
      </trkpt>
      <trkpt lat="45.08931" lon="6.43114">
        <ele>2065.6</ele>
        <time>2020-08-20 09:23:06</time>
      </trkpt>
      <trkpt lat="45.08948" lon="6.43103">
        <ele>2066.5</ele>
        <time>2020-08-20 09:23:15</time>
      </trkpt>
      <trkpt lat="45.08959" lon="6.43092">
        <ele>2068.5</ele>
        <time>2020-08-20 09:23:21</time>
      </trkpt>
      <trkpt lat="45.08961" lon="6.43091">
        <ele>2068.7</ele>
        <time>2020-08-20 09:23:22</time>
      </trkpt>
      <trkpt lat="45.08964" lon="6.43088">
        <ele>2069.9</ele>
        <time>2020-08-20 09:23:24</time>
      </trkpt>
      <trkpt lat="45.08966" lon="6.43087">
        <ele>2070.2</ele>
        <time>2020-08-20 09:23:25</time>
      </trkpt>
      <trkpt lat="45.08975" lon="6.4308">
        <ele>2072.7</ele>
        <time>2020-08-20 09:23:30</time>
      </trkpt>
      <trkpt lat="45.08985" lon="6.43076">
        <ele>2073.3</ele>
        <time>2020-08-20 09:23:35</time>
      </trkpt>
      <trkpt lat="45.08992" lon="6.43073">
        <ele>2073.6</ele>
        <time>2020-08-20 09:23:38</time>
      </trkpt>
      <trkpt lat="45.08998" lon="6.43072">
        <ele>2073.5</ele>
        <time>2020-08-20 09:23:41</time>
      </trkpt>
      <trkpt lat="45.09" lon="6.43071">
        <ele>2073.7</ele>
        <time>2020-08-20 09:23:42</time>
      </trkpt>
      <trkpt lat="45.09004" lon="6.43069">
        <ele>2073.6</ele>
        <time>2020-08-20 09:23:44</time>
      </trkpt>
      <trkpt lat="45.09009" lon="6.43066">
        <ele>2073.7</ele>
        <time>2020-08-20 09:23:47</time>
      </trkpt>
      <trkpt lat="45.09015" lon="6.43064">
        <ele>2073.6</ele>
        <time>2020-08-20 09:23:50</time>
      </trkpt>
      <trkpt lat="45.0902" lon="6.43059">
        <ele>2074.5</ele>
        <time>2020-08-20 09:23:53</time>
      </trkpt>
      <trkpt lat="45.0903" lon="6.4305">
        <ele>2075.7</ele>
        <time>2020-08-20 09:23:59</time>
      </trkpt>
      <trkpt lat="45.09035" lon="6.43045">
        <ele>2076</ele>
        <time>2020-08-20 09:24:02</time>
      </trkpt>
      <trkpt lat="45.09045" lon="6.43033">
        <ele>2078</ele>
        <time>2020-08-20 09:24:09</time>
      </trkpt>
      <trkpt lat="45.09049" lon="6.43031">
        <ele>2078.3</ele>
        <time>2020-08-20 09:24:11</time>
      </trkpt>
      <trkpt lat="45.09069" lon="6.43017">
        <ele>2077.4</ele>
        <time>2020-08-20 09:24:21</time>
      </trkpt>
      <trkpt lat="45.09072" lon="6.43013">
        <ele>2077.8</ele>
        <time>2020-08-20 09:24:23</time>
      </trkpt>
      <trkpt lat="45.09073" lon="6.4301">
        <ele>2078.5</ele>
        <time>2020-08-20 09:24:24</time>
      </trkpt>
      <trkpt lat="45.09074" lon="6.43007">
        <ele>2079.2</ele>
        <time>2020-08-20 09:24:25</time>
      </trkpt>
      <trkpt lat="45.09073" lon="6.42998">
        <ele>2081.7</ele>
        <time>2020-08-20 09:24:28</time>
      </trkpt>
      <trkpt lat="45.0907" lon="6.42992">
        <ele>2083.9</ele>
        <time>2020-08-20 09:24:30</time>
      </trkpt>
      <trkpt lat="45.09066" lon="6.42987">
        <ele>2085.7</ele>
        <time>2020-08-20 09:24:32</time>
      </trkpt>
      <trkpt lat="45.09063" lon="6.42986">
        <ele>2086</ele>
        <time>2020-08-20 09:24:33</time>
      </trkpt>
      <trkpt lat="45.0906" lon="6.42987">
        <ele>2085.7</ele>
        <time>2020-08-20 09:24:34</time>
      </trkpt>
      <trkpt lat="45.09056" lon="6.42988">
        <ele>2085.3</ele>
        <time>2020-08-20 09:24:35</time>
      </trkpt>
      <trkpt lat="45.09051" lon="6.42992">
        <ele>2084.9</ele>
        <time>2020-08-20 09:24:37</time>
      </trkpt>
      <trkpt lat="45.09029" lon="6.43013">
        <ele>2084.5</ele>
        <time>2020-08-20 09:24:46</time>
      </trkpt>
      <trkpt lat="45.09022" lon="6.43018">
        <ele>2084.2</ele>
        <time>2020-08-20 09:24:49</time>
      </trkpt>
      <trkpt lat="45.09017" lon="6.43021">
        <ele>2084</ele>
        <time>2020-08-20 09:24:51</time>
      </trkpt>
      <trkpt lat="45.09002" lon="6.43025">
        <ele>2084.6</ele>
        <time>2020-08-20 09:24:57</time>
      </trkpt>
      <trkpt lat="45.08998" lon="6.43025">
        <ele>2085.1</ele>
        <time>2020-08-20 09:24:59</time>
      </trkpt>
      <trkpt lat="45.08987" lon="6.43026">
        <ele>2086.4</ele>
        <time>2020-08-20 09:25:04</time>
      </trkpt>
      <trkpt lat="45.08976" lon="6.4303">
        <ele>2086.8</ele>
        <time>2020-08-20 09:25:09</time>
      </trkpt>
      <trkpt lat="45.0897" lon="6.43031">
        <ele>2087.4</ele>
        <time>2020-08-20 09:25:12</time>
      </trkpt>
      <trkpt lat="45.08967" lon="6.43033">
        <ele>2087.4</ele>
        <time>2020-08-20 09:25:14</time>
      </trkpt>
      <trkpt lat="45.08958" lon="6.43036">
        <ele>2088.1</ele>
        <time>2020-08-20 09:25:19</time>
      </trkpt>
      <trkpt lat="45.08956" lon="6.43035">
        <ele>2088.9</ele>
        <time>2020-08-20 09:25:20</time>
      </trkpt>
      <trkpt lat="45.08952" lon="6.43034">
        <ele>2090</ele>
        <time>2020-08-20 09:25:22</time>
      </trkpt>
      <trkpt lat="45.08943" lon="6.43032">
        <ele>2092.3</ele>
        <time>2020-08-20 09:25:26</time>
      </trkpt>
      <trkpt lat="45.08936" lon="6.4303">
        <ele>2092.8</ele>
        <time>2020-08-20 09:25:30</time>
      </trkpt>
      <trkpt lat="45.08925" lon="6.43023">
        <ele>2094.8</ele>
        <time>2020-08-20 09:25:36</time>
      </trkpt>
      <trkpt lat="45.08913" lon="6.43019">
        <ele>2096.4</ele>
        <time>2020-08-20 09:25:42</time>
      </trkpt>
      <trkpt lat="45.08898" lon="6.43014">
        <ele>2099.3</ele>
        <time>2020-08-20 09:25:51</time>
      </trkpt>
      <trkpt lat="45.08892" lon="6.43011">
        <ele>2100.8</ele>
        <time>2020-08-20 09:25:54</time>
      </trkpt>
      <trkpt lat="45.08878" lon="6.43007">
        <ele>2103</ele>
        <time>2020-08-20 09:26:02</time>
      </trkpt>
      <trkpt lat="45.08875" lon="6.43007">
        <ele>2103.1</ele>
        <time>2020-08-20 09:26:04</time>
      </trkpt>
      <trkpt lat="45.08866" lon="6.43007">
        <ele>2103.5</ele>
        <time>2020-08-20 09:26:09</time>
      </trkpt>
      <trkpt lat="45.08854" lon="6.43011">
        <ele>2103.6</ele>
        <time>2020-08-20 09:26:16</time>
      </trkpt>
      <trkpt lat="45.08842" lon="6.43017">
        <ele>2103.7</ele>
        <time>2020-08-20 09:26:23</time>
      </trkpt>
      <trkpt lat="45.0884" lon="6.43017">
        <ele>2104</ele>
        <time>2020-08-20 09:26:24</time>
      </trkpt>
      <trkpt lat="45.0883" lon="6.43019">
        <ele>2105</ele>
        <time>2020-08-20 09:26:30</time>
      </trkpt>
      <trkpt lat="45.08828" lon="6.43019">
        <ele>2105.2</ele>
        <time>2020-08-20 09:26:31</time>
      </trkpt>
      <trkpt lat="45.08823" lon="6.4302">
        <ele>2105.6</ele>
        <time>2020-08-20 09:26:34</time>
      </trkpt>
      <trkpt lat="45.0882" lon="6.4302">
        <ele>2105.9</ele>
        <time>2020-08-20 09:26:36</time>
      </trkpt>
      <trkpt lat="45.08817" lon="6.43019">
        <ele>2106.7</ele>
        <time>2020-08-20 09:26:38</time>
      </trkpt>
      <trkpt lat="45.08816" lon="6.43019">
        <ele>2106.8</ele>
        <time>2020-08-20 09:26:39</time>
      </trkpt>
      <trkpt lat="45.0881" lon="6.43018">
        <ele>2107.9</ele>
        <time>2020-08-20 09:26:43</time>
      </trkpt>
      <trkpt lat="45.08807" lon="6.43017">
        <ele>2108.7</ele>
        <time>2020-08-20 09:26:45</time>
      </trkpt>
      <trkpt lat="45.08792" lon="6.43015">
        <ele>2111.2</ele>
        <time>2020-08-20 09:26:54</time>
      </trkpt>
      <trkpt lat="45.08788" lon="6.43014">
        <ele>2112.2</ele>
        <time>2020-08-20 09:26:56</time>
      </trkpt>
      <trkpt lat="45.08781" lon="6.43015">
        <ele>2112.6</ele>
        <time>2020-08-20 09:27:00</time>
      </trkpt>
      <trkpt lat="45.08776" lon="6.43018">
        <ele>2112.1</ele>
        <time>2020-08-20 09:27:04</time>
      </trkpt>
      <trkpt lat="45.08774" lon="6.43019">
        <ele>2112.2</ele>
        <time>2020-08-20 09:27:05</time>
      </trkpt>
      <trkpt lat="45.08771" lon="6.4302">
        <ele>2112.6</ele>
        <time>2020-08-20 09:27:07</time>
      </trkpt>
      <trkpt lat="45.08767" lon="6.43021">
        <ele>2113.3</ele>
        <time>2020-08-20 09:27:09</time>
      </trkpt>
      <trkpt lat="45.08757" lon="6.43022">
        <ele>2115.6</ele>
        <time>2020-08-20 09:27:14</time>
      </trkpt>
      <trkpt lat="45.08752" lon="6.43023">
        <ele>2116.4</ele>
        <time>2020-08-20 09:27:17</time>
      </trkpt>
      <trkpt lat="45.0872" lon="6.43029">
        <ele>2117.3</ele>
        <time>2020-08-20 09:27:37</time>
      </trkpt>
      <trkpt lat="45.08715" lon="6.43029">
        <ele>2118.5</ele>
        <time>2020-08-20 09:27:40</time>
      </trkpt>
      <trkpt lat="45.0871" lon="6.43029">
        <ele>2119.8</ele>
        <time>2020-08-20 09:27:43</time>
      </trkpt>
      <trkpt lat="45.08707" lon="6.43029">
        <ele>2120.6</ele>
        <time>2020-08-20 09:27:45</time>
      </trkpt>
      <trkpt lat="45.08703" lon="6.43029">
        <ele>2121.6</ele>
        <time>2020-08-20 09:27:47</time>
      </trkpt>
      <trkpt lat="45.08696" lon="6.43031">
        <ele>2122.9</ele>
        <time>2020-08-20 09:27:51</time>
      </trkpt>
      <trkpt lat="45.08691" lon="6.4304">
        <ele>2123.1</ele>
        <time>2020-08-20 09:27:55</time>
      </trkpt>
      <trkpt lat="45.08691" lon="6.43042">
        <ele>2122.6</ele>
        <time>2020-08-20 09:27:56</time>
      </trkpt>
      <trkpt lat="45.0869" lon="6.43048">
        <ele>2121.7</ele>
        <time>2020-08-20 09:27:58</time>
      </trkpt>
      <trkpt lat="45.0869" lon="6.43057">
        <ele>2120</ele>
        <time>2020-08-20 09:28:01</time>
      </trkpt>
      <trkpt lat="45.08691" lon="6.43065">
        <ele>2120.2</ele>
        <time>2020-08-20 09:28:04</time>
      </trkpt>
      <trkpt lat="45.08692" lon="6.43071">
        <ele>2120.2</ele>
        <time>2020-08-20 09:28:06</time>
      </trkpt>
      <trkpt lat="45.08693" lon="6.43079">
        <ele>2120.4</ele>
        <time>2020-08-20 09:28:09</time>
      </trkpt>
      <trkpt lat="45.08694" lon="6.43087">
        <ele>2120.6</ele>
        <time>2020-08-20 09:28:12</time>
      </trkpt>
      <trkpt lat="45.08694" lon="6.431">
        <ele>2122</ele>
        <time>2020-08-20 09:28:17</time>
      </trkpt>
      <trkpt lat="45.08694" lon="6.43102">
        <ele>2122.2</ele>
        <time>2020-08-20 09:28:18</time>
      </trkpt>
      <trkpt lat="45.08695" lon="6.4311">
        <ele>2122.5</ele>
        <time>2020-08-20 09:28:21</time>
      </trkpt>
      <trkpt lat="45.08694" lon="6.43117">
        <ele>2122.8</ele>
        <time>2020-08-20 09:28:24</time>
      </trkpt>
      <trkpt lat="45.08694" lon="6.43122">
        <ele>2122.4</ele>
        <time>2020-08-20 09:28:26</time>
      </trkpt>
      <trkpt lat="45.08694" lon="6.43124">
        <ele>2122.3</ele>
        <time>2020-08-20 09:28:27</time>
      </trkpt>
      <trkpt lat="45.08694" lon="6.43126">
        <ele>2122.1</ele>
        <time>2020-08-20 09:28:28</time>
      </trkpt>
      <trkpt lat="45.08694" lon="6.43131">
        <ele>2121.8</ele>
        <time>2020-08-20 09:28:30</time>
      </trkpt>
      <trkpt lat="45.08694" lon="6.43139">
        <ele>2121.2</ele>
        <time>2020-08-20 09:28:33</time>
      </trkpt>
      <trkpt lat="45.08693" lon="6.43145">
        <ele>2122</ele>
        <time>2020-08-20 09:28:35</time>
      </trkpt>
      <trkpt lat="45.08693" lon="6.43147">
        <ele>2122.2</ele>
        <time>2020-08-20 09:28:36</time>
      </trkpt>
      <trkpt lat="45.08692" lon="6.43157">
        <ele>2123.2</ele>
        <time>2020-08-20 09:28:40</time>
      </trkpt>
      <trkpt lat="45.08692" lon="6.43159">
        <ele>2123.4</ele>
        <time>2020-08-20 09:28:41</time>
      </trkpt>
      <trkpt lat="45.08692" lon="6.43161">
        <ele>2123.5</ele>
        <time>2020-08-20 09:28:42</time>
      </trkpt>
      <trkpt lat="45.0869" lon="6.4317">
        <ele>2124.1</ele>
        <time>2020-08-20 09:28:46</time>
      </trkpt>
      <trkpt lat="45.08686" lon="6.4318">
        <ele>2124.2</ele>
        <time>2020-08-20 09:28:50</time>
      </trkpt>
      <trkpt lat="45.08682" lon="6.43186">
        <ele>2125.2</ele>
        <time>2020-08-20 09:28:53</time>
      </trkpt>
      <trkpt lat="45.08669" lon="6.43202">
        <ele>2129.1</ele>
        <time>2020-08-20 09:29:02</time>
      </trkpt>
      <trkpt lat="45.08659" lon="6.43213">
        <ele>2130.3</ele>
        <time>2020-08-20 09:29:10</time>
      </trkpt>
      <trkpt lat="45.08647" lon="6.43219">
        <ele>2132.9</ele>
        <time>2020-08-20 09:29:17</time>
      </trkpt>
      <trkpt lat="45.08646" lon="6.4322">
        <ele>2133.1</ele>
        <time>2020-08-20 09:29:18</time>
      </trkpt>
      <trkpt lat="45.08644" lon="6.43222">
        <ele>2133.4</ele>
        <time>2020-08-20 09:29:19</time>
      </trkpt>
      <trkpt lat="45.08632" lon="6.4323">
        <ele>2134.9</ele>
        <time>2020-08-20 09:29:27</time>
      </trkpt>
      <trkpt lat="45.08631" lon="6.43231">
        <ele>2135</ele>
        <time>2020-08-20 09:29:28</time>
      </trkpt>
      <trkpt lat="45.08629" lon="6.43233">
        <ele>2135.1</ele>
        <time>2020-08-20 09:29:29</time>
      </trkpt>
      <trkpt lat="45.08628" lon="6.43234">
        <ele>2135.1</ele>
        <time>2020-08-20 09:29:30</time>
      </trkpt>
      <trkpt lat="45.08626" lon="6.43235">
        <ele>2135.5</ele>
        <time>2020-08-20 09:29:31</time>
      </trkpt>
      <trkpt lat="45.08622" lon="6.43238">
        <ele>2136</ele>
        <time>2020-08-20 09:29:34</time>
      </trkpt>
      <trkpt lat="45.08617" lon="6.43242">
        <ele>2136.7</ele>
        <time>2020-08-20 09:29:37</time>
      </trkpt>
      <trkpt lat="45.0861" lon="6.43245">
        <ele>2138</ele>
        <time>2020-08-20 09:29:41</time>
      </trkpt>
      <trkpt lat="45.08605" lon="6.43245">
        <ele>2138.3</ele>
        <time>2020-08-20 09:29:44</time>
      </trkpt>
      <trkpt lat="45.086" lon="6.43242">
        <ele>2139</ele>
        <time>2020-08-20 09:29:47</time>
      </trkpt>
      <trkpt lat="45.08597" lon="6.43239">
        <ele>2139.6</ele>
        <time>2020-08-20 09:29:49</time>
      </trkpt>
      <trkpt lat="45.08593" lon="6.43232">
        <ele>2140.7</ele>
        <time>2020-08-20 09:29:53</time>
      </trkpt>
      <trkpt lat="45.08592" lon="6.43231">
        <ele>2140.9</ele>
        <time>2020-08-20 09:29:54</time>
      </trkpt>
      <trkpt lat="45.0859" lon="6.43227">
        <ele>2141.4</ele>
        <time>2020-08-20 09:29:56</time>
      </trkpt>
      <trkpt lat="45.08587" lon="6.43218">
        <ele>2142.2</ele>
        <time>2020-08-20 09:30:00</time>
      </trkpt>
      <trkpt lat="45.08584" lon="6.43207">
        <ele>2142.5</ele>
        <time>2020-08-20 09:30:05</time>
      </trkpt>
      <trkpt lat="45.08583" lon="6.43196">
        <ele>2143</ele>
        <time>2020-08-20 09:30:10</time>
      </trkpt>
      <trkpt lat="45.08583" lon="6.4318">
        <ele>2144.6</ele>
        <time>2020-08-20 09:30:17</time>
      </trkpt>
      <trkpt lat="45.08584" lon="6.43171">
        <ele>2145.5</ele>
        <time>2020-08-20 09:30:22</time>
      </trkpt>
      <trkpt lat="45.08583" lon="6.43156">
        <ele>2146</ele>
        <time>2020-08-20 09:30:28</time>
      </trkpt>
      <trkpt lat="45.08584" lon="6.4314">
        <ele>2146</ele>
        <time>2020-08-20 09:30:35</time>
      </trkpt>
      <trkpt lat="45.08583" lon="6.43135">
        <ele>2146.3</ele>
        <time>2020-08-20 09:30:37</time>
      </trkpt>
      <trkpt lat="45.08583" lon="6.43131">
        <ele>2146.6</ele>
        <time>2020-08-20 09:30:39</time>
      </trkpt>
      <trkpt lat="45.08584" lon="6.43127">
        <ele>2146.8</ele>
        <time>2020-08-20 09:30:41</time>
      </trkpt>
      <trkpt lat="45.08584" lon="6.43109">
        <ele>2148.2</ele>
        <time>2020-08-20 09:30:49</time>
      </trkpt>
      <trkpt lat="45.08585" lon="6.43102">
        <ele>2149</ele>
        <time>2020-08-20 09:30:52</time>
      </trkpt>
      <trkpt lat="45.08585" lon="6.431">
        <ele>2149.2</ele>
        <time>2020-08-20 09:30:53</time>
      </trkpt>
      <trkpt lat="45.08586" lon="6.43093">
        <ele>2150</ele>
        <time>2020-08-20 09:30:56</time>
      </trkpt>
      <trkpt lat="45.08588" lon="6.43082">
        <ele>2151.3</ele>
        <time>2020-08-20 09:31:01</time>
      </trkpt>
      <trkpt lat="45.08593" lon="6.43073">
        <ele>2152.2</ele>
        <time>2020-08-20 09:31:06</time>
      </trkpt>
      <trkpt lat="45.08595" lon="6.43069">
        <ele>2152.5</ele>
        <time>2020-08-20 09:31:08</time>
      </trkpt>
      <trkpt lat="45.08601" lon="6.43057">
        <ele>2153.3</ele>
        <time>2020-08-20 09:31:15</time>
      </trkpt>
      <trkpt lat="45.08604" lon="6.43054">
        <ele>2153.5</ele>
        <time>2020-08-20 09:31:17</time>
      </trkpt>
      <trkpt lat="45.08609" lon="6.43044">
        <ele>2154.4</ele>
        <time>2020-08-20 09:31:23</time>
      </trkpt>
      <trkpt lat="45.08619" lon="6.43027">
        <ele>2153.4</ele>
        <time>2020-08-20 09:31:32</time>
      </trkpt>
      <trkpt lat="45.08629" lon="6.43002">
        <ele>2158.1</ele>
        <time>2020-08-20 09:31:44</time>
      </trkpt>
      <trkpt lat="45.08635" lon="6.42993">
        <ele>2159.2</ele>
        <time>2020-08-20 09:31:49</time>
      </trkpt>
      <trkpt lat="45.08644" lon="6.42983">
        <ele>2159.3</ele>
        <time>2020-08-20 09:31:55</time>
      </trkpt>
      <trkpt lat="45.08651" lon="6.42977">
        <ele>2159.3</ele>
        <time>2020-08-20 09:32:00</time>
      </trkpt>
      <trkpt lat="45.08655" lon="6.42975">
        <ele>2159.1</ele>
        <time>2020-08-20 09:32:02</time>
      </trkpt>
      <trkpt lat="45.08658" lon="6.42974">
        <ele>2158.9</ele>
        <time>2020-08-20 09:32:04</time>
      </trkpt>
      <trkpt lat="45.08667" lon="6.4297">
        <ele>2158.4</ele>
        <time>2020-08-20 09:32:09</time>
      </trkpt>
      <trkpt lat="45.08669" lon="6.42969">
        <ele>2158.6</ele>
        <time>2020-08-20 09:32:10</time>
      </trkpt>
      <trkpt lat="45.08674" lon="6.42966">
        <ele>2159.3</ele>
        <time>2020-08-20 09:32:13</time>
      </trkpt>
      <trkpt lat="45.08677" lon="6.42961">
        <ele>2160.7</ele>
        <time>2020-08-20 09:32:15</time>
      </trkpt>
      <trkpt lat="45.08678" lon="6.42959">
        <ele>2161.3</ele>
        <time>2020-08-20 09:32:16</time>
      </trkpt>
      <trkpt lat="45.08679" lon="6.42957">
        <ele>2162</ele>
        <time>2020-08-20 09:32:17</time>
      </trkpt>
      <trkpt lat="45.08681" lon="6.42952">
        <ele>2163.8</ele>
        <time>2020-08-20 09:32:19</time>
      </trkpt>
      <trkpt lat="45.08681" lon="6.42949">
        <ele>2164.7</ele>
        <time>2020-08-20 09:32:20</time>
      </trkpt>
      <trkpt lat="45.08681" lon="6.42946">
        <ele>2165.6</ele>
        <time>2020-08-20 09:32:21</time>
      </trkpt>
      <trkpt lat="45.0868" lon="6.42941">
        <ele>2166.4</ele>
        <time>2020-08-20 09:32:23</time>
      </trkpt>
      <trkpt lat="45.08678" lon="6.42938">
        <ele>2166.4</ele>
        <time>2020-08-20 09:32:24</time>
      </trkpt>
      <trkpt lat="45.08673" lon="6.4293">
        <ele>2166.7</ele>
        <time>2020-08-20 09:32:27</time>
      </trkpt>
      <trkpt lat="45.08668" lon="6.42927">
        <ele>2166.4</ele>
        <time>2020-08-20 09:32:29</time>
      </trkpt>
      <trkpt lat="45.08662" lon="6.42925">
        <ele>2166.7</ele>
        <time>2020-08-20 09:32:31</time>
      </trkpt>
      <trkpt lat="45.0866" lon="6.42925">
        <ele>2166.7</ele>
        <time>2020-08-20 09:32:32</time>
      </trkpt>
      <trkpt lat="45.08657" lon="6.42926">
        <ele>2166.7</ele>
        <time>2020-08-20 09:32:33</time>
      </trkpt>
      <trkpt lat="45.08652" lon="6.4293">
        <ele>2166.4</ele>
        <time>2020-08-20 09:32:35</time>
      </trkpt>
      <trkpt lat="45.08643" lon="6.42942">
        <ele>2165.8</ele>
        <time>2020-08-20 09:32:39</time>
      </trkpt>
      <trkpt lat="45.08633" lon="6.42958">
        <ele>2165.4</ele>
        <time>2020-08-20 09:32:45</time>
      </trkpt>
      <trkpt lat="45.08621" lon="6.42971">
        <ele>2165.7</ele>
        <time>2020-08-20 09:32:52</time>
      </trkpt>
      <trkpt lat="45.08619" lon="6.42972">
        <ele>2165.9</ele>
        <time>2020-08-20 09:32:53</time>
      </trkpt>
      <trkpt lat="45.08618" lon="6.42974">
        <ele>2165.7</ele>
        <time>2020-08-20 09:32:54</time>
      </trkpt>
      <trkpt lat="45.08609" lon="6.42982">
        <ele>2166</ele>
        <time>2020-08-20 09:33:00</time>
      </trkpt>
      <trkpt lat="45.08604" lon="6.42984">
        <ele>2167.3</ele>
        <time>2020-08-20 09:33:03</time>
      </trkpt>
      <trkpt lat="45.08597" lon="6.42984">
        <ele>2169.6</ele>
        <time>2020-08-20 09:33:07</time>
      </trkpt>
      <trkpt lat="45.08592" lon="6.42984">
        <ele>2171.3</ele>
        <time>2020-08-20 09:33:10</time>
      </trkpt>
      <trkpt lat="45.08585" lon="6.42987">
        <ele>2172.7</ele>
        <time>2020-08-20 09:33:15</time>
      </trkpt>
      <trkpt lat="45.08582" lon="6.42988">
        <ele>2173</ele>
        <time>2020-08-20 09:33:17</time>
      </trkpt>
      <trkpt lat="45.08573" lon="6.42989">
        <ele>2173.5</ele>
        <time>2020-08-20 09:33:22</time>
      </trkpt>
      <trkpt lat="45.08569" lon="6.4299">
        <ele>2173.5</ele>
        <time>2020-08-20 09:33:24</time>
      </trkpt>
      <trkpt lat="45.08565" lon="6.4299">
        <ele>2173.8</ele>
        <time>2020-08-20 09:33:26</time>
      </trkpt>
      <trkpt lat="45.08563" lon="6.4299">
        <ele>2174</ele>
        <time>2020-08-20 09:33:27</time>
      </trkpt>
      <trkpt lat="45.0856" lon="6.4299">
        <ele>2174.2</ele>
        <time>2020-08-20 09:33:29</time>
      </trkpt>
      <trkpt lat="45.08551" lon="6.4299">
        <ele>2174.8</ele>
        <time>2020-08-20 09:33:34</time>
      </trkpt>
      <trkpt lat="45.08546" lon="6.42988">
        <ele>2175.7</ele>
        <time>2020-08-20 09:33:37</time>
      </trkpt>
      <trkpt lat="45.08544" lon="6.42987">
        <ele>2176.1</ele>
        <time>2020-08-20 09:33:38</time>
      </trkpt>
      <trkpt lat="45.08533" lon="6.42982">
        <ele>2178.3</ele>
        <time>2020-08-20 09:33:45</time>
      </trkpt>
      <trkpt lat="45.08521" lon="6.42974">
        <ele>2180.2</ele>
        <time>2020-08-20 09:33:53</time>
      </trkpt>
      <trkpt lat="45.08515" lon="6.42967">
        <ele>2180.6</ele>
        <time>2020-08-20 09:33:58</time>
      </trkpt>
      <trkpt lat="45.08511" lon="6.4296">
        <ele>2180.8</ele>
        <time>2020-08-20 09:34:02</time>
      </trkpt>
      <trkpt lat="45.0851" lon="6.4295">
        <ele>2182.1</ele>
        <time>2020-08-20 09:34:06</time>
      </trkpt>
      <trkpt lat="45.08509" lon="6.42945">
        <ele>2182.5</ele>
        <time>2020-08-20 09:34:08</time>
      </trkpt>
      <trkpt lat="45.08508" lon="6.42941">
        <ele>2182.8</ele>
        <time>2020-08-20 09:34:10</time>
      </trkpt>
      <trkpt lat="45.08506" lon="6.42937">
        <ele>2182.7</ele>
        <time>2020-08-20 09:34:12</time>
      </trkpt>
      <trkpt lat="45.08502" lon="6.42926">
        <ele>2183.2</ele>
        <time>2020-08-20 09:34:18</time>
      </trkpt>
      <trkpt lat="45.08501" lon="6.42921">
        <ele>2183.6</ele>
        <time>2020-08-20 09:34:20</time>
      </trkpt>
      <trkpt lat="45.08494" lon="6.42905">
        <ele>2184.7</ele>
        <time>2020-08-20 09:34:29</time>
      </trkpt>
      <trkpt lat="45.08485" lon="6.42893">
        <ele>2185.5</ele>
        <time>2020-08-20 09:34:37</time>
      </trkpt>
      <trkpt lat="45.08483" lon="6.4289">
        <ele>2185.9</ele>
        <time>2020-08-20 09:34:39</time>
      </trkpt>
      <trkpt lat="45.08479" lon="6.42885">
        <ele>2186.9</ele>
        <time>2020-08-20 09:34:42</time>
      </trkpt>
      <trkpt lat="45.08476" lon="6.4288">
        <ele>2188.1</ele>
        <time>2020-08-20 09:34:45</time>
      </trkpt>
      <trkpt lat="45.0847" lon="6.42868">
        <ele>2191.1</ele>
        <time>2020-08-20 09:34:51</time>
      </trkpt>
      <trkpt lat="45.08469" lon="6.42866">
        <ele>2191.4</ele>
        <time>2020-08-20 09:34:52</time>
      </trkpt>
      <trkpt lat="45.08467" lon="6.42862">
        <ele>2192</ele>
        <time>2020-08-20 09:34:54</time>
      </trkpt>
      <trkpt lat="45.08465" lon="6.42858">
        <ele>2192.2</ele>
        <time>2020-08-20 09:34:56</time>
      </trkpt>
      <trkpt lat="45.08463" lon="6.42853">
        <ele>2192.6</ele>
        <time>2020-08-20 09:34:59</time>
      </trkpt>
      <trkpt lat="45.08458" lon="6.42843">
        <ele>2193</ele>
        <time>2020-08-20 09:35:05</time>
      </trkpt>
      <trkpt lat="45.08456" lon="6.4284">
        <ele>2193</ele>
        <time>2020-08-20 09:35:07</time>
      </trkpt>
      <trkpt lat="45.08451" lon="6.42832">
        <ele>2193.2</ele>
        <time>2020-08-20 09:35:12</time>
      </trkpt>
      <trkpt lat="45.08449" lon="6.42829">
        <ele>2193.4</ele>
        <time>2020-08-20 09:35:14</time>
      </trkpt>
      <trkpt lat="45.08444" lon="6.4282">
        <ele>2194.7</ele>
        <time>2020-08-20 09:35:20</time>
      </trkpt>
      <trkpt lat="45.08441" lon="6.42815">
        <ele>2195.5</ele>
        <time>2020-08-20 09:35:24</time>
      </trkpt>
      <trkpt lat="45.08441" lon="6.42812">
        <ele>2196.4</ele>
        <time>2020-08-20 09:35:26</time>
      </trkpt>
      <trkpt lat="45.08433" lon="6.428">
        <ele>2197.7</ele>
        <time>2020-08-20 09:35:34</time>
      </trkpt>
      <trkpt lat="45.08431" lon="6.42797">
        <ele>2197.9</ele>
        <time>2020-08-20 09:35:36</time>
      </trkpt>
      <trkpt lat="45.08429" lon="6.42794">
        <ele>2198.2</ele>
        <time>2020-08-20 09:35:38</time>
      </trkpt>
      <trkpt lat="45.08427" lon="6.42792">
        <ele>2198.2</ele>
        <time>2020-08-20 09:35:40</time>
      </trkpt>
      <trkpt lat="45.08421" lon="6.42788">
        <ele>2197.7</ele>
        <time>2020-08-20 09:35:44</time>
      </trkpt>
      <trkpt lat="45.08414" lon="6.42783">
        <ele>2197.8</ele>
        <time>2020-08-20 09:35:49</time>
      </trkpt>
      <trkpt lat="45.08411" lon="6.42782">
        <ele>2198</ele>
        <time>2020-08-20 09:35:51</time>
      </trkpt>
      <trkpt lat="45.08402" lon="6.42775">
        <ele>2199.8</ele>
        <time>2020-08-20 09:35:58</time>
      </trkpt>
      <trkpt lat="45.08385" lon="6.42766">
        <ele>2201.8</ele>
        <time>2020-08-20 09:36:09</time>
      </trkpt>
      <trkpt lat="45.0838" lon="6.4276">
        <ele>2202.6</ele>
        <time>2020-08-20 09:36:14</time>
      </trkpt>
      <trkpt lat="45.08378" lon="6.42757">
        <ele>2203.1</ele>
        <time>2020-08-20 09:36:16</time>
      </trkpt>
      <trkpt lat="45.08376" lon="6.42755">
        <ele>2203.3</ele>
        <time>2020-08-20 09:36:18</time>
      </trkpt>
      <trkpt lat="45.08369" lon="6.42746">
        <ele>2204.4</ele>
        <time>2020-08-20 09:36:24</time>
      </trkpt>
      <trkpt lat="45.08368" lon="6.42744">
        <ele>2204.8</ele>
        <time>2020-08-20 09:36:26</time>
      </trkpt>
      <trkpt lat="45.08365" lon="6.4274">
        <ele>2205.2</ele>
        <time>2020-08-20 09:36:29</time>
      </trkpt>
      <trkpt lat="45.08359" lon="6.42733">
        <ele>2206.1</ele>
        <time>2020-08-20 09:36:34</time>
      </trkpt>
      <trkpt lat="45.08352" lon="6.42724">
        <ele>2207.6</ele>
        <time>2020-08-20 09:36:40</time>
      </trkpt>
      <trkpt lat="45.08345" lon="6.42717">
        <ele>2208.6</ele>
        <time>2020-08-20 09:36:45</time>
      </trkpt>
      <trkpt lat="45.0834" lon="6.42716">
        <ele>2208.4</ele>
        <time>2020-08-20 09:36:49</time>
      </trkpt>
      <trkpt lat="45.08338" lon="6.42715">
        <ele>2208.5</ele>
        <time>2020-08-20 09:36:50</time>
      </trkpt>
      <trkpt lat="45.08328" lon="6.42712">
        <ele>2208.7</ele>
        <time>2020-08-20 09:36:56</time>
      </trkpt>
      <trkpt lat="45.08326" lon="6.42711">
        <ele>2208.9</ele>
        <time>2020-08-20 09:36:58</time>
      </trkpt>
      <trkpt lat="45.083" lon="6.427">
        <ele>2210.7</ele>
        <time>2020-08-20 09:37:15</time>
      </trkpt>
      <trkpt lat="45.08298" lon="6.42698">
        <ele>2211.2</ele>
        <time>2020-08-20 09:37:16</time>
      </trkpt>
      <trkpt lat="45.08297" lon="6.42697">
        <ele>2211.4</ele>
        <time>2020-08-20 09:37:17</time>
      </trkpt>
      <trkpt lat="45.08287" lon="6.42691">
        <ele>2212.7</ele>
        <time>2020-08-20 09:37:23</time>
      </trkpt>
      <trkpt lat="45.08278" lon="6.42688">
        <ele>2212.9</ele>
        <time>2020-08-20 09:37:29</time>
      </trkpt>
      <trkpt lat="45.08277" lon="6.42687">
        <ele>2213.1</ele>
        <time>2020-08-20 09:37:30</time>
      </trkpt>
      <trkpt lat="45.08275" lon="6.42687">
        <ele>2213.1</ele>
        <time>2020-08-20 09:37:31</time>
      </trkpt>
      <trkpt lat="45.08264" lon="6.42681">
        <ele>2214</ele>
        <time>2020-08-20 09:37:38</time>
      </trkpt>
      <trkpt lat="45.0826" lon="6.42678">
        <ele>2214.3</ele>
        <time>2020-08-20 09:37:41</time>
      </trkpt>
      <trkpt lat="45.08253" lon="6.42675">
        <ele>2214.4</ele>
        <time>2020-08-20 09:37:45</time>
      </trkpt>
      <trkpt lat="45.08249" lon="6.42673">
        <ele>2214.6</ele>
        <time>2020-08-20 09:37:48</time>
      </trkpt>
      <trkpt lat="45.0824" lon="6.42669">
        <ele>2215.8</ele>
        <time>2020-08-20 09:37:54</time>
      </trkpt>
      <trkpt lat="45.08232" lon="6.42664">
        <ele>2217.3</ele>
        <time>2020-08-20 09:38:00</time>
      </trkpt>
      <trkpt lat="45.08224" lon="6.4266">
        <ele>2218.6</ele>
        <time>2020-08-20 09:38:07</time>
      </trkpt>
      <trkpt lat="45.08216" lon="6.42655">
        <ele>2219.6</ele>
        <time>2020-08-20 09:38:12</time>
      </trkpt>
      <trkpt lat="45.08209" lon="6.4265">
        <ele>2220.9</ele>
        <time>2020-08-20 09:38:17</time>
      </trkpt>
      <trkpt lat="45.08188" lon="6.4264">
        <ele>2224.7</ele>
        <time>2020-08-20 09:38:32</time>
      </trkpt>
      <trkpt lat="45.08187" lon="6.42639">
        <ele>2225</ele>
        <time>2020-08-20 09:38:33</time>
      </trkpt>
      <trkpt lat="45.08172" lon="6.42629">
        <ele>2228.5</ele>
        <time>2020-08-20 09:38:44</time>
      </trkpt>
      <trkpt lat="45.08168" lon="6.42625">
        <ele>2230</ele>
        <time>2020-08-20 09:38:47</time>
      </trkpt>
      <trkpt lat="45.08153" lon="6.42616">
        <ele>2231.1</ele>
        <time>2020-08-20 09:38:58</time>
      </trkpt>
      <trkpt lat="45.0815" lon="6.42615">
        <ele>2230.9</ele>
        <time>2020-08-20 09:39:00</time>
      </trkpt>
      <trkpt lat="45.08144" lon="6.4261">
        <ele>2231.2</ele>
        <time>2020-08-20 09:39:04</time>
      </trkpt>
      <trkpt lat="45.08142" lon="6.42609">
        <ele>2231.2</ele>
        <time>2020-08-20 09:39:05</time>
      </trkpt>
      <trkpt lat="45.0814" lon="6.42608">
        <ele>2231.2</ele>
        <time>2020-08-20 09:39:06</time>
      </trkpt>
      <trkpt lat="45.08135" lon="6.42604">
        <ele>2232.2</ele>
        <time>2020-08-20 09:39:10</time>
      </trkpt>
      <trkpt lat="45.08133" lon="6.42602">
        <ele>2232.7</ele>
        <time>2020-08-20 09:39:11</time>
      </trkpt>
      <trkpt lat="45.08127" lon="6.42596">
        <ele>2234</ele>
        <time>2020-08-20 09:39:15</time>
      </trkpt>
      <trkpt lat="45.08123" lon="6.42593">
        <ele>2234.4</ele>
        <time>2020-08-20 09:39:18</time>
      </trkpt>
      <trkpt lat="45.08121" lon="6.42592">
        <ele>2234.4</ele>
        <time>2020-08-20 09:39:19</time>
      </trkpt>
      <trkpt lat="45.0812" lon="6.42591">
        <ele>2234.5</ele>
        <time>2020-08-20 09:39:20</time>
      </trkpt>
      <trkpt lat="45.08116" lon="6.42591">
        <ele>2234.1</ele>
        <time>2020-08-20 09:39:22</time>
      </trkpt>
      <trkpt lat="45.08109" lon="6.42589">
        <ele>2234</ele>
        <time>2020-08-20 09:39:26</time>
      </trkpt>
      <trkpt lat="45.08103" lon="6.42587">
        <ele>2234.4</ele>
        <time>2020-08-20 09:39:31</time>
      </trkpt>
      <trkpt lat="45.08097" lon="6.42587">
        <ele>2234.5</ele>
        <time>2020-08-20 09:39:35</time>
      </trkpt>
      <trkpt lat="45.08093" lon="6.42589">
        <ele>2234.2</ele>
        <time>2020-08-20 09:39:38</time>
      </trkpt>
      <trkpt lat="45.08088" lon="6.4259">
        <ele>2234.2</ele>
        <time>2020-08-20 09:39:41</time>
      </trkpt>
      <trkpt lat="45.08083" lon="6.42593">
        <ele>2234</ele>
        <time>2020-08-20 09:39:44</time>
      </trkpt>
      <trkpt lat="45.0808" lon="6.42595">
        <ele>2234.3</ele>
        <time>2020-08-20 09:39:46</time>
      </trkpt>
      <trkpt lat="45.08079" lon="6.42596">
        <ele>2234.3</ele>
        <time>2020-08-20 09:39:47</time>
      </trkpt>
      <trkpt lat="45.08067" lon="6.42611">
        <ele>2234.9</ele>
        <time>2020-08-20 09:39:55</time>
      </trkpt>
      <trkpt lat="45.08061" lon="6.4262">
        <ele>2235.9</ele>
        <time>2020-08-20 09:40:00</time>
      </trkpt>
      <trkpt lat="45.08051" lon="6.42636">
        <ele>2237.9</ele>
        <time>2020-08-20 09:40:08</time>
      </trkpt>
      <trkpt lat="45.08042" lon="6.42645">
        <ele>2239</ele>
        <time>2020-08-20 09:40:14</time>
      </trkpt>
      <trkpt lat="45.08039" lon="6.42647">
        <ele>2239.4</ele>
        <time>2020-08-20 09:40:16</time>
      </trkpt>
      <trkpt lat="45.08027" lon="6.42651">
        <ele>2241.2</ele>
        <time>2020-08-20 09:40:22</time>
      </trkpt>
      <trkpt lat="45.08021" lon="6.42653">
        <ele>2241.7</ele>
        <time>2020-08-20 09:40:26</time>
      </trkpt>
      <trkpt lat="45.08016" lon="6.42654">
        <ele>2242.2</ele>
        <time>2020-08-20 09:40:29</time>
      </trkpt>
      <trkpt lat="45.08014" lon="6.42655">
        <ele>2242.3</ele>
        <time>2020-08-20 09:40:30</time>
      </trkpt>
      <trkpt lat="45.08009" lon="6.42657">
        <ele>2242.7</ele>
        <time>2020-08-20 09:40:33</time>
      </trkpt>
      <trkpt lat="45.08008" lon="6.42657">
        <ele>2242.8</ele>
        <time>2020-08-20 09:40:34</time>
      </trkpt>
      <trkpt lat="45.08002" lon="6.42658">
        <ele>2243.4</ele>
        <time>2020-08-20 09:40:37</time>
      </trkpt>
      <trkpt lat="45.07994" lon="6.42659">
        <ele>2244.4</ele>
        <time>2020-08-20 09:40:41</time>
      </trkpt>
      <trkpt lat="45.07991" lon="6.4266">
        <ele>2244.7</ele>
        <time>2020-08-20 09:40:43</time>
      </trkpt>
      <trkpt lat="45.07988" lon="6.4266">
        <ele>2245.1</ele>
        <time>2020-08-20 09:40:45</time>
      </trkpt>
      <trkpt lat="45.07983" lon="6.42662">
        <ele>2245.7</ele>
        <time>2020-08-20 09:40:49</time>
      </trkpt>
      <trkpt lat="45.07978" lon="6.42662">
        <ele>2246.4</ele>
        <time>2020-08-20 09:40:52</time>
      </trkpt>
      <trkpt lat="45.07973" lon="6.42661">
        <ele>2247.1</ele>
        <time>2020-08-20 09:40:55</time>
      </trkpt>
      <trkpt lat="45.0797" lon="6.4266">
        <ele>2247.4</ele>
        <time>2020-08-20 09:40:57</time>
      </trkpt>
      <trkpt lat="45.07969" lon="6.42659">
        <ele>2247.5</ele>
        <time>2020-08-20 09:40:58</time>
      </trkpt>
      <trkpt lat="45.07966" lon="6.42659">
        <ele>2247.7</ele>
        <time>2020-08-20 09:41:00</time>
      </trkpt>
      <trkpt lat="45.07963" lon="6.42657">
        <ele>2248</ele>
        <time>2020-08-20 09:41:02</time>
      </trkpt>
      <trkpt lat="45.0796" lon="6.42654">
        <ele>2248.5</ele>
        <time>2020-08-20 09:41:04</time>
      </trkpt>
      <trkpt lat="45.07955" lon="6.4265">
        <ele>2249.3</ele>
        <time>2020-08-20 09:41:08</time>
      </trkpt>
      <trkpt lat="45.07944" lon="6.42638">
        <ele>2252.2</ele>
        <time>2020-08-20 09:41:17</time>
      </trkpt>
      <trkpt lat="45.07942" lon="6.42637">
        <ele>2252.4</ele>
        <time>2020-08-20 09:41:18</time>
      </trkpt>
      <trkpt lat="45.07925" lon="6.42624">
        <ele>2253.5</ele>
        <time>2020-08-20 09:41:32</time>
      </trkpt>
      <trkpt lat="45.07919" lon="6.42619">
        <ele>2253.2</ele>
        <time>2020-08-20 09:41:36</time>
      </trkpt>
      <trkpt lat="45.07915" lon="6.42616">
        <ele>2253.2</ele>
        <time>2020-08-20 09:41:39</time>
      </trkpt>
      <trkpt lat="45.07908" lon="6.42609">
        <ele>2254.2</ele>
        <time>2020-08-20 09:41:44</time>
      </trkpt>
      <trkpt lat="45.07906" lon="6.42606">
        <ele>2254.7</ele>
        <time>2020-08-20 09:41:46</time>
      </trkpt>
      <trkpt lat="45.07904" lon="6.42605">
        <ele>2255</ele>
        <time>2020-08-20 09:41:48</time>
      </trkpt>
      <trkpt lat="45.07902" lon="6.42603">
        <ele>2255.4</ele>
        <time>2020-08-20 09:41:50</time>
      </trkpt>
      <trkpt lat="45.07897" lon="6.42598">
        <ele>2256.3</ele>
        <time>2020-08-20 09:41:54</time>
      </trkpt>
      <trkpt lat="45.07882" lon="6.42585">
        <ele>2258.4</ele>
        <time>2020-08-20 09:42:07</time>
      </trkpt>
      <trkpt lat="45.07878" lon="6.4258">
        <ele>2259</ele>
        <time>2020-08-20 09:42:11</time>
      </trkpt>
      <trkpt lat="45.07869" lon="6.42572">
        <ele>2260</ele>
        <time>2020-08-20 09:42:18</time>
      </trkpt>
      <trkpt lat="45.07866" lon="6.42569">
        <ele>2260.3</ele>
        <time>2020-08-20 09:42:20</time>
      </trkpt>
      <trkpt lat="45.07864" lon="6.42568">
        <ele>2260.4</ele>
        <time>2020-08-20 09:42:21</time>
      </trkpt>
      <trkpt lat="45.07859" lon="6.42565">
        <ele>2260.8</ele>
        <time>2020-08-20 09:42:24</time>
      </trkpt>
      <trkpt lat="45.07854" lon="6.4256">
        <ele>2261.5</ele>
        <time>2020-08-20 09:42:28</time>
      </trkpt>
      <trkpt lat="45.07852" lon="6.42557">
        <ele>2261.9</ele>
        <time>2020-08-20 09:42:30</time>
      </trkpt>
      <trkpt lat="45.07849" lon="6.42555">
        <ele>2262.3</ele>
        <time>2020-08-20 09:42:32</time>
      </trkpt>
      <trkpt lat="45.07844" lon="6.42551">
        <ele>2263.2</ele>
        <time>2020-08-20 09:42:36</time>
      </trkpt>
      <trkpt lat="45.07842" lon="6.42549">
        <ele>2263.5</ele>
        <time>2020-08-20 09:42:37</time>
      </trkpt>
      <trkpt lat="45.07839" lon="6.42546">
        <ele>2264.1</ele>
        <time>2020-08-20 09:42:39</time>
      </trkpt>
      <trkpt lat="45.07833" lon="6.42539">
        <ele>2265.2</ele>
        <time>2020-08-20 09:42:45</time>
      </trkpt>
      <trkpt lat="45.07826" lon="6.42533">
        <ele>2266</ele>
        <time>2020-08-20 09:42:51</time>
      </trkpt>
      <trkpt lat="45.0782" lon="6.42528">
        <ele>2266.9</ele>
        <time>2020-08-20 09:42:55</time>
      </trkpt>
      <trkpt lat="45.07808" lon="6.42512">
        <ele>2268.4</ele>
        <time>2020-08-20 09:43:04</time>
      </trkpt>
      <trkpt lat="45.07803" lon="6.42505">
        <ele>2269.2</ele>
        <time>2020-08-20 09:43:08</time>
      </trkpt>
      <trkpt lat="45.078" lon="6.42501">
        <ele>2269.9</ele>
        <time>2020-08-20 09:43:10</time>
      </trkpt>
      <trkpt lat="45.07798" lon="6.42497">
        <ele>2270.7</ele>
        <time>2020-08-20 09:43:12</time>
      </trkpt>
      <trkpt lat="45.07796" lon="6.42487">
        <ele>2271.9</ele>
        <time>2020-08-20 09:43:16</time>
      </trkpt>
      <trkpt lat="45.07796" lon="6.42485">
        <ele>2272.1</ele>
        <time>2020-08-20 09:43:17</time>
      </trkpt>
      <trkpt lat="45.07796" lon="6.42478">
        <ele>2272.8</ele>
        <time>2020-08-20 09:43:20</time>
      </trkpt>
      <trkpt lat="45.07801" lon="6.42466">
        <ele>2274</ele>
        <time>2020-08-20 09:43:27</time>
      </trkpt>
      <trkpt lat="45.07805" lon="6.42462">
        <ele>2274.5</ele>
        <time>2020-08-20 09:43:30</time>
      </trkpt>
      <trkpt lat="45.07813" lon="6.42461">
        <ele>2274.8</ele>
        <time>2020-08-20 09:43:35</time>
      </trkpt>
      <trkpt lat="45.07815" lon="6.42461">
        <ele>2274.8</ele>
        <time>2020-08-20 09:43:36</time>
      </trkpt>
      <trkpt lat="45.07821" lon="6.42459">
        <ele>2275.2</ele>
        <time>2020-08-20 09:43:40</time>
      </trkpt>
      <trkpt lat="45.07826" lon="6.42456">
        <ele>2275.6</ele>
        <time>2020-08-20 09:43:44</time>
      </trkpt>
      <trkpt lat="45.07827" lon="6.42453">
        <ele>2276</ele>
        <time>2020-08-20 09:43:46</time>
      </trkpt>
      <trkpt lat="45.07829" lon="6.42449">
        <ele>2276.5</ele>
        <time>2020-08-20 09:43:48</time>
      </trkpt>
      <trkpt lat="45.07832" lon="6.42447">
        <ele>2276.7</ele>
        <time>2020-08-20 09:43:50</time>
      </trkpt>
      <trkpt lat="45.07837" lon="6.42443">
        <ele>2277.1</ele>
        <time>2020-08-20 09:43:54</time>
      </trkpt>
      <trkpt lat="45.07838" lon="6.42442">
        <ele>2277.2</ele>
        <time>2020-08-20 09:43:55</time>
      </trkpt>
      <trkpt lat="45.0784" lon="6.42438">
        <ele>2277.6</ele>
        <time>2020-08-20 09:43:57</time>
      </trkpt>
      <trkpt lat="45.07842" lon="6.42435">
        <ele>2277.9</ele>
        <time>2020-08-20 09:43:59</time>
      </trkpt>
      <trkpt lat="45.0785" lon="6.42426">
        <ele>2278.7</ele>
        <time>2020-08-20 09:44:05</time>
      </trkpt>
      <trkpt lat="45.07852" lon="6.42423">
        <ele>2278.9</ele>
        <time>2020-08-20 09:44:07</time>
      </trkpt>
      <trkpt lat="45.07883" lon="6.42379">
        <ele>2283.4</ele>
        <time>2020-08-20 09:44:33</time>
      </trkpt>
      <trkpt lat="45.07889" lon="6.42364">
        <ele>2284.7</ele>
        <time>2020-08-20 09:44:40</time>
      </trkpt>
      <trkpt lat="45.07891" lon="6.42357">
        <ele>2285.4</ele>
        <time>2020-08-20 09:44:43</time>
      </trkpt>
      <trkpt lat="45.07891" lon="6.42353">
        <ele>2285.5</ele>
        <time>2020-08-20 09:44:45</time>
      </trkpt>
      <trkpt lat="45.07891" lon="6.42348">
        <ele>2285.7</ele>
        <time>2020-08-20 09:44:47</time>
      </trkpt>
      <trkpt lat="45.07892" lon="6.42328">
        <ele>2286.8</ele>
        <time>2020-08-20 09:44:55</time>
      </trkpt>
      <trkpt lat="45.07893" lon="6.42324">
        <ele>2287.2</ele>
        <time>2020-08-20 09:44:57</time>
      </trkpt>
      <trkpt lat="45.07893" lon="6.42321">
        <ele>2287.4</ele>
        <time>2020-08-20 09:44:58</time>
      </trkpt>
      <trkpt lat="45.07894" lon="6.42315">
        <ele>2287.9</ele>
        <time>2020-08-20 09:45:00</time>
      </trkpt>
      <trkpt lat="45.07894" lon="6.4231">
        <ele>2288.3</ele>
        <time>2020-08-20 09:45:02</time>
      </trkpt>
      <trkpt lat="45.07898" lon="6.42287">
        <ele>2289.4</ele>
        <time>2020-08-20 09:45:12</time>
      </trkpt>
      <trkpt lat="45.07898" lon="6.42283">
        <ele>2289.5</ele>
        <time>2020-08-20 09:45:14</time>
      </trkpt>
      <trkpt lat="45.07899" lon="6.42279">
        <ele>2289.7</ele>
        <time>2020-08-20 09:45:16</time>
      </trkpt>
      <trkpt lat="45.07905" lon="6.42263">
        <ele>2290.7</ele>
        <time>2020-08-20 09:45:24</time>
      </trkpt>
      <trkpt lat="45.07909" lon="6.42255">
        <ele>2291.3</ele>
        <time>2020-08-20 09:45:29</time>
      </trkpt>
      <trkpt lat="45.07911" lon="6.42253">
        <ele>2291.5</ele>
        <time>2020-08-20 09:45:31</time>
      </trkpt>
      <trkpt lat="45.07913" lon="6.4225">
        <ele>2291.7</ele>
        <time>2020-08-20 09:45:33</time>
      </trkpt>
      <trkpt lat="45.07916" lon="6.42247">
        <ele>2291.8</ele>
        <time>2020-08-20 09:45:35</time>
      </trkpt>
      <trkpt lat="45.07923" lon="6.42233">
        <ele>2291.8</ele>
        <time>2020-08-20 09:45:41</time>
      </trkpt>
      <trkpt lat="45.07926" lon="6.4223">
        <ele>2292</ele>
        <time>2020-08-20 09:45:43</time>
      </trkpt>
      <trkpt lat="45.07928" lon="6.42227">
        <ele>2292</ele>
        <time>2020-08-20 09:45:45</time>
      </trkpt>
      <trkpt lat="45.07933" lon="6.42222">
        <ele>2292.2</ele>
        <time>2020-08-20 09:45:49</time>
      </trkpt>
      <trkpt lat="45.07935" lon="6.42219">
        <ele>2292.4</ele>
        <time>2020-08-20 09:45:51</time>
      </trkpt>
      <trkpt lat="45.07937" lon="6.42216">
        <ele>2292.6</ele>
        <time>2020-08-20 09:45:53</time>
      </trkpt>
      <trkpt lat="45.07939" lon="6.42213">
        <ele>2292.9</ele>
        <time>2020-08-20 09:45:55</time>
      </trkpt>
      <trkpt lat="45.0795" lon="6.42199">
        <ele>2294.4</ele>
        <time>2020-08-20 09:46:04</time>
      </trkpt>
      <trkpt lat="45.07951" lon="6.42196">
        <ele>2294.6</ele>
        <time>2020-08-20 09:46:05</time>
      </trkpt>
      <trkpt lat="45.07953" lon="6.42194">
        <ele>2294.9</ele>
        <time>2020-08-20 09:46:06</time>
      </trkpt>
      <trkpt lat="45.07958" lon="6.42189">
        <ele>2295.8</ele>
        <time>2020-08-20 09:46:09</time>
      </trkpt>
      <trkpt lat="45.07963" lon="6.42184">
        <ele>2297.1</ele>
        <time>2020-08-20 09:46:12</time>
      </trkpt>
      <trkpt lat="45.07965" lon="6.42182">
        <ele>2297.8</ele>
        <time>2020-08-20 09:46:13</time>
      </trkpt>
      <trkpt lat="45.07966" lon="6.42181">
        <ele>2298.1</ele>
        <time>2020-08-20 09:46:14</time>
      </trkpt>
      <trkpt lat="45.07972" lon="6.4218">
        <ele>2299.6</ele>
        <time>2020-08-20 09:46:17</time>
      </trkpt>
      <trkpt lat="45.07975" lon="6.4218">
        <ele>2300.3</ele>
        <time>2020-08-20 09:46:19</time>
      </trkpt>
      <trkpt lat="45.07977" lon="6.42181">
        <ele>2300.7</ele>
        <time>2020-08-20 09:46:20</time>
      </trkpt>
      <trkpt lat="45.07984" lon="6.42186">
        <ele>2301.9</ele>
        <time>2020-08-20 09:46:23</time>
      </trkpt>
      <trkpt lat="45.07986" lon="6.42188">
        <ele>2302.3</ele>
        <time>2020-08-20 09:46:24</time>
      </trkpt>
      <trkpt lat="45.07988" lon="6.4219">
        <ele>2302.6</ele>
        <time>2020-08-20 09:46:25</time>
      </trkpt>
      <trkpt lat="45.0799" lon="6.42197">
        <ele>2302.5</ele>
        <time>2020-08-20 09:46:27</time>
      </trkpt>
      <trkpt lat="45.07991" lon="6.422">
        <ele>2302.4</ele>
        <time>2020-08-20 09:46:28</time>
      </trkpt>
      <trkpt lat="45.07994" lon="6.42208">
        <ele>2302.3</ele>
        <time>2020-08-20 09:46:31</time>
      </trkpt>
      <trkpt lat="45.07995" lon="6.42214">
        <ele>2301.8</ele>
        <time>2020-08-20 09:46:33</time>
      </trkpt>
      <trkpt lat="45.07995" lon="6.42223">
        <ele>2300.7</ele>
        <time>2020-08-20 09:46:36</time>
      </trkpt>
      <trkpt lat="45.07995" lon="6.42228">
        <ele>2300.8</ele>
        <time>2020-08-20 09:46:38</time>
      </trkpt>
      <trkpt lat="45.07994" lon="6.42238">
        <ele>2300.6</ele>
        <time>2020-08-20 09:46:42</time>
      </trkpt>
      <trkpt lat="45.07993" lon="6.4224">
        <ele>2300.4</ele>
        <time>2020-08-20 09:46:43</time>
      </trkpt>
      <trkpt lat="45.07993" lon="6.42243">
        <ele>2300.4</ele>
        <time>2020-08-20 09:46:44</time>
      </trkpt>
      <trkpt lat="45.07995" lon="6.42251">
        <ele>2300.9</ele>
        <time>2020-08-20 09:46:47</time>
      </trkpt>
      <trkpt lat="45.07996" lon="6.42254">
        <ele>2301.1</ele>
        <time>2020-08-20 09:46:48</time>
      </trkpt>
      <trkpt lat="45.07999" lon="6.42258">
        <ele>2301.5</ele>
        <time>2020-08-20 09:46:50</time>
      </trkpt>
      <trkpt lat="45.08011" lon="6.42267">
        <ele>2303.8</ele>
        <time>2020-08-20 09:46:56</time>
      </trkpt>
      <trkpt lat="45.08015" lon="6.42273">
        <ele>2304.4</ele>
        <time>2020-08-20 09:46:59</time>
      </trkpt>
      <trkpt lat="45.0802" lon="6.42283">
        <ele>2305.1</ele>
        <time>2020-08-20 09:47:03</time>
      </trkpt>
      <trkpt lat="45.08023" lon="6.42294">
        <ele>2305.4</ele>
        <time>2020-08-20 09:47:07</time>
      </trkpt>
      <trkpt lat="45.08023" lon="6.42297">
        <ele>2305.3</ele>
        <time>2020-08-20 09:47:08</time>
      </trkpt>
      <trkpt lat="45.08025" lon="6.42306">
        <ele>2305.4</ele>
        <time>2020-08-20 09:47:11</time>
      </trkpt>
      <trkpt lat="45.08025" lon="6.42309">
        <ele>2305.6</ele>
        <time>2020-08-20 09:47:12</time>
      </trkpt>
      <trkpt lat="45.08025" lon="6.42318">
        <ele>2306.3</ele>
        <time>2020-08-20 09:47:15</time>
      </trkpt>
      <trkpt lat="45.08025" lon="6.42324">
        <ele>2306.7</ele>
        <time>2020-08-20 09:47:17</time>
      </trkpt>
      <trkpt lat="45.08024" lon="6.42333">
        <ele>2307</ele>
        <time>2020-08-20 09:47:20</time>
      </trkpt>
      <trkpt lat="45.08023" lon="6.42342">
        <ele>2307.1</ele>
        <time>2020-08-20 09:47:23</time>
      </trkpt>
      <trkpt lat="45.08019" lon="6.42354">
        <ele>2306.5</ele>
        <time>2020-08-20 09:47:27</time>
      </trkpt>
      <trkpt lat="45.08015" lon="6.42375">
        <ele>2306.3</ele>
        <time>2020-08-20 09:47:33</time>
      </trkpt>
      <trkpt lat="45.08016" lon="6.42383">
        <ele>2306.8</ele>
        <time>2020-08-20 09:47:35</time>
      </trkpt>
      <trkpt lat="45.08018" lon="6.4239">
        <ele>2307.3</ele>
        <time>2020-08-20 09:47:37</time>
      </trkpt>
      <trkpt lat="45.08019" lon="6.42393">
        <ele>2306.9</ele>
        <time>2020-08-20 09:47:38</time>
      </trkpt>
      <trkpt lat="45.08021" lon="6.42395">
        <ele>2307</ele>
        <time>2020-08-20 09:47:39</time>
      </trkpt>
      <trkpt lat="45.08023" lon="6.42396">
        <ele>2307.2</ele>
        <time>2020-08-20 09:47:40</time>
      </trkpt>
      <trkpt lat="45.08028" lon="6.42396">
        <ele>2308.3</ele>
        <time>2020-08-20 09:47:42</time>
      </trkpt>
      <trkpt lat="45.08031" lon="6.42395">
        <ele>2310</ele>
        <time>2020-08-20 09:47:43</time>
      </trkpt>
      <trkpt lat="45.0804" lon="6.42389">
        <ele>2316.6</ele>
        <time>2020-08-20 09:47:47</time>
      </trkpt>
      <trkpt lat="45.08044" lon="6.42379">
        <ele>2318.4</ele>
        <time>2020-08-20 09:47:50</time>
      </trkpt>
      <trkpt lat="45.08045" lon="6.42376">
        <ele>2318.8</ele>
        <time>2020-08-20 09:47:51</time>
      </trkpt>
      <trkpt lat="45.08045" lon="6.42372">
        <ele>2318.7</ele>
        <time>2020-08-20 09:47:52</time>
      </trkpt>
      <trkpt lat="45.08044" lon="6.42364">
        <ele>2317.9</ele>
        <time>2020-08-20 09:47:54</time>
      </trkpt>
      <trkpt lat="45.08045" lon="6.42351">
        <ele>2317.3</ele>
        <time>2020-08-20 09:47:58</time>
      </trkpt>
      <trkpt lat="45.08047" lon="6.42336">
        <ele>2316.6</ele>
        <time>2020-08-20 09:48:03</time>
      </trkpt>
      <trkpt lat="45.08048" lon="6.42333">
        <ele>2316.7</ele>
        <time>2020-08-20 09:48:04</time>
      </trkpt>
      <trkpt lat="45.08049" lon="6.42328">
        <ele>2316.6</ele>
        <time>2020-08-20 09:48:06</time>
      </trkpt>
      <trkpt lat="45.08054" lon="6.42306">
        <ele>2316.4</ele>
        <time>2020-08-20 09:48:15</time>
      </trkpt>
      <trkpt lat="45.08054" lon="6.42303">
        <ele>2316.4</ele>
        <time>2020-08-20 09:48:16</time>
      </trkpt>
      <trkpt lat="45.08056" lon="6.42295">
        <ele>2317.2</ele>
        <time>2020-08-20 09:48:19</time>
      </trkpt>
      <trkpt lat="45.08057" lon="6.4229">
        <ele>2317.6</ele>
        <time>2020-08-20 09:48:21</time>
      </trkpt>
      <trkpt lat="45.08058" lon="6.42285">
        <ele>2317.9</ele>
        <time>2020-08-20 09:48:23</time>
      </trkpt>
      <trkpt lat="45.0806" lon="6.42277">
        <ele>2318.5</ele>
        <time>2020-08-20 09:48:26</time>
      </trkpt>
      <trkpt lat="45.08064" lon="6.42263">
        <ele>2319</ele>
        <time>2020-08-20 09:48:32</time>
      </trkpt>
      <trkpt lat="45.08064" lon="6.42261">
        <ele>2318.8</ele>
        <time>2020-08-20 09:48:33</time>
      </trkpt>
      <trkpt lat="45.08068" lon="6.42246">
        <ele>2319.3</ele>
        <time>2020-08-20 09:48:39</time>
      </trkpt>
      <trkpt lat="45.0807" lon="6.42241">
        <ele>2319.7</ele>
        <time>2020-08-20 09:48:41</time>
      </trkpt>
      <trkpt lat="45.08072" lon="6.42236">
        <ele>2320</ele>
        <time>2020-08-20 09:48:43</time>
      </trkpt>
      <trkpt lat="45.08074" lon="6.42231">
        <ele>2320.3</ele>
        <time>2020-08-20 09:48:45</time>
      </trkpt>
      <trkpt lat="45.08078" lon="6.42219">
        <ele>2320.7</ele>
        <time>2020-08-20 09:48:50</time>
      </trkpt>
      <trkpt lat="45.08081" lon="6.42212">
        <ele>2321.4</ele>
        <time>2020-08-20 09:48:53</time>
      </trkpt>
      <trkpt lat="45.08089" lon="6.42192">
        <ele>2323.6</ele>
        <time>2020-08-20 09:49:02</time>
      </trkpt>
      <trkpt lat="45.08093" lon="6.42174">
        <ele>2324.8</ele>
        <time>2020-08-20 09:49:09</time>
      </trkpt>
      <trkpt lat="45.08094" lon="6.42166">
        <ele>2325.1</ele>
        <time>2020-08-20 09:49:12</time>
      </trkpt>
      <trkpt lat="45.08095" lon="6.42164">
        <ele>2325.4</ele>
        <time>2020-08-20 09:49:13</time>
      </trkpt>
      <trkpt lat="45.08097" lon="6.42152">
        <ele>2325.9</ele>
        <time>2020-08-20 09:49:18</time>
      </trkpt>
      <trkpt lat="45.081" lon="6.42123">
        <ele>2326.8</ele>
        <time>2020-08-20 09:49:29</time>
      </trkpt>
      <trkpt lat="45.08102" lon="6.42116">
        <ele>2327.3</ele>
        <time>2020-08-20 09:49:32</time>
      </trkpt>
      <trkpt lat="45.08102" lon="6.42113">
        <ele>2327.3</ele>
        <time>2020-08-20 09:49:33</time>
      </trkpt>
      <trkpt lat="45.08105" lon="6.42105">
        <ele>2327.9</ele>
        <time>2020-08-20 09:49:36</time>
      </trkpt>
      <trkpt lat="45.08106" lon="6.421">
        <ele>2328.2</ele>
        <time>2020-08-20 09:49:38</time>
      </trkpt>
      <trkpt lat="45.08109" lon="6.42086">
        <ele>2328.7</ele>
        <time>2020-08-20 09:49:43</time>
      </trkpt>
      <trkpt lat="45.08111" lon="6.4207">
        <ele>2330.4</ele>
        <time>2020-08-20 09:49:49</time>
      </trkpt>
      <trkpt lat="45.08111" lon="6.42068">
        <ele>2330.6</ele>
        <time>2020-08-20 09:49:50</time>
      </trkpt>
      <trkpt lat="45.0811" lon="6.42063">
        <ele>2331</ele>
        <time>2020-08-20 09:49:52</time>
      </trkpt>
      <trkpt lat="45.0811" lon="6.42058">
        <ele>2331.5</ele>
        <time>2020-08-20 09:49:54</time>
      </trkpt>
      <trkpt lat="45.08109" lon="6.42053">
        <ele>2332.1</ele>
        <time>2020-08-20 09:49:56</time>
      </trkpt>
      <trkpt lat="45.08109" lon="6.42047">
        <ele>2333.3</ele>
        <time>2020-08-20 09:49:58</time>
      </trkpt>
      <trkpt lat="45.08108" lon="6.42043">
        <ele>2333.8</ele>
        <time>2020-08-20 09:50:00</time>
      </trkpt>
      <trkpt lat="45.08106" lon="6.42036">
        <ele>2334.6</ele>
        <time>2020-08-20 09:50:03</time>
      </trkpt>
      <trkpt lat="45.08103" lon="6.42024">
        <ele>2335.1</ele>
        <time>2020-08-20 09:50:08</time>
      </trkpt>
      <trkpt lat="45.08101" lon="6.42014">
        <ele>2334.6</ele>
        <time>2020-08-20 09:50:12</time>
      </trkpt>
      <trkpt lat="45.08101" lon="6.42011">
        <ele>2334.6</ele>
        <time>2020-08-20 09:50:13</time>
      </trkpt>
      <trkpt lat="45.08099" lon="6.42001">
        <ele>2334.4</ele>
        <time>2020-08-20 09:50:17</time>
      </trkpt>
      <trkpt lat="45.08097" lon="6.4199">
        <ele>2334.7</ele>
        <time>2020-08-20 09:50:22</time>
      </trkpt>
      <trkpt lat="45.08097" lon="6.41987">
        <ele>2334.9</ele>
        <time>2020-08-20 09:50:23</time>
      </trkpt>
      <trkpt lat="45.08095" lon="6.41977">
        <ele>2335.2</ele>
        <time>2020-08-20 09:50:27</time>
      </trkpt>
      <trkpt lat="45.08094" lon="6.41974">
        <ele>2335.2</ele>
        <time>2020-08-20 09:50:28</time>
      </trkpt>
      <trkpt lat="45.08092" lon="6.41958">
        <ele>2336.8</ele>
        <time>2020-08-20 09:50:34</time>
      </trkpt>
      <trkpt lat="45.08088" lon="6.41941">
        <ele>2338.1</ele>
        <time>2020-08-20 09:50:41</time>
      </trkpt>
      <trkpt lat="45.08086" lon="6.4192">
        <ele>2339.3</ele>
        <time>2020-08-20 09:50:49</time>
      </trkpt>
      <trkpt lat="45.08086" lon="6.41911">
        <ele>2339.8</ele>
        <time>2020-08-20 09:50:52</time>
      </trkpt>
      <trkpt lat="45.08086" lon="6.41909">
        <ele>2339.9</ele>
        <time>2020-08-20 09:50:53</time>
      </trkpt>
      <trkpt lat="45.08086" lon="6.41904">
        <ele>2340.2</ele>
        <time>2020-08-20 09:50:55</time>
      </trkpt>
      <trkpt lat="45.08086" lon="6.41898">
        <ele>2340.4</ele>
        <time>2020-08-20 09:50:57</time>
      </trkpt>
      <trkpt lat="45.08084" lon="6.41881">
        <ele>2340.8</ele>
        <time>2020-08-20 09:51:05</time>
      </trkpt>
      <trkpt lat="45.08084" lon="6.41872">
        <ele>2341.4</ele>
        <time>2020-08-20 09:51:09</time>
      </trkpt>
      <trkpt lat="45.08084" lon="6.41867">
        <ele>2341.8</ele>
        <time>2020-08-20 09:51:11</time>
      </trkpt>
      <trkpt lat="45.08084" lon="6.4183">
        <ele>2344.6</ele>
        <time>2020-08-20 09:51:24</time>
      </trkpt>
      <trkpt lat="45.08083" lon="6.41828">
        <ele>2344.5</ele>
        <time>2020-08-20 09:51:25</time>
      </trkpt>
      <trkpt lat="45.08081" lon="6.41792">
        <ele>2347.7</ele>
        <time>2020-08-20 09:51:38</time>
      </trkpt>
      <trkpt lat="45.08081" lon="6.41787">
        <ele>2348.2</ele>
        <time>2020-08-20 09:51:40</time>
      </trkpt>
      <trkpt lat="45.08081" lon="6.41784">
        <ele>2348.6</ele>
        <time>2020-08-20 09:51:41</time>
      </trkpt>
      <trkpt lat="45.08081" lon="6.41781">
        <ele>2348.9</ele>
        <time>2020-08-20 09:51:42</time>
      </trkpt>
      <trkpt lat="45.08079" lon="6.41754">
        <ele>2350.4</ele>
        <time>2020-08-20 09:51:52</time>
      </trkpt>
      <trkpt lat="45.08079" lon="6.41749">
        <ele>2350.9</ele>
        <time>2020-08-20 09:51:54</time>
      </trkpt>
      <trkpt lat="45.08078" lon="6.41743">
        <ele>2351.5</ele>
        <time>2020-08-20 09:51:56</time>
      </trkpt>
      <trkpt lat="45.08078" lon="6.4174">
        <ele>2351.9</ele>
        <time>2020-08-20 09:51:57</time>
      </trkpt>
      <trkpt lat="45.08077" lon="6.41735">
        <ele>2352.3</ele>
        <time>2020-08-20 09:51:59</time>
      </trkpt>
      <trkpt lat="45.08074" lon="6.41725">
        <ele>2352.9</ele>
        <time>2020-08-20 09:52:03</time>
      </trkpt>
      <trkpt lat="45.08072" lon="6.41718">
        <ele>2353.4</ele>
        <time>2020-08-20 09:52:06</time>
      </trkpt>
      <trkpt lat="45.08067" lon="6.41707">
        <ele>2353.8</ele>
        <time>2020-08-20 09:52:11</time>
      </trkpt>
      <trkpt lat="45.08062" lon="6.41695">
        <ele>2354.5</ele>
        <time>2020-08-20 09:52:16</time>
      </trkpt>
      <trkpt lat="45.08058" lon="6.41689">
        <ele>2355</ele>
        <time>2020-08-20 09:52:19</time>
      </trkpt>
      <trkpt lat="45.08056" lon="6.41684">
        <ele>2355.7</ele>
        <time>2020-08-20 09:52:21</time>
      </trkpt>
      <trkpt lat="45.08052" lon="6.41678">
        <ele>2356.3</ele>
        <time>2020-08-20 09:52:24</time>
      </trkpt>
      <trkpt lat="45.08051" lon="6.41674">
        <ele>2357.2</ele>
        <time>2020-08-20 09:52:26</time>
      </trkpt>
      <trkpt lat="45.08045" lon="6.41666">
        <ele>2358.3</ele>
        <time>2020-08-20 09:52:30</time>
      </trkpt>
      <trkpt lat="45.08032" lon="6.41654">
        <ele>2359.8</ele>
        <time>2020-08-20 09:52:38</time>
      </trkpt>
      <trkpt lat="45.08031" lon="6.41653">
        <ele>2360</ele>
        <time>2020-08-20 09:52:39</time>
      </trkpt>
      <trkpt lat="45.08029" lon="6.41652">
        <ele>2359.9</ele>
        <time>2020-08-20 09:52:40</time>
      </trkpt>
      <trkpt lat="45.08013" lon="6.41642">
        <ele>2359.9</ele>
        <time>2020-08-20 09:52:50</time>
      </trkpt>
      <trkpt lat="45.08012" lon="6.41641">
        <ele>2360</ele>
        <time>2020-08-20 09:52:51</time>
      </trkpt>
      <trkpt lat="45.08007" lon="6.41638">
        <ele>2359.8</ele>
        <time>2020-08-20 09:52:54</time>
      </trkpt>
      <trkpt lat="45.08005" lon="6.41636">
        <ele>2360.1</ele>
        <time>2020-08-20 09:52:55</time>
      </trkpt>
      <trkpt lat="45.07999" lon="6.4163">
        <ele>2361.5</ele>
        <time>2020-08-20 09:52:59</time>
      </trkpt>
      <trkpt lat="45.07997" lon="6.41629">
        <ele>2361.7</ele>
        <time>2020-08-20 09:53:00</time>
      </trkpt>
      <trkpt lat="45.07986" lon="6.41621">
        <ele>2363.9</ele>
        <time>2020-08-20 09:53:06</time>
      </trkpt>
      <trkpt lat="45.0798" lon="6.41618">
        <ele>2364.5</ele>
        <time>2020-08-20 09:53:09</time>
      </trkpt>
      <trkpt lat="45.07973" lon="6.41613">
        <ele>2365.5</ele>
        <time>2020-08-20 09:53:13</time>
      </trkpt>
      <trkpt lat="45.07968" lon="6.4161">
        <ele>2365.4</ele>
        <time>2020-08-20 09:53:16</time>
      </trkpt>
      <trkpt lat="45.07966" lon="6.41608">
        <ele>2365.3</ele>
        <time>2020-08-20 09:53:17</time>
      </trkpt>
      <trkpt lat="45.07964" lon="6.41607">
        <ele>2365.1</ele>
        <time>2020-08-20 09:53:18</time>
      </trkpt>
      <trkpt lat="45.07963" lon="6.41605">
        <ele>2365.2</ele>
        <time>2020-08-20 09:53:19</time>
      </trkpt>
      <trkpt lat="45.07957" lon="6.41597">
        <ele>2365.3</ele>
        <time>2020-08-20 09:53:24</time>
      </trkpt>
      <trkpt lat="45.07956" lon="6.41595">
        <ele>2365.4</ele>
        <time>2020-08-20 09:53:25</time>
      </trkpt>
      <trkpt lat="45.07954" lon="6.41591">
        <ele>2365.6</ele>
        <time>2020-08-20 09:53:27</time>
      </trkpt>
      <trkpt lat="45.07947" lon="6.41578">
        <ele>2366.4</ele>
        <time>2020-08-20 09:53:33</time>
      </trkpt>
      <trkpt lat="45.07946" lon="6.41576">
        <ele>2366.6</ele>
        <time>2020-08-20 09:53:34</time>
      </trkpt>
      <trkpt lat="45.07945" lon="6.41574">
        <ele>2366.8</ele>
        <time>2020-08-20 09:53:35</time>
      </trkpt>
      <trkpt lat="45.07943" lon="6.4157">
        <ele>2367.1</ele>
        <time>2020-08-20 09:53:37</time>
      </trkpt>
      <trkpt lat="45.07936" lon="6.41558">
        <ele>2367.7</ele>
        <time>2020-08-20 09:53:43</time>
      </trkpt>
      <trkpt lat="45.07934" lon="6.41555">
        <ele>2367.8</ele>
        <time>2020-08-20 09:53:45</time>
      </trkpt>
      <trkpt lat="45.07933" lon="6.41553">
        <ele>2368</ele>
        <time>2020-08-20 09:53:46</time>
      </trkpt>
      <trkpt lat="45.07929" lon="6.41545">
        <ele>2368.5</ele>
        <time>2020-08-20 09:53:50</time>
      </trkpt>
      <trkpt lat="45.07925" lon="6.41522">
        <ele>2371</ele>
        <time>2020-08-20 09:53:59</time>
      </trkpt>
      <trkpt lat="45.07924" lon="6.41507">
        <ele>2372.4</ele>
        <time>2020-08-20 09:54:05</time>
      </trkpt>
      <trkpt lat="45.07924" lon="6.41502">
        <ele>2372.9</ele>
        <time>2020-08-20 09:54:07</time>
      </trkpt>
      <trkpt lat="45.07923" lon="6.41492">
        <ele>2373.8</ele>
        <time>2020-08-20 09:54:11</time>
      </trkpt>
      <trkpt lat="45.07923" lon="6.41485">
        <ele>2374.7</ele>
        <time>2020-08-20 09:54:14</time>
      </trkpt>
      <trkpt lat="45.07923" lon="6.41483">
        <ele>2374.9</ele>
        <time>2020-08-20 09:54:15</time>
      </trkpt>
      <trkpt lat="45.07922" lon="6.4148">
        <ele>2375</ele>
        <time>2020-08-20 09:54:16</time>
      </trkpt>
      <trkpt lat="45.07922" lon="6.41478">
        <ele>2375.2</ele>
        <time>2020-08-20 09:54:17</time>
      </trkpt>
      <trkpt lat="45.0792" lon="6.41473">
        <ele>2375.1</ele>
        <time>2020-08-20 09:54:19</time>
      </trkpt>
      <trkpt lat="45.07916" lon="6.41464">
        <ele>2375.7</ele>
        <time>2020-08-20 09:54:23</time>
      </trkpt>
      <trkpt lat="45.07906" lon="6.41448">
        <ele>2377.4</ele>
        <time>2020-08-20 09:54:31</time>
      </trkpt>
      <trkpt lat="45.07905" lon="6.41446">
        <ele>2377.6</ele>
        <time>2020-08-20 09:54:32</time>
      </trkpt>
      <trkpt lat="45.07884" lon="6.41414">
        <ele>2378.2</ele>
        <time>2020-08-20 09:54:49</time>
      </trkpt>
      <trkpt lat="45.07877" lon="6.41405">
        <ele>2379.9</ele>
        <time>2020-08-20 09:54:55</time>
      </trkpt>
      <trkpt lat="45.07875" lon="6.41404">
        <ele>2379.9</ele>
        <time>2020-08-20 09:54:56</time>
      </trkpt>
      <trkpt lat="45.07872" lon="6.41401">
        <ele>2380.3</ele>
        <time>2020-08-20 09:54:58</time>
      </trkpt>
      <trkpt lat="45.07871" lon="6.414">
        <ele>2380.5</ele>
        <time>2020-08-20 09:54:59</time>
      </trkpt>
      <trkpt lat="45.0787" lon="6.41398">
        <ele>2380.9</ele>
        <time>2020-08-20 09:55:00</time>
      </trkpt>
      <trkpt lat="45.07853" lon="6.4138">
        <ele>2383.4</ele>
        <time>2020-08-20 09:55:11</time>
      </trkpt>
      <trkpt lat="45.0785" lon="6.41378">
        <ele>2383.5</ele>
        <time>2020-08-20 09:55:13</time>
      </trkpt>
      <trkpt lat="45.07848" lon="6.41377">
        <ele>2383.6</ele>
        <time>2020-08-20 09:55:14</time>
      </trkpt>
      <trkpt lat="45.07843" lon="6.41373">
        <ele>2384</ele>
        <time>2020-08-20 09:55:17</time>
      </trkpt>
      <trkpt lat="45.07832" lon="6.41364">
        <ele>2385.1</ele>
        <time>2020-08-20 09:55:24</time>
      </trkpt>
      <trkpt lat="45.07824" lon="6.41357">
        <ele>2386.4</ele>
        <time>2020-08-20 09:55:29</time>
      </trkpt>
      <trkpt lat="45.07823" lon="6.41356">
        <ele>2386.7</ele>
        <time>2020-08-20 09:55:30</time>
      </trkpt>
      <trkpt lat="45.07821" lon="6.41354">
        <ele>2387.1</ele>
        <time>2020-08-20 09:55:31</time>
      </trkpt>
      <trkpt lat="45.07818" lon="6.41352">
        <ele>2387.4</ele>
        <time>2020-08-20 09:55:33</time>
      </trkpt>
      <trkpt lat="45.07816" lon="6.41351">
        <ele>2387.5</ele>
        <time>2020-08-20 09:55:34</time>
      </trkpt>
      <trkpt lat="45.07815" lon="6.41349">
        <ele>2388.1</ele>
        <time>2020-08-20 09:55:35</time>
      </trkpt>
      <trkpt lat="45.07811" lon="6.41347">
        <ele>2388.3</ele>
        <time>2020-08-20 09:55:37</time>
      </trkpt>
      <trkpt lat="45.07805" lon="6.41341">
        <ele>2389.4</ele>
        <time>2020-08-20 09:55:41</time>
      </trkpt>
      <trkpt lat="45.07801" lon="6.41338">
        <ele>2389.5</ele>
        <time>2020-08-20 09:55:43</time>
      </trkpt>
      <trkpt lat="45.07788" lon="6.41328">
        <ele>2390.2</ele>
        <time>2020-08-20 09:55:51</time>
      </trkpt>
      <trkpt lat="45.07781" lon="6.41324">
        <ele>2390.4</ele>
        <time>2020-08-20 09:55:55</time>
      </trkpt>
      <trkpt lat="45.07776" lon="6.41321">
        <ele>2390.5</ele>
        <time>2020-08-20 09:55:57</time>
      </trkpt>
      <trkpt lat="45.07775" lon="6.4132">
        <ele>2390.6</ele>
        <time>2020-08-20 09:55:58</time>
      </trkpt>
      <trkpt lat="45.07772" lon="6.41318">
        <ele>2390.7</ele>
        <time>2020-08-20 09:56:00</time>
      </trkpt>
      <trkpt lat="45.07768" lon="6.41313">
        <ele>2391.5</ele>
        <time>2020-08-20 09:56:03</time>
      </trkpt>
      <trkpt lat="45.07757" lon="6.41303">
        <ele>2392</ele>
        <time>2020-08-20 09:56:10</time>
      </trkpt>
      <trkpt lat="45.07754" lon="6.413">
        <ele>2392.3</ele>
        <time>2020-08-20 09:56:12</time>
      </trkpt>
      <trkpt lat="45.07737" lon="6.41274">
        <ele>2397.1</ele>
        <time>2020-08-20 09:56:26</time>
      </trkpt>
      <trkpt lat="45.07734" lon="6.4127">
        <ele>2397.5</ele>
        <time>2020-08-20 09:56:28</time>
      </trkpt>
      <trkpt lat="45.07733" lon="6.41269">
        <ele>2397.6</ele>
        <time>2020-08-20 09:56:29</time>
      </trkpt>
      <trkpt lat="45.0773" lon="6.41266">
        <ele>2397.8</ele>
        <time>2020-08-20 09:56:31</time>
      </trkpt>
      <trkpt lat="45.07728" lon="6.41265">
        <ele>2397.6</ele>
        <time>2020-08-20 09:56:32</time>
      </trkpt>
      <trkpt lat="45.07727" lon="6.41264">
        <ele>2397.7</ele>
        <time>2020-08-20 09:56:33</time>
      </trkpt>
      <trkpt lat="45.07723" lon="6.41261">
        <ele>2397.8</ele>
        <time>2020-08-20 09:56:35</time>
      </trkpt>
      <trkpt lat="45.0772" lon="6.41258">
        <ele>2398.3</ele>
        <time>2020-08-20 09:56:37</time>
      </trkpt>
      <trkpt lat="45.07717" lon="6.41255">
        <ele>2398.7</ele>
        <time>2020-08-20 09:56:39</time>
      </trkpt>
      <trkpt lat="45.07715" lon="6.41253">
        <ele>2399</ele>
        <time>2020-08-20 09:56:40</time>
      </trkpt>
      <trkpt lat="45.07711" lon="6.4125">
        <ele>2399.2</ele>
        <time>2020-08-20 09:56:43</time>
      </trkpt>
      <trkpt lat="45.07688" lon="6.41229">
        <ele>2400.8</ele>
        <time>2020-08-20 09:56:57</time>
      </trkpt>
      <trkpt lat="45.07685" lon="6.41227">
        <ele>2400.6</ele>
        <time>2020-08-20 09:56:59</time>
      </trkpt>
      <trkpt lat="45.07681" lon="6.41223">
        <ele>2400.9</ele>
        <time>2020-08-20 09:57:02</time>
      </trkpt>
      <trkpt lat="45.07679" lon="6.41222">
        <ele>2400.6</ele>
        <time>2020-08-20 09:57:03</time>
      </trkpt>
      <trkpt lat="45.07672" lon="6.41215">
        <ele>2402</ele>
        <time>2020-08-20 09:57:07</time>
      </trkpt>
      <trkpt lat="45.0767" lon="6.41214">
        <ele>2402</ele>
        <time>2020-08-20 09:57:08</time>
      </trkpt>
      <trkpt lat="45.07664" lon="6.4121">
        <ele>2402.6</ele>
        <time>2020-08-20 09:57:12</time>
      </trkpt>
      <trkpt lat="45.07663" lon="6.41209">
        <ele>2402.8</ele>
        <time>2020-08-20 09:57:13</time>
      </trkpt>
      <trkpt lat="45.07653" lon="6.412">
        <ele>2404.3</ele>
        <time>2020-08-20 09:57:20</time>
      </trkpt>
      <trkpt lat="45.0765" lon="6.41198">
        <ele>2404.2</ele>
        <time>2020-08-20 09:57:22</time>
      </trkpt>
      <trkpt lat="45.07645" lon="6.41195">
        <ele>2403.8</ele>
        <time>2020-08-20 09:57:25</time>
      </trkpt>
      <trkpt lat="45.07642" lon="6.41193">
        <ele>2403.6</ele>
        <time>2020-08-20 09:57:27</time>
      </trkpt>
      <trkpt lat="45.0763" lon="6.41184">
        <ele>2405.5</ele>
        <time>2020-08-20 09:57:35</time>
      </trkpt>
      <trkpt lat="45.07629" lon="6.41183">
        <ele>2405.7</ele>
        <time>2020-08-20 09:57:36</time>
      </trkpt>
      <trkpt lat="45.07619" lon="6.41179">
        <ele>2405.6</ele>
        <time>2020-08-20 09:57:42</time>
      </trkpt>
      <trkpt lat="45.07616" lon="6.41179">
        <ele>2405.3</ele>
        <time>2020-08-20 09:57:44</time>
      </trkpt>
      <trkpt lat="45.07614" lon="6.41179">
        <ele>2405</ele>
        <time>2020-08-20 09:57:45</time>
      </trkpt>
      <trkpt lat="45.07607" lon="6.41184">
        <ele>2404.6</ele>
        <time>2020-08-20 09:57:49</time>
      </trkpt>
      <trkpt lat="45.07606" lon="6.41185">
        <ele>2404.7</ele>
        <time>2020-08-20 09:57:50</time>
      </trkpt>
      <trkpt lat="45.07603" lon="6.41187">
        <ele>2405</ele>
        <time>2020-08-20 09:57:52</time>
      </trkpt>
      <trkpt lat="45.076" lon="6.4119">
        <ele>2405.2</ele>
        <time>2020-08-20 09:57:54</time>
      </trkpt>
      <trkpt lat="45.07599" lon="6.41192">
        <ele>2405.3</ele>
        <time>2020-08-20 09:57:55</time>
      </trkpt>
      <trkpt lat="45.07598" lon="6.41197">
        <ele>2405.3</ele>
        <time>2020-08-20 09:57:57</time>
      </trkpt>
      <trkpt lat="45.07596" lon="6.41205">
        <ele>2405.6</ele>
        <time>2020-08-20 09:58:00</time>
      </trkpt>
      <trkpt lat="45.07595" lon="6.4121">
        <ele>2405.9</ele>
        <time>2020-08-20 09:58:02</time>
      </trkpt>
      <trkpt lat="45.07593" lon="6.4124">
        <ele>2407.2</ele>
        <time>2020-08-20 09:58:14</time>
      </trkpt>
      <trkpt lat="45.0759" lon="6.41249">
        <ele>2408.9</ele>
        <time>2020-08-20 09:58:18</time>
      </trkpt>
      <trkpt lat="45.07589" lon="6.41251">
        <ele>2409.1</ele>
        <time>2020-08-20 09:58:19</time>
      </trkpt>
      <trkpt lat="45.07587" lon="6.41255">
        <ele>2409</ele>
        <time>2020-08-20 09:58:21</time>
      </trkpt>
      <trkpt lat="45.07585" lon="6.41257">
        <ele>2409.5</ele>
        <time>2020-08-20 09:58:22</time>
      </trkpt>
      <trkpt lat="45.07568" lon="6.41269">
        <ele>2412</ele>
        <time>2020-08-20 09:58:33</time>
      </trkpt>
      <trkpt lat="45.07565" lon="6.41271">
        <ele>2412.3</ele>
        <time>2020-08-20 09:58:35</time>
      </trkpt>
      <trkpt lat="45.07549" lon="6.41285">
        <ele>2413.6</ele>
        <time>2020-08-20 09:58:46</time>
      </trkpt>
      <trkpt lat="45.07546" lon="6.41287">
        <ele>2414.1</ele>
        <time>2020-08-20 09:58:48</time>
      </trkpt>
      <trkpt lat="45.07545" lon="6.41288">
        <ele>2414.2</ele>
        <time>2020-08-20 09:58:49</time>
      </trkpt>
      <trkpt lat="45.07544" lon="6.4129">
        <ele>2414</ele>
        <time>2020-08-20 09:58:50</time>
      </trkpt>
      <trkpt lat="45.07536" lon="6.41294">
        <ele>2415.3</ele>
        <time>2020-08-20 09:58:55</time>
      </trkpt>
      <trkpt lat="45.07532" lon="6.41296">
        <ele>2415.9</ele>
        <time>2020-08-20 09:58:57</time>
      </trkpt>
      <trkpt lat="45.07531" lon="6.41297">
        <ele>2415.9</ele>
        <time>2020-08-20 09:58:58</time>
      </trkpt>
      <trkpt lat="45.07523" lon="6.41302">
        <ele>2416.6</ele>
        <time>2020-08-20 09:59:03</time>
      </trkpt>
      <trkpt lat="45.07522" lon="6.41303">
        <ele>2416.6</ele>
        <time>2020-08-20 09:59:04</time>
      </trkpt>
      <trkpt lat="45.07516" lon="6.41308">
        <ele>2417.2</ele>
        <time>2020-08-20 09:59:08</time>
      </trkpt>
      <trkpt lat="45.07514" lon="6.41309">
        <ele>2417.5</ele>
        <time>2020-08-20 09:59:09</time>
      </trkpt>
      <trkpt lat="45.07511" lon="6.41311">
        <ele>2417.9</ele>
        <time>2020-08-20 09:59:11</time>
      </trkpt>
      <trkpt lat="45.07508" lon="6.41313">
        <ele>2418.3</ele>
        <time>2020-08-20 09:59:13</time>
      </trkpt>
      <trkpt lat="45.07506" lon="6.41314">
        <ele>2418.7</ele>
        <time>2020-08-20 09:59:14</time>
      </trkpt>
      <trkpt lat="45.07503" lon="6.41316">
        <ele>2419.1</ele>
        <time>2020-08-20 09:59:16</time>
      </trkpt>
      <trkpt lat="45.07497" lon="6.41319">
        <ele>2419.5</ele>
        <time>2020-08-20 09:59:20</time>
      </trkpt>
      <trkpt lat="45.07493" lon="6.4132">
        <ele>2419.7</ele>
        <time>2020-08-20 09:59:23</time>
      </trkpt>
      <trkpt lat="45.07483" lon="6.41321">
        <ele>2420.7</ele>
        <time>2020-08-20 09:59:29</time>
      </trkpt>
      <trkpt lat="45.0748" lon="6.41322">
        <ele>2420.9</ele>
        <time>2020-08-20 09:59:31</time>
      </trkpt>
      <trkpt lat="45.07473" lon="6.41322">
        <ele>2421.8</ele>
        <time>2020-08-20 09:59:36</time>
      </trkpt>
      <trkpt lat="45.07471" lon="6.41322">
        <ele>2422.1</ele>
        <time>2020-08-20 09:59:37</time>
      </trkpt>
      <trkpt lat="45.07469" lon="6.41323">
        <ele>2422.1</ele>
        <time>2020-08-20 09:59:39</time>
      </trkpt>
      <trkpt lat="45.07462" lon="6.41324">
        <ele>2423.1</ele>
        <time>2020-08-20 09:59:43</time>
      </trkpt>
      <trkpt lat="45.07461" lon="6.41324">
        <ele>2423.2</ele>
        <time>2020-08-20 09:59:44</time>
      </trkpt>
      <trkpt lat="45.07447" lon="6.41325">
        <ele>2425.4</ele>
        <time>2020-08-20 09:59:52</time>
      </trkpt>
      <trkpt lat="45.07444" lon="6.41326">
        <ele>2425.6</ele>
        <time>2020-08-20 09:59:54</time>
      </trkpt>
      <trkpt lat="45.07437" lon="6.41327">
        <ele>2426</ele>
        <time>2020-08-20 09:59:58</time>
      </trkpt>
      <trkpt lat="45.07435" lon="6.41328">
        <ele>2425.9</ele>
        <time>2020-08-20 09:59:59</time>
      </trkpt>
      <trkpt lat="45.07428" lon="6.41328">
        <ele>2426.4</ele>
        <time>2020-08-20 10:00:03</time>
      </trkpt>
      <trkpt lat="45.07421" lon="6.41329">
        <ele>2426.8</ele>
        <time>2020-08-20 10:00:07</time>
      </trkpt>
      <trkpt lat="45.07418" lon="6.41328">
        <ele>2427.2</ele>
        <time>2020-08-20 10:00:09</time>
      </trkpt>
      <trkpt lat="45.07414" lon="6.41325">
        <ele>2427.7</ele>
        <time>2020-08-20 10:00:12</time>
      </trkpt>
      <trkpt lat="45.07409" lon="6.41317">
        <ele>2428.8</ele>
        <time>2020-08-20 10:00:17</time>
      </trkpt>
      <trkpt lat="45.07407" lon="6.41314">
        <ele>2429.2</ele>
        <time>2020-08-20 10:00:19</time>
      </trkpt>
      <trkpt lat="45.07405" lon="6.4131">
        <ele>2429.8</ele>
        <time>2020-08-20 10:00:21</time>
      </trkpt>
      <trkpt lat="45.07404" lon="6.41308">
        <ele>2430.1</ele>
        <time>2020-08-20 10:00:22</time>
      </trkpt>
      <trkpt lat="45.07401" lon="6.41301">
        <ele>2430.6</ele>
        <time>2020-08-20 10:00:25</time>
      </trkpt>
      <trkpt lat="45.074" lon="6.41299">
        <ele>2430.7</ele>
        <time>2020-08-20 10:00:26</time>
      </trkpt>
      <trkpt lat="45.07399" lon="6.41294">
        <ele>2431</ele>
        <time>2020-08-20 10:00:28</time>
      </trkpt>
      <trkpt lat="45.07397" lon="6.41289">
        <ele>2431.3</ele>
        <time>2020-08-20 10:00:30</time>
      </trkpt>
      <trkpt lat="45.07393" lon="6.41283">
        <ele>2431.6</ele>
        <time>2020-08-20 10:00:33</time>
      </trkpt>
      <trkpt lat="45.0739" lon="6.41279">
        <ele>2431.9</ele>
        <time>2020-08-20 10:00:35</time>
      </trkpt>
      <trkpt lat="45.07387" lon="6.41277">
        <ele>2432</ele>
        <time>2020-08-20 10:00:37</time>
      </trkpt>
      <trkpt lat="45.0738" lon="6.41271">
        <ele>2431.8</ele>
        <time>2020-08-20 10:00:42</time>
      </trkpt>
      <trkpt lat="45.07377" lon="6.4127">
        <ele>2431.8</ele>
        <time>2020-08-20 10:00:44</time>
      </trkpt>
      <trkpt lat="45.07369" lon="6.41267">
        <ele>2431.4</ele>
        <time>2020-08-20 10:00:49</time>
      </trkpt>
      <trkpt lat="45.07365" lon="6.41267">
        <ele>2431.3</ele>
        <time>2020-08-20 10:00:51</time>
      </trkpt>
      <trkpt lat="45.07348" lon="6.41272">
        <ele>2432.6</ele>
        <time>2020-08-20 10:01:02</time>
      </trkpt>
      <trkpt lat="45.07345" lon="6.41273">
        <ele>2432.9</ele>
        <time>2020-08-20 10:01:04</time>
      </trkpt>
      <trkpt lat="45.07328" lon="6.41278">
        <ele>2434.6</ele>
        <time>2020-08-20 10:01:14</time>
      </trkpt>
      <trkpt lat="45.07323" lon="6.41279">
        <ele>2435.1</ele>
        <time>2020-08-20 10:01:17</time>
      </trkpt>
      <trkpt lat="45.07316" lon="6.41279">
        <ele>2435.9</ele>
        <time>2020-08-20 10:01:21</time>
      </trkpt>
      <trkpt lat="45.07294" lon="6.41281">
        <ele>2437.5</ele>
        <time>2020-08-20 10:01:33</time>
      </trkpt>
      <trkpt lat="45.07289" lon="6.41282">
        <ele>2437.7</ele>
        <time>2020-08-20 10:01:36</time>
      </trkpt>
      <trkpt lat="45.07287" lon="6.41282">
        <ele>2437.8</ele>
        <time>2020-08-20 10:01:37</time>
      </trkpt>
      <trkpt lat="45.07286" lon="6.41282">
        <ele>2437.8</ele>
        <time>2020-08-20 10:01:38</time>
      </trkpt>
      <trkpt lat="45.07274" lon="6.41286">
        <ele>2439.3</ele>
        <time>2020-08-20 10:01:46</time>
      </trkpt>
      <trkpt lat="45.07268" lon="6.41289">
        <ele>2440.5</ele>
        <time>2020-08-20 10:01:50</time>
      </trkpt>
      <trkpt lat="45.07264" lon="6.41289">
        <ele>2440.9</ele>
        <time>2020-08-20 10:01:52</time>
      </trkpt>
      <trkpt lat="45.07261" lon="6.4129">
        <ele>2441.3</ele>
        <time>2020-08-20 10:01:54</time>
      </trkpt>
      <trkpt lat="45.07244" lon="6.41294">
        <ele>2442.7</ele>
        <time>2020-08-20 10:02:03</time>
      </trkpt>
      <trkpt lat="45.07241" lon="6.41294">
        <ele>2442.8</ele>
        <time>2020-08-20 10:02:05</time>
      </trkpt>
      <trkpt lat="45.07237" lon="6.41295">
        <ele>2442.9</ele>
        <time>2020-08-20 10:02:07</time>
      </trkpt>
      <trkpt lat="45.07224" lon="6.41295">
        <ele>2443.2</ele>
        <time>2020-08-20 10:02:14</time>
      </trkpt>
      <trkpt lat="45.07219" lon="6.41292">
        <ele>2443</ele>
        <time>2020-08-20 10:02:17</time>
      </trkpt>
      <trkpt lat="45.07216" lon="6.41289">
        <ele>2442.9</ele>
        <time>2020-08-20 10:02:19</time>
      </trkpt>
      <trkpt lat="45.07215" lon="6.41286">
        <ele>2442.7</ele>
        <time>2020-08-20 10:02:20</time>
      </trkpt>
      <trkpt lat="45.07213" lon="6.41281">
        <ele>2442.5</ele>
        <time>2020-08-20 10:02:22</time>
      </trkpt>
      <trkpt lat="45.07212" lon="6.41278">
        <ele>2442.4</ele>
        <time>2020-08-20 10:02:23</time>
      </trkpt>
      <trkpt lat="45.07212" lon="6.41275">
        <ele>2442.6</ele>
        <time>2020-08-20 10:02:24</time>
      </trkpt>
      <trkpt lat="45.07211" lon="6.41272">
        <ele>2442.8</ele>
        <time>2020-08-20 10:02:25</time>
      </trkpt>
      <trkpt lat="45.07211" lon="6.41256">
        <ele>2444</ele>
        <time>2020-08-20 10:02:30</time>
      </trkpt>
      <trkpt lat="45.07213" lon="6.41236">
        <ele>2445.5</ele>
        <time>2020-08-20 10:02:38</time>
      </trkpt>
      <trkpt lat="45.07214" lon="6.41231">
        <ele>2445.6</ele>
        <time>2020-08-20 10:02:40</time>
      </trkpt>
      <trkpt lat="45.07215" lon="6.41223">
        <ele>2445.8</ele>
        <time>2020-08-20 10:02:43</time>
      </trkpt>
      <trkpt lat="45.07216" lon="6.4121">
        <ele>2446.7</ele>
        <time>2020-08-20 10:02:48</time>
      </trkpt>
      <trkpt lat="45.07217" lon="6.41205">
        <ele>2447</ele>
        <time>2020-08-20 10:02:50</time>
      </trkpt>
      <trkpt lat="45.07217" lon="6.412">
        <ele>2447.5</ele>
        <time>2020-08-20 10:02:52</time>
      </trkpt>
      <trkpt lat="45.07217" lon="6.4119">
        <ele>2448.6</ele>
        <time>2020-08-20 10:02:56</time>
      </trkpt>
      <trkpt lat="45.07216" lon="6.41188">
        <ele>2449</ele>
        <time>2020-08-20 10:02:57</time>
      </trkpt>
      <trkpt lat="45.07215" lon="6.41183">
        <ele>2449.6</ele>
        <time>2020-08-20 10:02:59</time>
      </trkpt>
      <trkpt lat="45.07214" lon="6.41177">
        <ele>2450.2</ele>
        <time>2020-08-20 10:03:01</time>
      </trkpt>
      <trkpt lat="45.07212" lon="6.41173">
        <ele>2450.6</ele>
        <time>2020-08-20 10:03:03</time>
      </trkpt>
      <trkpt lat="45.07205" lon="6.41162">
        <ele>2449.9</ele>
        <time>2020-08-20 10:03:08</time>
      </trkpt>
      <trkpt lat="45.07202" lon="6.4116">
        <ele>2449.5</ele>
        <time>2020-08-20 10:03:10</time>
      </trkpt>
      <trkpt lat="45.07201" lon="6.41158">
        <ele>2449.1</ele>
        <time>2020-08-20 10:03:11</time>
      </trkpt>
      <trkpt lat="45.07199" lon="6.41157">
        <ele>2448.9</ele>
        <time>2020-08-20 10:03:12</time>
      </trkpt>
      <trkpt lat="45.07195" lon="6.41155">
        <ele>2448.5</ele>
        <time>2020-08-20 10:03:14</time>
      </trkpt>
      <trkpt lat="45.07191" lon="6.41154">
        <ele>2448.8</ele>
        <time>2020-08-20 10:03:16</time>
      </trkpt>
      <trkpt lat="45.07186" lon="6.41152">
        <ele>2449.2</ele>
        <time>2020-08-20 10:03:19</time>
      </trkpt>
      <trkpt lat="45.07158" lon="6.41147">
        <ele>2452.7</ele>
        <time>2020-08-20 10:03:33</time>
      </trkpt>
      <trkpt lat="45.07112" lon="6.41143">
        <ele>2456.1</ele>
        <time>2020-08-20 10:03:57</time>
      </trkpt>
      <trkpt lat="45.0711" lon="6.41143">
        <ele>2456.2</ele>
        <time>2020-08-20 10:03:58</time>
      </trkpt>
      <trkpt lat="45.07106" lon="6.41143">
        <ele>2456.4</ele>
        <time>2020-08-20 10:04:00</time>
      </trkpt>
      <trkpt lat="45.07102" lon="6.41141">
        <ele>2456.1</ele>
        <time>2020-08-20 10:04:02</time>
      </trkpt>
      <trkpt lat="45.07095" lon="6.41136">
        <ele>2456.5</ele>
        <time>2020-08-20 10:04:06</time>
      </trkpt>
      <trkpt lat="45.07092" lon="6.41135">
        <ele>2457</ele>
        <time>2020-08-20 10:04:08</time>
      </trkpt>
      <trkpt lat="45.07085" lon="6.4113">
        <ele>2458.7</ele>
        <time>2020-08-20 10:04:13</time>
      </trkpt>
      <trkpt lat="45.07073" lon="6.41119">
        <ele>2461.3</ele>
        <time>2020-08-20 10:04:21</time>
      </trkpt>
      <trkpt lat="45.07065" lon="6.41114">
        <ele>2462.4</ele>
        <time>2020-08-20 10:04:26</time>
      </trkpt>
      <trkpt lat="45.07054" lon="6.41104">
        <ele>2464.2</ele>
        <time>2020-08-20 10:04:33</time>
      </trkpt>
      <trkpt lat="45.07051" lon="6.41102">
        <ele>2464.4</ele>
        <time>2020-08-20 10:04:35</time>
      </trkpt>
      <trkpt lat="45.07044" lon="6.41097">
        <ele>2464.9</ele>
        <time>2020-08-20 10:04:39</time>
      </trkpt>
      <trkpt lat="45.07041" lon="6.41095">
        <ele>2465.1</ele>
        <time>2020-08-20 10:04:41</time>
      </trkpt>
      <trkpt lat="45.07038" lon="6.41092">
        <ele>2465.4</ele>
        <time>2020-08-20 10:04:43</time>
      </trkpt>
      <trkpt lat="45.07035" lon="6.4109">
        <ele>2465.5</ele>
        <time>2020-08-20 10:04:45</time>
      </trkpt>
      <trkpt lat="45.07034" lon="6.41088">
        <ele>2465.7</ele>
        <time>2020-08-20 10:04:46</time>
      </trkpt>
      <trkpt lat="45.07029" lon="6.41085">
        <ele>2465.8</ele>
        <time>2020-08-20 10:04:49</time>
      </trkpt>
      <trkpt lat="45.07023" lon="6.41081">
        <ele>2466.6</ele>
        <time>2020-08-20 10:04:53</time>
      </trkpt>
      <trkpt lat="45.0702" lon="6.4108">
        <ele>2467</ele>
        <time>2020-08-20 10:04:55</time>
      </trkpt>
      <trkpt lat="45.07014" lon="6.41079">
        <ele>2467.6</ele>
        <time>2020-08-20 10:04:58</time>
      </trkpt>
      <trkpt lat="45.07007" lon="6.41077">
        <ele>2468.5</ele>
        <time>2020-08-20 10:05:02</time>
      </trkpt>
      <trkpt lat="45.07002" lon="6.41077">
        <ele>2469</ele>
        <time>2020-08-20 10:05:05</time>
      </trkpt>
      <trkpt lat="45.06989" lon="6.41076">
        <ele>2470.3</ele>
        <time>2020-08-20 10:05:12</time>
      </trkpt>
      <trkpt lat="45.06981" lon="6.41075">
        <ele>2471.3</ele>
        <time>2020-08-20 10:05:17</time>
      </trkpt>
      <trkpt lat="45.06977" lon="6.41074">
        <ele>2471.9</ele>
        <time>2020-08-20 10:05:19</time>
      </trkpt>
      <trkpt lat="45.06975" lon="6.41074">
        <ele>2472.1</ele>
        <time>2020-08-20 10:05:20</time>
      </trkpt>
      <trkpt lat="45.06969" lon="6.41072">
        <ele>2472.7</ele>
        <time>2020-08-20 10:05:23</time>
      </trkpt>
      <trkpt lat="45.06963" lon="6.41068">
        <ele>2473.5</ele>
        <time>2020-08-20 10:05:27</time>
      </trkpt>
      <trkpt lat="45.06961" lon="6.41068">
        <ele>2473.5</ele>
        <time>2020-08-20 10:05:28</time>
      </trkpt>
      <trkpt lat="45.0695" lon="6.41062">
        <ele>2474.6</ele>
        <time>2020-08-20 10:05:34</time>
      </trkpt>
      <trkpt lat="45.06946" lon="6.4106">
        <ele>2474.9</ele>
        <time>2020-08-20 10:05:37</time>
      </trkpt>
      <trkpt lat="45.06943" lon="6.41059">
        <ele>2475</ele>
        <time>2020-08-20 10:05:39</time>
      </trkpt>
      <trkpt lat="45.06931" lon="6.41051">
        <ele>2474.8</ele>
        <time>2020-08-20 10:05:47</time>
      </trkpt>
      <trkpt lat="45.06926" lon="6.41046">
        <ele>2474.4</ele>
        <time>2020-08-20 10:05:50</time>
      </trkpt>
      <trkpt lat="45.06921" lon="6.41036">
        <ele>2474.5</ele>
        <time>2020-08-20 10:05:55</time>
      </trkpt>
      <trkpt lat="45.0692" lon="6.41034">
        <ele>2474.6</ele>
        <time>2020-08-20 10:05:56</time>
      </trkpt>
      <trkpt lat="45.0692" lon="6.41027">
        <ele>2474.7</ele>
        <time>2020-08-20 10:05:59</time>
      </trkpt>
      <trkpt lat="45.06921" lon="6.41024">
        <ele>2474.7</ele>
        <time>2020-08-20 10:06:00</time>
      </trkpt>
      <trkpt lat="45.06922" lon="6.41022">
        <ele>2474.6</ele>
        <time>2020-08-20 10:06:01</time>
      </trkpt>
      <trkpt lat="45.06922" lon="6.4102">
        <ele>2474.7</ele>
        <time>2020-08-20 10:06:02</time>
      </trkpt>
      <trkpt lat="45.06926" lon="6.41011">
        <ele>2474.2</ele>
        <time>2020-08-20 10:06:06</time>
      </trkpt>
      <trkpt lat="45.06929" lon="6.41001">
        <ele>2473.5</ele>
        <time>2020-08-20 10:06:10</time>
      </trkpt>
      <trkpt lat="45.0693" lon="6.40994">
        <ele>2473.6</ele>
        <time>2020-08-20 10:06:13</time>
      </trkpt>
      <trkpt lat="45.06931" lon="6.40989">
        <ele>2473.7</ele>
        <time>2020-08-20 10:06:15</time>
      </trkpt>
      <trkpt lat="45.0693" lon="6.40987">
        <ele>2474.1</ele>
        <time>2020-08-20 10:06:16</time>
      </trkpt>
      <trkpt lat="45.06928" lon="6.40975">
        <ele>2475.7</ele>
        <time>2020-08-20 10:06:21</time>
      </trkpt>
      <trkpt lat="45.06926" lon="6.40971">
        <ele>2476.7</ele>
        <time>2020-08-20 10:06:23</time>
      </trkpt>
      <trkpt lat="45.06923" lon="6.40968">
        <ele>2477.9</ele>
        <time>2020-08-20 10:06:25</time>
      </trkpt>
      <trkpt lat="45.06921" lon="6.40967">
        <ele>2478.8</ele>
        <time>2020-08-20 10:06:26</time>
      </trkpt>
      <trkpt lat="45.06917" lon="6.40967">
        <ele>2480.4</ele>
        <time>2020-08-20 10:06:28</time>
      </trkpt>
      <trkpt lat="45.06913" lon="6.40968">
        <ele>2481.9</ele>
        <time>2020-08-20 10:06:30</time>
      </trkpt>
      <trkpt lat="45.06911" lon="6.40969">
        <ele>2482.5</ele>
        <time>2020-08-20 10:06:31</time>
      </trkpt>
      <trkpt lat="45.06905" lon="6.40973">
        <ele>2484.1</ele>
        <time>2020-08-20 10:06:34</time>
      </trkpt>
      <trkpt lat="45.06902" lon="6.40977">
        <ele>2484.3</ele>
        <time>2020-08-20 10:06:36</time>
      </trkpt>
      <trkpt lat="45.069" lon="6.40981">
        <ele>2484.1</ele>
        <time>2020-08-20 10:06:38</time>
      </trkpt>
      <trkpt lat="45.06899" lon="6.40982">
        <ele>2484.2</ele>
        <time>2020-08-20 10:06:39</time>
      </trkpt>
      <trkpt lat="45.06896" lon="6.40984">
        <ele>2484.6</ele>
        <time>2020-08-20 10:06:41</time>
      </trkpt>
      <trkpt lat="45.06895" lon="6.40986">
        <ele>2484.4</ele>
        <time>2020-08-20 10:06:42</time>
      </trkpt>
      <trkpt lat="45.0689" lon="6.40988">
        <ele>2485.2</ele>
        <time>2020-08-20 10:06:45</time>
      </trkpt>
      <trkpt lat="45.06886" lon="6.40989">
        <ele>2485.6</ele>
        <time>2020-08-20 10:06:47</time>
      </trkpt>
      <trkpt lat="45.0688" lon="6.4099">
        <ele>2486.3</ele>
        <time>2020-08-20 10:06:51</time>
      </trkpt>
      <trkpt lat="45.06878" lon="6.4099">
        <ele>2486.6</ele>
        <time>2020-08-20 10:06:52</time>
      </trkpt>
      <trkpt lat="45.06851" lon="6.40995">
        <ele>2489.1</ele>
        <time>2020-08-20 10:07:09</time>
      </trkpt>
      <trkpt lat="45.06847" lon="6.40998">
        <ele>2488.8</ele>
        <time>2020-08-20 10:07:12</time>
      </trkpt>
      <trkpt lat="45.06846" lon="6.40999">
        <ele>2488.6</ele>
        <time>2020-08-20 10:07:13</time>
      </trkpt>
      <trkpt lat="45.06844" lon="6.41001">
        <ele>2488.6</ele>
        <time>2020-08-20 10:07:14</time>
      </trkpt>
      <trkpt lat="45.0684" lon="6.41005">
        <ele>2489</ele>
        <time>2020-08-20 10:07:17</time>
      </trkpt>
      <trkpt lat="45.06839" lon="6.41007">
        <ele>2489</ele>
        <time>2020-08-20 10:07:18</time>
      </trkpt>
      <trkpt lat="45.06836" lon="6.41011">
        <ele>2489.2</ele>
        <time>2020-08-20 10:07:20</time>
      </trkpt>
      <trkpt lat="45.06834" lon="6.41014">
        <ele>2489.3</ele>
        <time>2020-08-20 10:07:22</time>
      </trkpt>
      <trkpt lat="45.06828" lon="6.41022">
        <ele>2490.4</ele>
        <time>2020-08-20 10:07:27</time>
      </trkpt>
      <trkpt lat="45.06826" lon="6.41023">
        <ele>2490.9</ele>
        <time>2020-08-20 10:07:28</time>
      </trkpt>
      <trkpt lat="45.06824" lon="6.41027">
        <ele>2491.1</ele>
        <time>2020-08-20 10:07:30</time>
      </trkpt>
      <trkpt lat="45.06823" lon="6.41029">
        <ele>2491.3</ele>
        <time>2020-08-20 10:07:31</time>
      </trkpt>
      <trkpt lat="45.06821" lon="6.41033">
        <ele>2491.7</ele>
        <time>2020-08-20 10:07:33</time>
      </trkpt>
      <trkpt lat="45.0682" lon="6.41037">
        <ele>2491.8</ele>
        <time>2020-08-20 10:07:35</time>
      </trkpt>
      <trkpt lat="45.06819" lon="6.41049">
        <ele>2491.5</ele>
        <time>2020-08-20 10:07:40</time>
      </trkpt>
      <trkpt lat="45.06819" lon="6.41051">
        <ele>2491.4</ele>
        <time>2020-08-20 10:07:41</time>
      </trkpt>
      <trkpt lat="45.0682" lon="6.41054">
        <ele>2490.9</ele>
        <time>2020-08-20 10:07:42</time>
      </trkpt>
      <trkpt lat="45.0682" lon="6.4106">
        <ele>2490.9</ele>
        <time>2020-08-20 10:07:44</time>
      </trkpt>
      <trkpt lat="45.06821" lon="6.41065">
        <ele>2490.8</ele>
        <time>2020-08-20 10:07:46</time>
      </trkpt>
      <trkpt lat="45.0682" lon="6.41075">
        <ele>2491.2</ele>
        <time>2020-08-20 10:07:50</time>
      </trkpt>
      <trkpt lat="45.0682" lon="6.41078">
        <ele>2491.3</ele>
        <time>2020-08-20 10:07:51</time>
      </trkpt>
      <trkpt lat="45.06819" lon="6.4108">
        <ele>2491.5</ele>
        <time>2020-08-20 10:07:52</time>
      </trkpt>
      <trkpt lat="45.06817" lon="6.41085">
        <ele>2492</ele>
        <time>2020-08-20 10:07:54</time>
      </trkpt>
      <trkpt lat="45.06816" lon="6.41087">
        <ele>2492.2</ele>
        <time>2020-08-20 10:07:55</time>
      </trkpt>
      <trkpt lat="45.06812" lon="6.41088">
        <ele>2493</ele>
        <time>2020-08-20 10:07:57</time>
      </trkpt>
      <trkpt lat="45.06808" lon="6.41088">
        <ele>2493.8</ele>
        <time>2020-08-20 10:07:59</time>
      </trkpt>
      <trkpt lat="45.06806" lon="6.41087">
        <ele>2494.2</ele>
        <time>2020-08-20 10:08:00</time>
      </trkpt>
      <trkpt lat="45.06801" lon="6.4108">
        <ele>2496.5</ele>
        <time>2020-08-20 10:08:03</time>
      </trkpt>
      <trkpt lat="45.068" lon="6.41077">
        <ele>2497.1</ele>
        <time>2020-08-20 10:08:04</time>
      </trkpt>
      <trkpt lat="45.06799" lon="6.41071">
        <ele>2497.8</ele>
        <time>2020-08-20 10:08:06</time>
      </trkpt>
      <trkpt lat="45.06799" lon="6.41068">
        <ele>2497.8</ele>
        <time>2020-08-20 10:08:07</time>
      </trkpt>
      <trkpt lat="45.06799" lon="6.41065">
        <ele>2497.9</ele>
        <time>2020-08-20 10:08:08</time>
      </trkpt>
      <trkpt lat="45.06801" lon="6.41058">
        <ele>2497.1</ele>
        <time>2020-08-20 10:08:11</time>
      </trkpt>
      <trkpt lat="45.06803" lon="6.41043">
        <ele>2497</ele>
        <time>2020-08-20 10:08:17</time>
      </trkpt>
      <trkpt lat="45.06804" lon="6.41041">
        <ele>2496.7</ele>
        <time>2020-08-20 10:08:18</time>
      </trkpt>
      <trkpt lat="45.06804" lon="6.41036">
        <ele>2497</ele>
        <time>2020-08-20 10:08:20</time>
      </trkpt>
      <trkpt lat="45.06805" lon="6.41031">
        <ele>2497</ele>
        <time>2020-08-20 10:08:22</time>
      </trkpt>
      <trkpt lat="45.06805" lon="6.41026">
        <ele>2497.4</ele>
        <time>2020-08-20 10:08:24</time>
      </trkpt>
      <trkpt lat="45.06806" lon="6.41011">
        <ele>2498.7</ele>
        <time>2020-08-20 10:08:31</time>
      </trkpt>
      <trkpt lat="45.06807" lon="6.41006">
        <ele>2498.9</ele>
        <time>2020-08-20 10:08:33</time>
      </trkpt>
      <trkpt lat="45.06807" lon="6.41004">
        <ele>2499.1</ele>
        <time>2020-08-20 10:08:34</time>
      </trkpt>
      <trkpt lat="45.06808" lon="6.41002">
        <ele>2499</ele>
        <time>2020-08-20 10:08:35</time>
      </trkpt>
      <trkpt lat="45.06808" lon="6.40995">
        <ele>2499.7</ele>
        <time>2020-08-20 10:08:38</time>
      </trkpt>
      <trkpt lat="45.06808" lon="6.40988">
        <ele>2500.3</ele>
        <time>2020-08-20 10:08:41</time>
      </trkpt>
      <trkpt lat="45.06809" lon="6.40977">
        <ele>2501.2</ele>
        <time>2020-08-20 10:08:46</time>
      </trkpt>
      <trkpt lat="45.0681" lon="6.40967">
        <ele>2501.9</ele>
        <time>2020-08-20 10:08:51</time>
      </trkpt>
      <trkpt lat="45.0681" lon="6.40965">
        <ele>2502.1</ele>
        <time>2020-08-20 10:08:52</time>
      </trkpt>
      <trkpt lat="45.06811" lon="6.40955">
        <ele>2502.8</ele>
        <time>2020-08-20 10:08:56</time>
      </trkpt>
      <trkpt lat="45.06813" lon="6.40949">
        <ele>2503.1</ele>
        <time>2020-08-20 10:08:59</time>
      </trkpt>
      <trkpt lat="45.06817" lon="6.40939">
        <ele>2503.7</ele>
        <time>2020-08-20 10:09:03</time>
      </trkpt>
      <trkpt lat="45.06818" lon="6.40937">
        <ele>2503.9</ele>
        <time>2020-08-20 10:09:04</time>
      </trkpt>
      <trkpt lat="45.06823" lon="6.40933">
        <ele>2504.1</ele>
        <time>2020-08-20 10:09:07</time>
      </trkpt>
      <trkpt lat="45.06829" lon="6.40931">
        <ele>2504.1</ele>
        <time>2020-08-20 10:09:10</time>
      </trkpt>
      <trkpt lat="45.06844" lon="6.4093">
        <ele>2504.1</ele>
        <time>2020-08-20 10:09:18</time>
      </trkpt>
      <trkpt lat="45.06848" lon="6.40928">
        <ele>2504.5</ele>
        <time>2020-08-20 10:09:20</time>
      </trkpt>
      <trkpt lat="45.06857" lon="6.40922">
        <ele>2505.8</ele>
        <time>2020-08-20 10:09:25</time>
      </trkpt>
      <trkpt lat="45.0686" lon="6.40919">
        <ele>2506.5</ele>
        <time>2020-08-20 10:09:27</time>
      </trkpt>
      <trkpt lat="45.06861" lon="6.40917">
        <ele>2506.9</ele>
        <time>2020-08-20 10:09:28</time>
      </trkpt>
      <trkpt lat="45.06864" lon="6.40912">
        <ele>2506.5</ele>
        <time>2020-08-20 10:09:30</time>
      </trkpt>
      <trkpt lat="45.06866" lon="6.40907">
        <ele>2506.2</ele>
        <time>2020-08-20 10:09:32</time>
      </trkpt>
      <trkpt lat="45.0687" lon="6.40897">
        <ele>2505.1</ele>
        <time>2020-08-20 10:09:36</time>
      </trkpt>
      <trkpt lat="45.0687" lon="6.40894">
        <ele>2505.3</ele>
        <time>2020-08-20 10:09:37</time>
      </trkpt>
      <trkpt lat="45.0687" lon="6.40891">
        <ele>2505.4</ele>
        <time>2020-08-20 10:09:38</time>
      </trkpt>
      <trkpt lat="45.06868" lon="6.40881">
        <ele>2505.7</ele>
        <time>2020-08-20 10:09:42</time>
      </trkpt>
      <trkpt lat="45.06867" lon="6.40877">
        <ele>2505.7</ele>
        <time>2020-08-20 10:09:44</time>
      </trkpt>
      <trkpt lat="45.06866" lon="6.40874">
        <ele>2505.9</ele>
        <time>2020-08-20 10:09:45</time>
      </trkpt>
      <trkpt lat="45.06863" lon="6.40869">
        <ele>2506.9</ele>
        <time>2020-08-20 10:09:48</time>
      </trkpt>
      <trkpt lat="45.06859" lon="6.40865">
        <ele>2507.9</ele>
        <time>2020-08-20 10:09:51</time>
      </trkpt>
      <trkpt lat="45.06852" lon="6.40861">
        <ele>2509.3</ele>
        <time>2020-08-20 10:09:55</time>
      </trkpt>
      <trkpt lat="45.06845" lon="6.40859">
        <ele>2510.6</ele>
        <time>2020-08-20 10:09:59</time>
      </trkpt>
      <trkpt lat="45.06844" lon="6.40859">
        <ele>2510.9</ele>
        <time>2020-08-20 10:10:00</time>
      </trkpt>
      <trkpt lat="45.06841" lon="6.40859">
        <ele>2511.7</ele>
        <time>2020-08-20 10:10:02</time>
      </trkpt>
      <trkpt lat="45.06838" lon="6.4086">
        <ele>2512.7</ele>
        <time>2020-08-20 10:10:04</time>
      </trkpt>
      <trkpt lat="45.06837" lon="6.4086">
        <ele>2512.9</ele>
        <time>2020-08-20 10:10:05</time>
      </trkpt>
      <trkpt lat="45.06823" lon="6.40865">
        <ele>2514.7</ele>
        <time>2020-08-20 10:10:13</time>
      </trkpt>
      <trkpt lat="45.0682" lon="6.40866">
        <ele>2515</ele>
        <time>2020-08-20 10:10:15</time>
      </trkpt>
      <trkpt lat="45.06813" lon="6.40868">
        <ele>2515.5</ele>
        <time>2020-08-20 10:10:19</time>
      </trkpt>
      <trkpt lat="45.0681" lon="6.40871">
        <ele>2515.3</ele>
        <time>2020-08-20 10:10:21</time>
      </trkpt>
      <trkpt lat="45.06805" lon="6.40873">
        <ele>2515.6</ele>
        <time>2020-08-20 10:10:24</time>
      </trkpt>
      <trkpt lat="45.068" lon="6.40874">
        <ele>2516.8</ele>
        <time>2020-08-20 10:10:27</time>
      </trkpt>
      <trkpt lat="45.06795" lon="6.40876">
        <ele>2517.8</ele>
        <time>2020-08-20 10:10:31</time>
      </trkpt>
      <trkpt lat="45.06792" lon="6.40877">
        <ele>2518.4</ele>
        <time>2020-08-20 10:10:33</time>
      </trkpt>
      <trkpt lat="45.06789" lon="6.40878">
        <ele>2519</ele>
        <time>2020-08-20 10:10:35</time>
      </trkpt>
      <trkpt lat="45.06787" lon="6.40879">
        <ele>2519.3</ele>
        <time>2020-08-20 10:10:36</time>
      </trkpt>
      <trkpt lat="45.06783" lon="6.40879">
        <ele>2520.4</ele>
        <time>2020-08-20 10:10:38</time>
      </trkpt>
      <trkpt lat="45.06775" lon="6.40884">
        <ele>2521.3</ele>
        <time>2020-08-20 10:10:44</time>
      </trkpt>
      <trkpt lat="45.06774" lon="6.40885">
        <ele>2521.3</ele>
        <time>2020-08-20 10:10:45</time>
      </trkpt>
      <trkpt lat="45.06772" lon="6.40885">
        <ele>2521.9</ele>
        <time>2020-08-20 10:10:46</time>
      </trkpt>
      <trkpt lat="45.06764" lon="6.40889">
        <ele>2522.9</ele>
        <time>2020-08-20 10:10:52</time>
      </trkpt>
      <trkpt lat="45.06763" lon="6.4089">
        <ele>2523.1</ele>
        <time>2020-08-20 10:10:53</time>
      </trkpt>
      <trkpt lat="45.06754" lon="6.40902">
        <ele>2524.2</ele>
        <time>2020-08-20 10:11:00</time>
      </trkpt>
      <trkpt lat="45.06752" lon="6.40908">
        <ele>2524.2</ele>
        <time>2020-08-20 10:11:03</time>
      </trkpt>
      <trkpt lat="45.06749" lon="6.40917">
        <ele>2524.6</ele>
        <time>2020-08-20 10:11:07</time>
      </trkpt>
      <trkpt lat="45.06749" lon="6.40919">
        <ele>2524.5</ele>
        <time>2020-08-20 10:11:08</time>
      </trkpt>
      <trkpt lat="45.06749" lon="6.40924">
        <ele>2524.3</ele>
        <time>2020-08-20 10:11:10</time>
      </trkpt>
      <trkpt lat="45.06749" lon="6.40927">
        <ele>2524.2</ele>
        <time>2020-08-20 10:11:11</time>
      </trkpt>
      <trkpt lat="45.06749" lon="6.40931">
        <ele>2524</ele>
        <time>2020-08-20 10:11:13</time>
      </trkpt>
      <trkpt lat="45.06748" lon="6.40933">
        <ele>2524.5</ele>
        <time>2020-08-20 10:11:14</time>
      </trkpt>
      <trkpt lat="45.06741" lon="6.4095">
        <ele>2527.5</ele>
        <time>2020-08-20 10:11:23</time>
      </trkpt>
      <trkpt lat="45.06737" lon="6.40969">
        <ele>2529.1</ele>
        <time>2020-08-20 10:11:32</time>
      </trkpt>
      <trkpt lat="45.06734" lon="6.40995">
        <ele>2530.5</ele>
        <time>2020-08-20 10:11:44</time>
      </trkpt>
      <trkpt lat="45.06734" lon="6.40997">
        <ele>2530.5</ele>
        <time>2020-08-20 10:11:45</time>
      </trkpt>
      <trkpt lat="45.06732" lon="6.41011">
        <ele>2530.3</ele>
        <time>2020-08-20 10:11:51</time>
      </trkpt>
      <trkpt lat="45.06731" lon="6.41013">
        <ele>2530.5</ele>
        <time>2020-08-20 10:11:52</time>
      </trkpt>
      <trkpt lat="45.06731" lon="6.41027">
        <ele>2528.9</ele>
        <time>2020-08-20 10:11:57</time>
      </trkpt>
      <trkpt lat="45.06731" lon="6.4104">
        <ele>2529.9</ele>
        <time>2020-08-20 10:12:03</time>
      </trkpt>
      <trkpt lat="45.06732" lon="6.41055">
        <ele>2530.8</ele>
        <time>2020-08-20 10:12:09</time>
      </trkpt>
      <trkpt lat="45.06731" lon="6.4106">
        <ele>2531.3</ele>
        <time>2020-08-20 10:12:11</time>
      </trkpt>
      <trkpt lat="45.06731" lon="6.41065">
        <ele>2531.4</ele>
        <time>2020-08-20 10:12:13</time>
      </trkpt>
      <trkpt lat="45.06728" lon="6.41072">
        <ele>2532.6</ele>
        <time>2020-08-20 10:12:16</time>
      </trkpt>
      <trkpt lat="45.06726" lon="6.41074">
        <ele>2533.3</ele>
        <time>2020-08-20 10:12:17</time>
      </trkpt>
      <trkpt lat="45.06724" lon="6.41075">
        <ele>2534.1</ele>
        <time>2020-08-20 10:12:18</time>
      </trkpt>
      <trkpt lat="45.06723" lon="6.41076">
        <ele>2534.5</ele>
        <time>2020-08-20 10:12:19</time>
      </trkpt>
      <trkpt lat="45.0672" lon="6.41076">
        <ele>2535.7</ele>
        <time>2020-08-20 10:12:20</time>
      </trkpt>
      <trkpt lat="45.06718" lon="6.41075">
        <ele>2536.5</ele>
        <time>2020-08-20 10:12:21</time>
      </trkpt>
      <trkpt lat="45.06716" lon="6.41074">
        <ele>2537.3</ele>
        <time>2020-08-20 10:12:22</time>
      </trkpt>
      <trkpt lat="45.06713" lon="6.41071">
        <ele>2538.3</ele>
        <time>2020-08-20 10:12:24</time>
      </trkpt>
      <trkpt lat="45.06711" lon="6.41069">
        <ele>2538.9</ele>
        <time>2020-08-20 10:12:25</time>
      </trkpt>
      <trkpt lat="45.06709" lon="6.41063">
        <ele>2539.1</ele>
        <time>2020-08-20 10:12:27</time>
      </trkpt>
      <trkpt lat="45.06707" lon="6.41051">
        <ele>2538.6</ele>
        <time>2020-08-20 10:12:31</time>
      </trkpt>
      <trkpt lat="45.06707" lon="6.41049">
        <ele>2538.5</ele>
        <time>2020-08-20 10:12:32</time>
      </trkpt>
      <trkpt lat="45.06706" lon="6.41029">
        <ele>2537.3</ele>
        <time>2020-08-20 10:12:39</time>
      </trkpt>
      <trkpt lat="45.06706" lon="6.41026">
        <ele>2537.4</ele>
        <time>2020-08-20 10:12:40</time>
      </trkpt>
      <trkpt lat="45.06705" lon="6.41024">
        <ele>2537.8</ele>
        <time>2020-08-20 10:12:41</time>
      </trkpt>
      <trkpt lat="45.06705" lon="6.41019">
        <ele>2538.1</ele>
        <time>2020-08-20 10:12:43</time>
      </trkpt>
      <trkpt lat="45.06704" lon="6.41012">
        <ele>2538.7</ele>
        <time>2020-08-20 10:12:46</time>
      </trkpt>
      <trkpt lat="45.06702" lon="6.41001">
        <ele>2539.6</ele>
        <time>2020-08-20 10:12:51</time>
      </trkpt>
      <trkpt lat="45.06697" lon="6.40968">
        <ele>2541.6</ele>
        <time>2020-08-20 10:13:05</time>
      </trkpt>
      <trkpt lat="45.06696" lon="6.40961">
        <ele>2542.1</ele>
        <time>2020-08-20 10:13:08</time>
      </trkpt>
      <trkpt lat="45.06696" lon="6.40957">
        <ele>2542.2</ele>
        <time>2020-08-20 10:13:10</time>
      </trkpt>
      <trkpt lat="45.06696" lon="6.40952">
        <ele>2542.4</ele>
        <time>2020-08-20 10:13:12</time>
      </trkpt>
      <trkpt lat="45.06696" lon="6.40947">
        <ele>2542.6</ele>
        <time>2020-08-20 10:13:14</time>
      </trkpt>
      <trkpt lat="45.06696" lon="6.40942">
        <ele>2542.8</ele>
        <time>2020-08-20 10:13:16</time>
      </trkpt>
      <trkpt lat="45.06696" lon="6.40938">
        <ele>2543.1</ele>
        <time>2020-08-20 10:13:18</time>
      </trkpt>
      <trkpt lat="45.06696" lon="6.40936">
        <ele>2543.3</ele>
        <time>2020-08-20 10:13:19</time>
      </trkpt>
      <trkpt lat="45.06695" lon="6.40929">
        <ele>2544</ele>
        <time>2020-08-20 10:13:22</time>
      </trkpt>
      <trkpt lat="45.06695" lon="6.40921">
        <ele>2544.6</ele>
        <time>2020-08-20 10:13:26</time>
      </trkpt>
      <trkpt lat="45.06695" lon="6.40919">
        <ele>2544.7</ele>
        <time>2020-08-20 10:13:27</time>
      </trkpt>
      <trkpt lat="45.06694" lon="6.40915">
        <ele>2545.2</ele>
        <time>2020-08-20 10:13:29</time>
      </trkpt>
      <trkpt lat="45.06692" lon="6.40912">
        <ele>2545.7</ele>
        <time>2020-08-20 10:13:31</time>
      </trkpt>
      <trkpt lat="45.06689" lon="6.40909">
        <ele>2546.2</ele>
        <time>2020-08-20 10:13:33</time>
      </trkpt>
      <trkpt lat="45.06685" lon="6.40908">
        <ele>2546.5</ele>
        <time>2020-08-20 10:13:35</time>
      </trkpt>
      <trkpt lat="45.06683" lon="6.40908">
        <ele>2546.6</ele>
        <time>2020-08-20 10:13:36</time>
      </trkpt>
      <trkpt lat="45.06678" lon="6.40908">
        <ele>2546.9</ele>
        <time>2020-08-20 10:13:39</time>
      </trkpt>
      <trkpt lat="45.06676" lon="6.40908">
        <ele>2547.1</ele>
        <time>2020-08-20 10:13:40</time>
      </trkpt>
      <trkpt lat="45.06674" lon="6.4091">
        <ele>2547</ele>
        <time>2020-08-20 10:13:41</time>
      </trkpt>
      <trkpt lat="45.06671" lon="6.40913">
        <ele>2547</ele>
        <time>2020-08-20 10:13:43</time>
      </trkpt>
      <trkpt lat="45.06669" lon="6.40917">
        <ele>2546.8</ele>
        <time>2020-08-20 10:13:45</time>
      </trkpt>
      <trkpt lat="45.06666" lon="6.4092">
        <ele>2547.2</ele>
        <time>2020-08-20 10:13:47</time>
      </trkpt>
      <trkpt lat="45.06664" lon="6.40924">
        <ele>2547.7</ele>
        <time>2020-08-20 10:13:49</time>
      </trkpt>
      <trkpt lat="45.06662" lon="6.40927">
        <ele>2548.1</ele>
        <time>2020-08-20 10:13:51</time>
      </trkpt>
      <trkpt lat="45.06657" lon="6.40938">
        <ele>2549.2</ele>
        <time>2020-08-20 10:13:57</time>
      </trkpt>
      <trkpt lat="45.06655" lon="6.40941">
        <ele>2549.6</ele>
        <time>2020-08-20 10:13:59</time>
      </trkpt>
      <trkpt lat="45.06652" lon="6.40946">
        <ele>2550.3</ele>
        <time>2020-08-20 10:14:02</time>
      </trkpt>
      <trkpt lat="45.06647" lon="6.40951">
        <ele>2551.8</ele>
        <time>2020-08-20 10:14:06</time>
      </trkpt>
      <trkpt lat="45.06644" lon="6.40953">
        <ele>2552.6</ele>
        <time>2020-08-20 10:14:08</time>
      </trkpt>
      <trkpt lat="45.06642" lon="6.40953">
        <ele>2553</ele>
        <time>2020-08-20 10:14:09</time>
      </trkpt>
      <trkpt lat="45.06639" lon="6.40951">
        <ele>2553.2</ele>
        <time>2020-08-20 10:14:11</time>
      </trkpt>
      <trkpt lat="45.06638" lon="6.4095">
        <ele>2553.2</ele>
        <time>2020-08-20 10:14:12</time>
      </trkpt>
      <trkpt lat="45.06635" lon="6.40948">
        <ele>2553.5</ele>
        <time>2020-08-20 10:14:14</time>
      </trkpt>
      <trkpt lat="45.06632" lon="6.40946">
        <ele>2553.8</ele>
        <time>2020-08-20 10:14:16</time>
      </trkpt>
      <trkpt lat="45.06628" lon="6.40942">
        <ele>2554.3</ele>
        <time>2020-08-20 10:14:19</time>
      </trkpt>
      <trkpt lat="45.06621" lon="6.40929">
        <ele>2555.5</ele>
        <time>2020-08-20 10:14:26</time>
      </trkpt>
      <trkpt lat="45.06617" lon="6.40912">
        <ele>2555.9</ele>
        <time>2020-08-20 10:14:34</time>
      </trkpt>
      <trkpt lat="45.06616" lon="6.40908">
        <ele>2556.1</ele>
        <time>2020-08-20 10:14:36</time>
      </trkpt>
      <trkpt lat="45.06616" lon="6.40906">
        <ele>2556.1</ele>
        <time>2020-08-20 10:14:37</time>
      </trkpt>
      <trkpt lat="45.06615" lon="6.40904">
        <ele>2556.3</ele>
        <time>2020-08-20 10:14:38</time>
      </trkpt>
      <trkpt lat="45.06611" lon="6.40899">
        <ele>2557</ele>
        <time>2020-08-20 10:14:41</time>
      </trkpt>
      <trkpt lat="45.06609" lon="6.40899">
        <ele>2557.6</ele>
        <time>2020-08-20 10:14:42</time>
      </trkpt>
      <trkpt lat="45.06607" lon="6.40898">
        <ele>2558.2</ele>
        <time>2020-08-20 10:14:43</time>
      </trkpt>
      <trkpt lat="45.06604" lon="6.40899">
        <ele>2559</ele>
        <time>2020-08-20 10:14:45</time>
      </trkpt>
      <trkpt lat="45.06602" lon="6.409">
        <ele>2559.6</ele>
        <time>2020-08-20 10:14:46</time>
      </trkpt>
      <trkpt lat="45.066" lon="6.40901">
        <ele>2560.1</ele>
        <time>2020-08-20 10:14:47</time>
      </trkpt>
      <trkpt lat="45.06599" lon="6.40902">
        <ele>2560.3</ele>
        <time>2020-08-20 10:14:48</time>
      </trkpt>
      <trkpt lat="45.06596" lon="6.40906">
        <ele>2560.9</ele>
        <time>2020-08-20 10:14:50</time>
      </trkpt>
      <trkpt lat="45.06596" lon="6.40908">
        <ele>2560.8</ele>
        <time>2020-08-20 10:14:51</time>
      </trkpt>
      <trkpt lat="45.06593" lon="6.40919">
        <ele>2561.2</ele>
        <time>2020-08-20 10:14:55</time>
      </trkpt>
      <trkpt lat="45.06593" lon="6.40924">
        <ele>2561.7</ele>
        <time>2020-08-20 10:14:57</time>
      </trkpt>
      <trkpt lat="45.06595" lon="6.40941">
        <ele>2562.9</ele>
        <time>2020-08-20 10:15:04</time>
      </trkpt>
      <trkpt lat="45.06598" lon="6.40952">
        <ele>2563.7</ele>
        <time>2020-08-20 10:15:09</time>
      </trkpt>
      <trkpt lat="45.06602" lon="6.40963">
        <ele>2564.5</ele>
        <time>2020-08-20 10:15:15</time>
      </trkpt>
      <trkpt lat="45.06616" lon="6.40987">
        <ele>2564.5</ele>
        <time>2020-08-20 10:15:30</time>
      </trkpt>
      <trkpt lat="45.06623" lon="6.41006">
        <ele>2566.1</ele>
        <time>2020-08-20 10:15:39</time>
      </trkpt>
      <trkpt lat="45.06625" lon="6.4101">
        <ele>2566.3</ele>
        <time>2020-08-20 10:15:41</time>
      </trkpt>
      <trkpt lat="45.06626" lon="6.41014">
        <ele>2566.8</ele>
        <time>2020-08-20 10:15:43</time>
      </trkpt>
      <trkpt lat="45.06629" lon="6.41021">
        <ele>2567.3</ele>
        <time>2020-08-20 10:15:46</time>
      </trkpt>
      <trkpt lat="45.06629" lon="6.41023">
        <ele>2567.6</ele>
        <time>2020-08-20 10:15:47</time>
      </trkpt>
      <trkpt lat="45.0663" lon="6.41025">
        <ele>2567.7</ele>
        <time>2020-08-20 10:15:48</time>
      </trkpt>
      <trkpt lat="45.06632" lon="6.4103">
        <ele>2568.2</ele>
        <time>2020-08-20 10:15:50</time>
      </trkpt>
      <trkpt lat="45.06636" lon="6.41046">
        <ele>2570.1</ele>
        <time>2020-08-20 10:15:57</time>
      </trkpt>
      <trkpt lat="45.06639" lon="6.41061">
        <ele>2571.7</ele>
        <time>2020-08-20 10:16:04</time>
      </trkpt>
      <trkpt lat="45.0664" lon="6.41065">
        <ele>2571.9</ele>
        <time>2020-08-20 10:16:06</time>
      </trkpt>
      <trkpt lat="45.06647" lon="6.41083">
        <ele>2572</ele>
        <time>2020-08-20 10:16:16</time>
      </trkpt>
      <trkpt lat="45.06651" lon="6.41089">
        <ele>2573.7</ele>
        <time>2020-08-20 10:16:20</time>
      </trkpt>
      <trkpt lat="45.06652" lon="6.41091">
        <ele>2574.3</ele>
        <time>2020-08-20 10:16:21</time>
      </trkpt>
      <trkpt lat="45.06657" lon="6.411">
        <ele>2576.7</ele>
        <time>2020-08-20 10:16:27</time>
      </trkpt>
      <trkpt lat="45.06659" lon="6.41104">
        <ele>2577.7</ele>
        <time>2020-08-20 10:16:29</time>
      </trkpt>
      <trkpt lat="45.06666" lon="6.41116">
        <ele>2578.2</ele>
        <time>2020-08-20 10:16:37</time>
      </trkpt>
      <trkpt lat="45.06667" lon="6.4112">
        <ele>2578.4</ele>
        <time>2020-08-20 10:16:39</time>
      </trkpt>
      <trkpt lat="45.06671" lon="6.41126">
        <ele>2577.6</ele>
        <time>2020-08-20 10:16:42</time>
      </trkpt>
      <trkpt lat="45.06673" lon="6.41132">
        <ele>2578.3</ele>
        <time>2020-08-20 10:16:45</time>
      </trkpt>
      <trkpt lat="45.06674" lon="6.41142">
        <ele>2579.7</ele>
        <time>2020-08-20 10:16:49</time>
      </trkpt>
      <trkpt lat="45.06673" lon="6.41144">
        <ele>2579.8</ele>
        <time>2020-08-20 10:16:50</time>
      </trkpt>
      <trkpt lat="45.06668" lon="6.4116">
        <ele>2580.7</ele>
        <time>2020-08-20 10:16:58</time>
      </trkpt>
      <trkpt lat="45.06667" lon="6.41162">
        <ele>2581</ele>
        <time>2020-08-20 10:16:59</time>
      </trkpt>
      <trkpt lat="45.06664" lon="6.41165">
        <ele>2582.2</ele>
        <time>2020-08-20 10:17:02</time>
      </trkpt>
      <trkpt lat="45.06663" lon="6.41166">
        <ele>2582.6</ele>
        <time>2020-08-20 10:17:03</time>
      </trkpt>
      <trkpt lat="45.06659" lon="6.41174">
        <ele>2583</ele>
        <time>2020-08-20 10:17:09</time>
      </trkpt>
      <trkpt lat="45.06657" lon="6.41176">
        <ele>2583.6</ele>
        <time>2020-08-20 10:17:11</time>
      </trkpt>
      <trkpt lat="45.06655" lon="6.4118">
        <ele>2584</ele>
        <time>2020-08-20 10:17:13</time>
      </trkpt>
      <trkpt lat="45.06655" lon="6.41182">
        <ele>2583.7</ele>
        <time>2020-08-20 10:17:14</time>
      </trkpt>
      <trkpt lat="45.06653" lon="6.41189">
        <ele>2583.7</ele>
        <time>2020-08-20 10:17:18</time>
      </trkpt>
      <trkpt lat="45.0665" lon="6.41196">
        <ele>2584.4</ele>
        <time>2020-08-20 10:17:22</time>
      </trkpt>
      <trkpt lat="45.06648" lon="6.412">
        <ele>2585.2</ele>
        <time>2020-08-20 10:17:24</time>
      </trkpt>
      <trkpt lat="45.06643" lon="6.41212">
        <ele>2586.7</ele>
        <time>2020-08-20 10:17:31</time>
      </trkpt>
      <trkpt lat="45.0664" lon="6.4122">
        <ele>2587.6</ele>
        <time>2020-08-20 10:17:35</time>
      </trkpt>
      <trkpt lat="45.06635" lon="6.41232">
        <ele>2589.4</ele>
        <time>2020-08-20 10:17:41</time>
      </trkpt>
      <trkpt lat="45.06634" lon="6.41235">
        <ele>2589.7</ele>
        <time>2020-08-20 10:17:43</time>
      </trkpt>
      <trkpt lat="45.06633" lon="6.41236">
        <ele>2590.1</ele>
        <time>2020-08-20 10:17:44</time>
      </trkpt>
      <trkpt lat="45.06633" lon="6.41238">
        <ele>2589.9</ele>
        <time>2020-08-20 10:17:45</time>
      </trkpt>
      <trkpt lat="45.06629" lon="6.41246">
        <ele>2591.1</ele>
        <time>2020-08-20 10:17:49</time>
      </trkpt>
      <trkpt lat="45.06627" lon="6.41249">
        <ele>2591.7</ele>
        <time>2020-08-20 10:17:51</time>
      </trkpt>
      <trkpt lat="45.06618" lon="6.41268">
        <ele>2592.9</ele>
        <time>2020-08-20 10:18:01</time>
      </trkpt>
      <trkpt lat="45.06617" lon="6.4127">
        <ele>2593.1</ele>
        <time>2020-08-20 10:18:02</time>
      </trkpt>
      <trkpt lat="45.06611" lon="6.41282">
        <ele>2594.4</ele>
        <time>2020-08-20 10:18:10</time>
      </trkpt>
      <trkpt lat="45.0661" lon="6.41285">
        <ele>2594.4</ele>
        <time>2020-08-20 10:18:12</time>
      </trkpt>
      <trkpt lat="45.06604" lon="6.41298">
        <ele>2594.4</ele>
        <time>2020-08-20 10:18:19</time>
      </trkpt>
      <trkpt lat="45.06602" lon="6.41301">
        <ele>2594.5</ele>
        <time>2020-08-20 10:18:21</time>
      </trkpt>
      <trkpt lat="45.066" lon="6.41303">
        <ele>2594.7</ele>
        <time>2020-08-20 10:18:23</time>
      </trkpt>
      <trkpt lat="45.06597" lon="6.41302">
        <ele>2595.8</ele>
        <time>2020-08-20 10:18:25</time>
      </trkpt>
      <trkpt lat="45.06595" lon="6.41299">
        <ele>2597.1</ele>
        <time>2020-08-20 10:18:27</time>
      </trkpt>
      <trkpt lat="45.06594" lon="6.41295">
        <ele>2598.4</ele>
        <time>2020-08-20 10:18:29</time>
      </trkpt>
      <trkpt lat="45.06596" lon="6.41291">
        <ele>2598.6</ele>
        <time>2020-08-20 10:18:31</time>
      </trkpt>
      <trkpt lat="45.06598" lon="6.41285">
        <ele>2599.1</ele>
        <time>2020-08-20 10:18:34</time>
      </trkpt>
      <trkpt lat="45.06601" lon="6.4128">
        <ele>2598.9</ele>
        <time>2020-08-20 10:18:37</time>
      </trkpt>
      <trkpt lat="45.06603" lon="6.41277">
        <ele>2598.7</ele>
        <time>2020-08-20 10:18:39</time>
      </trkpt>
      <trkpt lat="45.06604" lon="6.41275">
        <ele>2598.6</ele>
        <time>2020-08-20 10:18:40</time>
      </trkpt>
      <trkpt lat="45.06606" lon="6.41271">
        <ele>2598.4</ele>
        <time>2020-08-20 10:18:42</time>
      </trkpt>
      <trkpt lat="45.06607" lon="6.41267">
        <ele>2598.6</ele>
        <time>2020-08-20 10:18:44</time>
      </trkpt>
      <trkpt lat="45.06608" lon="6.41265">
        <ele>2598.4</ele>
        <time>2020-08-20 10:18:45</time>
      </trkpt>
      <trkpt lat="45.0661" lon="6.41259">
        <ele>2598.3</ele>
        <time>2020-08-20 10:18:48</time>
      </trkpt>
      <trkpt lat="45.0661" lon="6.41257">
        <ele>2598.6</ele>
        <time>2020-08-20 10:18:49</time>
      </trkpt>
      <trkpt lat="45.06613" lon="6.41236">
        <ele>2600.5</ele>
        <time>2020-08-20 10:18:58</time>
      </trkpt>
      <trkpt lat="45.06615" lon="6.41223">
        <ele>2601.6</ele>
        <time>2020-08-20 10:19:04</time>
      </trkpt>
      <trkpt lat="45.06615" lon="6.41221">
        <ele>2601.9</ele>
        <time>2020-08-20 10:19:05</time>
      </trkpt>
      <trkpt lat="45.06616" lon="6.41211">
        <ele>2602.4</ele>
        <time>2020-08-20 10:19:09</time>
      </trkpt>
      <trkpt lat="45.06616" lon="6.41208">
        <ele>2602.7</ele>
        <time>2020-08-20 10:19:10</time>
      </trkpt>
      <trkpt lat="45.06617" lon="6.41204">
        <ele>2602.6</ele>
        <time>2020-08-20 10:19:12</time>
      </trkpt>
      <trkpt lat="45.06618" lon="6.41197">
        <ele>2602.8</ele>
        <time>2020-08-20 10:19:15</time>
      </trkpt>
      <trkpt lat="45.06618" lon="6.41194">
        <ele>2603.1</ele>
        <time>2020-08-20 10:19:16</time>
      </trkpt>
      <trkpt lat="45.06618" lon="6.41192">
        <ele>2603.1</ele>
        <time>2020-08-20 10:19:17</time>
      </trkpt>
      <trkpt lat="45.06618" lon="6.41189">
        <ele>2603.3</ele>
        <time>2020-08-20 10:19:18</time>
      </trkpt>
      <trkpt lat="45.06617" lon="6.4118">
        <ele>2604.2</ele>
        <time>2020-08-20 10:19:22</time>
      </trkpt>
      <trkpt lat="45.06617" lon="6.41178">
        <ele>2604.3</ele>
        <time>2020-08-20 10:19:23</time>
      </trkpt>
      <trkpt lat="45.06617" lon="6.41176">
        <ele>2604.4</ele>
        <time>2020-08-20 10:19:24</time>
      </trkpt>
      <trkpt lat="45.06621" lon="6.41158">
        <ele>2603.7</ele>
        <time>2020-08-20 10:19:33</time>
      </trkpt>
      <trkpt lat="45.06622" lon="6.41153">
        <ele>2603.9</ele>
        <time>2020-08-20 10:19:35</time>
      </trkpt>
      <trkpt lat="45.06622" lon="6.41148">
        <ele>2604.5</ele>
        <time>2020-08-20 10:19:37</time>
      </trkpt>
      <trkpt lat="45.06622" lon="6.41137">
        <ele>2605.2</ele>
        <time>2020-08-20 10:19:42</time>
      </trkpt>
      <trkpt lat="45.06621" lon="6.41132">
        <ele>2604.2</ele>
        <time>2020-08-20 10:19:44</time>
      </trkpt>
      <trkpt lat="45.0662" lon="6.4113">
        <ele>2604</ele>
        <time>2020-08-20 10:19:45</time>
      </trkpt>
      <trkpt lat="45.06618" lon="6.41128">
        <ele>2604.2</ele>
        <time>2020-08-20 10:19:46</time>
      </trkpt>
      <trkpt lat="45.06615" lon="6.41125">
        <ele>2604.5</ele>
        <time>2020-08-20 10:19:48</time>
      </trkpt>
      <trkpt lat="45.06611" lon="6.41123">
        <ele>2605.5</ele>
        <time>2020-08-20 10:19:50</time>
      </trkpt>
      <trkpt lat="45.06609" lon="6.41122">
        <ele>2606.2</ele>
        <time>2020-08-20 10:19:51</time>
      </trkpt>
      <trkpt lat="45.06606" lon="6.4112">
        <ele>2607.1</ele>
        <time>2020-08-20 10:19:53</time>
      </trkpt>
      <trkpt lat="45.06603" lon="6.41118">
        <ele>2607.8</ele>
        <time>2020-08-20 10:19:55</time>
      </trkpt>
      <trkpt lat="45.06597" lon="6.41116">
        <ele>2609.7</ele>
        <time>2020-08-20 10:19:58</time>
      </trkpt>
      <trkpt lat="45.06595" lon="6.41115">
        <ele>2610.1</ele>
        <time>2020-08-20 10:19:59</time>
      </trkpt>
      <trkpt lat="45.06591" lon="6.41114">
        <ele>2611.4</ele>
        <time>2020-08-20 10:20:01</time>
      </trkpt>
      <trkpt lat="45.06589" lon="6.41113">
        <ele>2611.7</ele>
        <time>2020-08-20 10:20:02</time>
      </trkpt>
      <trkpt lat="45.06587" lon="6.41112">
        <ele>2612</ele>
        <time>2020-08-20 10:20:03</time>
      </trkpt>
      <trkpt lat="45.0658" lon="6.41108">
        <ele>2612.7</ele>
        <time>2020-08-20 10:20:07</time>
      </trkpt>
      <trkpt lat="45.06571" lon="6.41101">
        <ele>2612.7</ele>
        <time>2020-08-20 10:20:12</time>
      </trkpt>
      <trkpt lat="45.06565" lon="6.41099">
        <ele>2613.9</ele>
        <time>2020-08-20 10:20:15</time>
      </trkpt>
      <trkpt lat="45.06554" lon="6.41092">
        <ele>2615</ele>
        <time>2020-08-20 10:20:21</time>
      </trkpt>
      <trkpt lat="45.0655" lon="6.41087">
        <ele>2615</ele>
        <time>2020-08-20 10:20:24</time>
      </trkpt>
      <trkpt lat="45.06548" lon="6.41086">
        <ele>2615.8</ele>
        <time>2020-08-20 10:20:25</time>
      </trkpt>
      <trkpt lat="45.06547" lon="6.41084">
        <ele>2615.5</ele>
        <time>2020-08-20 10:20:26</time>
      </trkpt>
      <trkpt lat="45.06546" lon="6.41082">
        <ele>2615.6</ele>
        <time>2020-08-20 10:20:27</time>
      </trkpt>
      <trkpt lat="45.06538" lon="6.41067">
        <ele>2617.4</ele>
        <time>2020-08-20 10:20:34</time>
      </trkpt>
      <trkpt lat="45.06534" lon="6.41059">
        <ele>2618.1</ele>
        <time>2020-08-20 10:20:38</time>
      </trkpt>
      <trkpt lat="45.06534" lon="6.41057">
        <ele>2617.7</ele>
        <time>2020-08-20 10:20:39</time>
      </trkpt>
      <trkpt lat="45.06531" lon="6.41051">
        <ele>2618.3</ele>
        <time>2020-08-20 10:20:43</time>
      </trkpt>
      <trkpt lat="45.06529" lon="6.41047">
        <ele>2618.8</ele>
        <time>2020-08-20 10:20:45</time>
      </trkpt>
      <trkpt lat="45.06525" lon="6.41036">
        <ele>2619.3</ele>
        <time>2020-08-20 10:20:51</time>
      </trkpt>
      <trkpt lat="45.06523" lon="6.41033">
        <ele>2620</ele>
        <time>2020-08-20 10:20:53</time>
      </trkpt>
      <trkpt lat="45.0651" lon="6.41009">
        <ele>2621.3</ele>
        <time>2020-08-20 10:21:09</time>
      </trkpt>
      <trkpt lat="45.06508" lon="6.41002">
        <ele>2620.3</ele>
        <time>2020-08-20 10:21:12</time>
      </trkpt>
      <trkpt lat="45.06503" lon="6.40991">
        <ele>2621.6</ele>
        <time>2020-08-20 10:21:18</time>
      </trkpt>
      <trkpt lat="45.065" lon="6.40984">
        <ele>2622.8</ele>
        <time>2020-08-20 10:21:22</time>
      </trkpt>
      <trkpt lat="45.06499" lon="6.4098">
        <ele>2623.1</ele>
        <time>2020-08-20 10:21:24</time>
      </trkpt>
      <trkpt lat="45.0649" lon="6.40965">
        <ele>2624.5</ele>
        <time>2020-08-20 10:21:33</time>
      </trkpt>
      <trkpt lat="45.06488" lon="6.40962">
        <ele>2624.6</ele>
        <time>2020-08-20 10:21:35</time>
      </trkpt>
      <trkpt lat="45.06484" lon="6.40954">
        <ele>2624.3</ele>
        <time>2020-08-20 10:21:39</time>
      </trkpt>
      <trkpt lat="45.06473" lon="6.40944">
        <ele>2627.4</ele>
        <time>2020-08-20 10:21:47</time>
      </trkpt>
      <trkpt lat="45.06471" lon="6.40942">
        <ele>2627.7</ele>
        <time>2020-08-20 10:21:49</time>
      </trkpt>
      <trkpt lat="45.06468" lon="6.4094">
        <ele>2628.3</ele>
        <time>2020-08-20 10:21:51</time>
      </trkpt>
      <trkpt lat="45.06466" lon="6.40939">
        <ele>2628.8</ele>
        <time>2020-08-20 10:21:52</time>
      </trkpt>
      <trkpt lat="45.06465" lon="6.40938">
        <ele>2628.9</ele>
        <time>2020-08-20 10:21:53</time>
      </trkpt>
      <trkpt lat="45.06464" lon="6.40937">
        <ele>2629</ele>
        <time>2020-08-20 10:21:54</time>
      </trkpt>
      <trkpt lat="45.06461" lon="6.40934">
        <ele>2629.4</ele>
        <time>2020-08-20 10:21:56</time>
      </trkpt>
      <trkpt lat="45.06457" lon="6.40928">
        <ele>2629.3</ele>
        <time>2020-08-20 10:22:00</time>
      </trkpt>
      <trkpt lat="45.06453" lon="6.40921">
        <ele>2629</ele>
        <time>2020-08-20 10:22:04</time>
      </trkpt>
      <trkpt lat="45.06452" lon="6.4092">
        <ele>2629.2</ele>
        <time>2020-08-20 10:22:05</time>
      </trkpt>
      <trkpt lat="45.06449" lon="6.40912">
        <ele>2629.1</ele>
        <time>2020-08-20 10:22:09</time>
      </trkpt>
      <trkpt lat="45.06448" lon="6.40907">
        <ele>2629</ele>
        <time>2020-08-20 10:22:11</time>
      </trkpt>
      <trkpt lat="45.0644" lon="6.40889">
        <ele>2632.1</ele>
        <time>2020-08-20 10:22:19</time>
      </trkpt>
      <trkpt lat="45.06432" lon="6.4087">
        <ele>2634.2</ele>
        <time>2020-08-20 10:22:28</time>
      </trkpt>
      <trkpt lat="45.06431" lon="6.40867">
        <ele>2634.3</ele>
        <time>2020-08-20 10:22:29</time>
      </trkpt>
      <trkpt lat="45.06427" lon="6.40854">
        <ele>2635</ele>
        <time>2020-08-20 10:22:35</time>
      </trkpt>
      <trkpt lat="45.06425" lon="6.4085">
        <ele>2635.8</ele>
        <time>2020-08-20 10:22:37</time>
      </trkpt>
      <trkpt lat="45.06422" lon="6.40841">
        <ele>2636.7</ele>
        <time>2020-08-20 10:22:41</time>
      </trkpt>
      <trkpt lat="45.06422" lon="6.40837">
        <ele>2636.3</ele>
        <time>2020-08-20 10:22:43</time>
      </trkpt>
      <trkpt lat="45.06421" lon="6.40832">
        <ele>2636.6</ele>
        <time>2020-08-20 10:22:45</time>
      </trkpt>
      <trkpt lat="45.0642" lon="6.40816">
        <ele>2637.9</ele>
        <time>2020-08-20 10:22:52</time>
      </trkpt>
      <trkpt lat="45.0642" lon="6.40811">
        <ele>2638.2</ele>
        <time>2020-08-20 10:22:54</time>
      </trkpt>
      <trkpt lat="45.0642" lon="6.40809">
        <ele>2638.3</ele>
        <time>2020-08-20 10:22:55</time>
      </trkpt>
      <trkpt lat="45.0642" lon="6.40802">
        <ele>2638.9</ele>
        <time>2020-08-20 10:22:58</time>
      </trkpt>
      <trkpt lat="45.0642" lon="6.40797">
        <ele>2639.6</ele>
        <time>2020-08-20 10:23:00</time>
      </trkpt>
      <trkpt lat="45.06419" lon="6.40788">
        <ele>2641.2</ele>
        <time>2020-08-20 10:23:06</time>
      </trkpt>
      <trkpt lat="45.06419" lon="6.40786">
        <ele>2641.4</ele>
        <time>2020-08-20 10:23:27</time>
      </trkpt>
      <trkpt lat="45.06418" lon="6.40786">
        <ele>2641.7</ele>
        <time>2020-08-20 10:23:28</time>
      </trkpt>
      <trkpt lat="45.06419" lon="6.40786">
        <ele>2641.4</ele>
        <time>2020-08-20 10:23:37</time>
      </trkpt>
    </trkseg>
  </trk>
</gpx>